<?xml version="1.0" encoding="UTF-8" standalone="no" ?>
<gpx xmlns="http://www.topografix.com/GPX/1/1" xmlns:xsi="http://www.w3.org/2001/XMLSchema-instance" xsi:schemaLocation="http://www.topografix.com/GPX/1/1 http://www.topografix.com/GPX/1/1/gpx.xsd" version="1.1" creator="VisuGPX - https://www.visugpx.com">
  <metadata>
    <name>Balade de 8km à Rocheville </name>
  </metadata>
  <trk>
    <name><![CDATA[Balade de 8km à Rocheville _1]]></name>
    <trkseg>
      <trkpt lat="49.50351" lon="-1.59598">
        <ele>62.2</ele>
        <time>2022-01-25T13:27:59Z</time>
      </trkpt>
      <trkpt lat="49.50353" lon="-1.59607">
        <ele>56.6</ele>
        <time>2022-01-25T13:28:01Z</time>
      </trkpt>
      <trkpt lat="49.50354" lon="-1.59614">
        <ele>61.6</ele>
        <time>2022-01-25T13:28:04Z</time>
      </trkpt>
      <trkpt lat="49.5035" lon="-1.59609">
        <ele>61.9</ele>
        <time>2022-01-25T13:28:37Z</time>
      </trkpt>
      <trkpt lat="49.50355" lon="-1.59605">
        <ele>61.5</ele>
        <time>2022-01-25T13:29:00Z</time>
      </trkpt>
      <trkpt lat="49.50358" lon="-1.596">
        <ele>60.3</ele>
        <time>2022-01-25T13:29:57Z</time>
      </trkpt>
      <trkpt lat="49.50361" lon="-1.59606">
        <ele>60.5</ele>
        <time>2022-01-25T13:30:15Z</time>
      </trkpt>
      <trkpt lat="49.50364" lon="-1.59613">
        <ele>60.6</ele>
        <time>2022-01-25T13:30:20Z</time>
      </trkpt>
      <trkpt lat="49.50361" lon="-1.59608">
        <ele>61</ele>
        <time>2022-01-25T13:30:59Z</time>
      </trkpt>
      <trkpt lat="49.50358" lon="-1.59602">
        <ele>61.5</ele>
        <time>2022-01-25T13:31:39Z</time>
      </trkpt>
      <trkpt lat="49.50356" lon="-1.59609">
        <ele>62.4</ele>
        <time>2022-01-25T13:32:25Z</time>
      </trkpt>
      <trkpt lat="49.50361" lon="-1.5961">
        <ele>62.6</ele>
        <time>2022-01-25T13:32:31Z</time>
      </trkpt>
      <trkpt lat="49.50364" lon="-1.59601">
        <ele>62.7</ele>
        <time>2022-01-25T13:32:34Z</time>
      </trkpt>
      <trkpt lat="49.50365" lon="-1.59593">
        <ele>62.6</ele>
        <time>2022-01-25T13:32:37Z</time>
      </trkpt>
      <trkpt lat="49.5037" lon="-1.59586">
        <ele>62.7</ele>
        <time>2022-01-25T13:32:40Z</time>
      </trkpt>
      <trkpt lat="49.50373" lon="-1.59581">
        <ele>63</ele>
        <time>2022-01-25T13:32:44Z</time>
      </trkpt>
      <trkpt lat="49.50378" lon="-1.59578">
        <ele>63.3</ele>
        <time>2022-01-25T13:33:18Z</time>
      </trkpt>
      <trkpt lat="49.50382" lon="-1.59576">
        <ele>63.3</ele>
        <time>2022-01-25T13:33:25Z</time>
      </trkpt>
      <trkpt lat="49.50386" lon="-1.59578">
        <ele>63.2</ele>
        <time>2022-01-25T13:33:37Z</time>
      </trkpt>
      <trkpt lat="49.50388" lon="-1.59572">
        <ele>63</ele>
        <time>2022-01-25T13:33:50Z</time>
      </trkpt>
      <trkpt lat="49.50393" lon="-1.59574">
        <ele>62.9</ele>
        <time>2022-01-25T13:33:57Z</time>
      </trkpt>
      <trkpt lat="49.50397" lon="-1.59571">
        <ele>62.9</ele>
        <time>2022-01-25T13:33:59Z</time>
      </trkpt>
      <trkpt lat="49.50403" lon="-1.59567">
        <ele>63.1</ele>
        <time>2022-01-25T13:34:02Z</time>
      </trkpt>
      <trkpt lat="49.50408" lon="-1.59563">
        <ele>63.2</ele>
        <time>2022-01-25T13:34:05Z</time>
      </trkpt>
      <trkpt lat="49.50413" lon="-1.59562">
        <ele>63.2</ele>
        <time>2022-01-25T13:34:07Z</time>
      </trkpt>
      <trkpt lat="49.50419" lon="-1.59559">
        <ele>63.2</ele>
        <time>2022-01-25T13:34:10Z</time>
      </trkpt>
      <trkpt lat="49.50423" lon="-1.59555">
        <ele>63.2</ele>
        <time>2022-01-25T13:34:15Z</time>
      </trkpt>
      <trkpt lat="49.50427" lon="-1.59561">
        <ele>63</ele>
        <time>2022-01-25T13:34:23Z</time>
      </trkpt>
      <trkpt lat="49.50431" lon="-1.59557">
        <ele>63.1</ele>
        <time>2022-01-25T13:34:29Z</time>
      </trkpt>
      <trkpt lat="49.50431" lon="-1.59549">
        <ele>63.1</ele>
        <time>2022-01-25T13:34:37Z</time>
      </trkpt>
      <trkpt lat="49.50428" lon="-1.59543">
        <ele>63.1</ele>
        <time>2022-01-25T13:34:39Z</time>
      </trkpt>
      <trkpt lat="49.50425" lon="-1.59537">
        <ele>62.9</ele>
        <time>2022-01-25T13:34:41Z</time>
      </trkpt>
      <trkpt lat="49.50422" lon="-1.59532">
        <ele>62.8</ele>
        <time>2022-01-25T13:34:43Z</time>
      </trkpt>
      <trkpt lat="49.50421" lon="-1.59524">
        <ele>62.7</ele>
        <time>2022-01-25T13:34:48Z</time>
      </trkpt>
      <trkpt lat="49.50423" lon="-1.59518">
        <ele>62.9</ele>
        <time>2022-01-25T13:34:51Z</time>
      </trkpt>
      <trkpt lat="49.50426" lon="-1.59512">
        <ele>63.2</ele>
        <time>2022-01-25T13:34:54Z</time>
      </trkpt>
      <trkpt lat="49.5043" lon="-1.59506">
        <ele>63.3</ele>
        <time>2022-01-25T13:34:58Z</time>
      </trkpt>
      <trkpt lat="49.50435" lon="-1.59505">
        <ele>63.3</ele>
        <time>2022-01-25T13:35:01Z</time>
      </trkpt>
      <trkpt lat="49.50436" lon="-1.59495">
        <ele>63.2</ele>
        <time>2022-01-25T13:35:05Z</time>
      </trkpt>
      <trkpt lat="49.50436" lon="-1.59487">
        <ele>63.2</ele>
        <time>2022-01-25T13:35:08Z</time>
      </trkpt>
      <trkpt lat="49.50437" lon="-1.5948">
        <ele>63.1</ele>
        <time>2022-01-25T13:35:11Z</time>
      </trkpt>
      <trkpt lat="49.50439" lon="-1.59473">
        <ele>62.9</ele>
        <time>2022-01-25T13:35:14Z</time>
      </trkpt>
      <trkpt lat="49.50442" lon="-1.59463">
        <ele>62.4</ele>
        <time>2022-01-25T13:35:22Z</time>
      </trkpt>
      <trkpt lat="49.50445" lon="-1.59458">
        <ele>62.4</ele>
        <time>2022-01-25T13:35:26Z</time>
      </trkpt>
      <trkpt lat="49.50448" lon="-1.59449">
        <ele>62.6</ele>
        <time>2022-01-25T13:35:30Z</time>
      </trkpt>
      <trkpt lat="49.50448" lon="-1.59441">
        <ele>63.1</ele>
        <time>2022-01-25T13:35:33Z</time>
      </trkpt>
      <trkpt lat="49.50449" lon="-1.5943">
        <ele>64</ele>
        <time>2022-01-25T13:35:36Z</time>
      </trkpt>
      <trkpt lat="49.50451" lon="-1.59423">
        <ele>64.9</ele>
        <time>2022-01-25T13:35:39Z</time>
      </trkpt>
      <trkpt lat="49.50454" lon="-1.59417">
        <ele>65.5</ele>
        <time>2022-01-25T13:35:43Z</time>
      </trkpt>
      <trkpt lat="49.50458" lon="-1.59413">
        <ele>65.8</ele>
        <time>2022-01-25T13:35:47Z</time>
      </trkpt>
      <trkpt lat="49.50452" lon="-1.59408">
        <ele>66.9</ele>
        <time>2022-01-25T13:36:02Z</time>
      </trkpt>
      <trkpt lat="49.50449" lon="-1.59401">
        <ele>67.1</ele>
        <time>2022-01-25T13:36:07Z</time>
      </trkpt>
      <trkpt lat="49.50446" lon="-1.59394">
        <ele>67.1</ele>
        <time>2022-01-25T13:36:11Z</time>
      </trkpt>
      <trkpt lat="49.50448" lon="-1.594">
        <ele>67.2</ele>
        <time>2022-01-25T13:36:18Z</time>
      </trkpt>
      <trkpt lat="49.5045" lon="-1.59409">
        <ele>67.2</ele>
        <time>2022-01-25T13:36:23Z</time>
      </trkpt>
      <trkpt lat="49.50453" lon="-1.59417">
        <ele>66.9</ele>
        <time>2022-01-25T13:36:28Z</time>
      </trkpt>
      <trkpt lat="49.50459" lon="-1.59417">
        <ele>66.7</ele>
        <time>2022-01-25T13:36:31Z</time>
      </trkpt>
      <trkpt lat="49.50463" lon="-1.59414">
        <ele>66.5</ele>
        <time>2022-01-25T13:36:34Z</time>
      </trkpt>
      <trkpt lat="49.50468" lon="-1.59407">
        <ele>66.3</ele>
        <time>2022-01-25T13:36:37Z</time>
      </trkpt>
      <trkpt lat="49.50471" lon="-1.59401">
        <ele>66.4</ele>
        <time>2022-01-25T13:36:40Z</time>
      </trkpt>
      <trkpt lat="49.50474" lon="-1.59393">
        <ele>66.4</ele>
        <time>2022-01-25T13:36:43Z</time>
      </trkpt>
      <trkpt lat="49.50476" lon="-1.59387">
        <ele>66.4</ele>
        <time>2022-01-25T13:36:45Z</time>
      </trkpt>
      <trkpt lat="49.50479" lon="-1.59381">
        <ele>66.4</ele>
        <time>2022-01-25T13:36:48Z</time>
      </trkpt>
      <trkpt lat="49.50482" lon="-1.59373">
        <ele>66.6</ele>
        <time>2022-01-25T13:36:52Z</time>
      </trkpt>
      <trkpt lat="49.50484" lon="-1.59366">
        <ele>66.9</ele>
        <time>2022-01-25T13:36:55Z</time>
      </trkpt>
      <trkpt lat="49.50487" lon="-1.59359">
        <ele>67.4</ele>
        <time>2022-01-25T13:36:59Z</time>
      </trkpt>
      <trkpt lat="49.50488" lon="-1.59351">
        <ele>67.7</ele>
        <time>2022-01-25T13:37:03Z</time>
      </trkpt>
      <trkpt lat="49.50484" lon="-1.59348">
        <ele>67.8</ele>
        <time>2022-01-25T13:37:10Z</time>
      </trkpt>
      <trkpt lat="49.5048" lon="-1.59343">
        <ele>67.9</ele>
        <time>2022-01-25T13:37:19Z</time>
      </trkpt>
      <trkpt lat="49.50476" lon="-1.59337">
        <ele>67.8</ele>
        <time>2022-01-25T13:37:24Z</time>
      </trkpt>
      <trkpt lat="49.50474" lon="-1.59331">
        <ele>67.8</ele>
        <time>2022-01-25T13:37:27Z</time>
      </trkpt>
      <trkpt lat="49.50473" lon="-1.5932">
        <ele>68</ele>
        <time>2022-01-25T13:37:32Z</time>
      </trkpt>
      <trkpt lat="49.50471" lon="-1.5931">
        <ele>68.4</ele>
        <time>2022-01-25T13:37:37Z</time>
      </trkpt>
      <trkpt lat="49.50467" lon="-1.59304">
        <ele>68.5</ele>
        <time>2022-01-25T13:37:41Z</time>
      </trkpt>
      <trkpt lat="49.50464" lon="-1.59297">
        <ele>68.4</ele>
        <time>2022-01-25T13:37:44Z</time>
      </trkpt>
      <trkpt lat="49.50462" lon="-1.59291">
        <ele>68.3</ele>
        <time>2022-01-25T13:37:48Z</time>
      </trkpt>
      <trkpt lat="49.50458" lon="-1.59284">
        <ele>68.2</ele>
        <time>2022-01-25T13:37:52Z</time>
      </trkpt>
      <trkpt lat="49.50455" lon="-1.59278">
        <ele>68.2</ele>
        <time>2022-01-25T13:37:55Z</time>
      </trkpt>
      <trkpt lat="49.50452" lon="-1.5927">
        <ele>68.1</ele>
        <time>2022-01-25T13:38:00Z</time>
      </trkpt>
      <trkpt lat="49.50449" lon="-1.59263">
        <ele>68.1</ele>
        <time>2022-01-25T13:38:04Z</time>
      </trkpt>
      <trkpt lat="49.50447" lon="-1.59257">
        <ele>68.2</ele>
        <time>2022-01-25T13:38:07Z</time>
      </trkpt>
      <trkpt lat="49.50452" lon="-1.59256">
        <ele>68.4</ele>
        <time>2022-01-25T13:38:13Z</time>
      </trkpt>
      <trkpt lat="49.50448" lon="-1.59252">
        <ele>68.5</ele>
        <time>2022-01-25T13:38:19Z</time>
      </trkpt>
      <trkpt lat="49.50444" lon="-1.59246">
        <ele>68.5</ele>
        <time>2022-01-25T13:38:22Z</time>
      </trkpt>
      <trkpt lat="49.5044" lon="-1.59241">
        <ele>68.4</ele>
        <time>2022-01-25T13:38:24Z</time>
      </trkpt>
      <trkpt lat="49.50437" lon="-1.59234">
        <ele>68.1</ele>
        <time>2022-01-25T13:38:27Z</time>
      </trkpt>
      <trkpt lat="49.50434" lon="-1.59226">
        <ele>67.8</ele>
        <time>2022-01-25T13:38:30Z</time>
      </trkpt>
      <trkpt lat="49.50431" lon="-1.5922">
        <ele>67.7</ele>
        <time>2022-01-25T13:38:33Z</time>
      </trkpt>
      <trkpt lat="49.50428" lon="-1.59214">
        <ele>67.8</ele>
        <time>2022-01-25T13:38:36Z</time>
      </trkpt>
      <trkpt lat="49.50425" lon="-1.59208">
        <ele>67.7</ele>
        <time>2022-01-25T13:38:39Z</time>
      </trkpt>
      <trkpt lat="49.50423" lon="-1.59201">
        <ele>67.5</ele>
        <time>2022-01-25T13:38:43Z</time>
      </trkpt>
      <trkpt lat="49.50419" lon="-1.59195">
        <ele>67.4</ele>
        <time>2022-01-25T13:38:46Z</time>
      </trkpt>
      <trkpt lat="49.50415" lon="-1.59189">
        <ele>67.3</ele>
        <time>2022-01-25T13:38:49Z</time>
      </trkpt>
      <trkpt lat="49.5041" lon="-1.59186">
        <ele>67.2</ele>
        <time>2022-01-25T13:38:53Z</time>
      </trkpt>
      <trkpt lat="49.50406" lon="-1.59191">
        <ele>66.9</ele>
        <time>2022-01-25T13:38:57Z</time>
      </trkpt>
      <trkpt lat="49.50403" lon="-1.59195">
        <ele>66.4</ele>
        <time>2022-01-25T13:39:04Z</time>
      </trkpt>
      <trkpt lat="49.50403" lon="-1.59202">
        <ele>66.1</ele>
        <time>2022-01-25T13:39:14Z</time>
      </trkpt>
      <trkpt lat="49.50399" lon="-1.5921">
        <ele>65.9</ele>
        <time>2022-01-25T13:39:18Z</time>
      </trkpt>
      <trkpt lat="49.50396" lon="-1.59217">
        <ele>65.7</ele>
        <time>2022-01-25T13:39:21Z</time>
      </trkpt>
      <trkpt lat="49.50392" lon="-1.59222">
        <ele>65.4</ele>
        <time>2022-01-25T13:39:23Z</time>
      </trkpt>
      <trkpt lat="49.50389" lon="-1.59227">
        <ele>65.3</ele>
        <time>2022-01-25T13:39:25Z</time>
      </trkpt>
      <trkpt lat="49.50385" lon="-1.59233">
        <ele>65.2</ele>
        <time>2022-01-25T13:39:29Z</time>
      </trkpt>
      <trkpt lat="49.5038" lon="-1.59237">
        <ele>65.5</ele>
        <time>2022-01-25T13:39:33Z</time>
      </trkpt>
      <trkpt lat="49.50376" lon="-1.59242">
        <ele>65.8</ele>
        <time>2022-01-25T13:39:37Z</time>
      </trkpt>
      <trkpt lat="49.50371" lon="-1.59247">
        <ele>66.1</ele>
        <time>2022-01-25T13:39:42Z</time>
      </trkpt>
      <trkpt lat="49.50367" lon="-1.59253">
        <ele>66.2</ele>
        <time>2022-01-25T13:39:46Z</time>
      </trkpt>
      <trkpt lat="49.50364" lon="-1.59261">
        <ele>66.4</ele>
        <time>2022-01-25T13:39:50Z</time>
      </trkpt>
      <trkpt lat="49.50358" lon="-1.59263">
        <ele>66.6</ele>
        <time>2022-01-25T13:39:54Z</time>
      </trkpt>
      <trkpt lat="49.50354" lon="-1.59268">
        <ele>66.5</ele>
        <time>2022-01-25T13:39:58Z</time>
      </trkpt>
      <trkpt lat="49.5035" lon="-1.59272">
        <ele>66.3</ele>
        <time>2022-01-25T13:40:03Z</time>
      </trkpt>
      <trkpt lat="49.50346" lon="-1.59277">
        <ele>66</ele>
        <time>2022-01-25T13:40:07Z</time>
      </trkpt>
      <trkpt lat="49.50343" lon="-1.59282">
        <ele>65.6</ele>
        <time>2022-01-25T13:40:12Z</time>
      </trkpt>
      <trkpt lat="49.50338" lon="-1.59286">
        <ele>64.8</ele>
        <time>2022-01-25T13:40:28Z</time>
      </trkpt>
      <trkpt lat="49.50334" lon="-1.5929">
        <ele>64.6</ele>
        <time>2022-01-25T13:40:30Z</time>
      </trkpt>
      <trkpt lat="49.50329" lon="-1.59297">
        <ele>64.2</ele>
        <time>2022-01-25T13:40:33Z</time>
      </trkpt>
      <trkpt lat="49.50325" lon="-1.59303">
        <ele>63.5</ele>
        <time>2022-01-25T13:40:36Z</time>
      </trkpt>
      <trkpt lat="49.50322" lon="-1.5931">
        <ele>63</ele>
        <time>2022-01-25T13:40:40Z</time>
      </trkpt>
      <trkpt lat="49.50319" lon="-1.59317">
        <ele>63.2</ele>
        <time>2022-01-25T13:40:46Z</time>
      </trkpt>
      <trkpt lat="49.50316" lon="-1.59322">
        <ele>63.4</ele>
        <time>2022-01-25T13:40:50Z</time>
      </trkpt>
      <trkpt lat="49.50312" lon="-1.59331">
        <ele>63.6</ele>
        <time>2022-01-25T13:40:54Z</time>
      </trkpt>
      <trkpt lat="49.50309" lon="-1.59337">
        <ele>64.2</ele>
        <time>2022-01-25T13:40:59Z</time>
      </trkpt>
      <trkpt lat="49.50306" lon="-1.59342">
        <ele>64.7</ele>
        <time>2022-01-25T13:41:02Z</time>
      </trkpt>
      <trkpt lat="49.50301" lon="-1.59348">
        <ele>64.9</ele>
        <time>2022-01-25T13:41:06Z</time>
      </trkpt>
      <trkpt lat="49.50297" lon="-1.59352">
        <ele>64.8</ele>
        <time>2022-01-25T13:41:12Z</time>
      </trkpt>
      <trkpt lat="49.50294" lon="-1.59359">
        <ele>64.6</ele>
        <time>2022-01-25T13:41:16Z</time>
      </trkpt>
      <trkpt lat="49.50291" lon="-1.59364">
        <ele>64.3</ele>
        <time>2022-01-25T13:41:19Z</time>
      </trkpt>
      <trkpt lat="49.50287" lon="-1.5937">
        <ele>63.6</ele>
        <time>2022-01-25T13:41:24Z</time>
      </trkpt>
      <trkpt lat="49.50284" lon="-1.59374">
        <ele>64</ele>
        <time>2022-01-25T13:41:33Z</time>
      </trkpt>
      <trkpt lat="49.50279" lon="-1.59379">
        <ele>64.3</ele>
        <time>2022-01-25T13:41:36Z</time>
      </trkpt>
      <trkpt lat="49.50275" lon="-1.59386">
        <ele>64.1</ele>
        <time>2022-01-25T13:41:39Z</time>
      </trkpt>
      <trkpt lat="49.50266" lon="-1.59397">
        <ele>63.8</ele>
        <time>2022-01-25T13:41:46Z</time>
      </trkpt>
      <trkpt lat="49.50263" lon="-1.59404">
        <ele>63.8</ele>
        <time>2022-01-25T13:41:51Z</time>
      </trkpt>
      <trkpt lat="49.50259" lon="-1.59408">
        <ele>63.8</ele>
        <time>2022-01-25T13:41:54Z</time>
      </trkpt>
      <trkpt lat="49.50254" lon="-1.59411">
        <ele>64.1</ele>
        <time>2022-01-25T13:41:58Z</time>
      </trkpt>
      <trkpt lat="49.5025" lon="-1.59418">
        <ele>64.5</ele>
        <time>2022-01-25T13:42:02Z</time>
      </trkpt>
      <trkpt lat="49.50246" lon="-1.59423">
        <ele>64.7</ele>
        <time>2022-01-25T13:42:08Z</time>
      </trkpt>
      <trkpt lat="49.50242" lon="-1.5943">
        <ele>64.4</ele>
        <time>2022-01-25T13:42:13Z</time>
      </trkpt>
      <trkpt lat="49.50238" lon="-1.59437">
        <ele>63.9</ele>
        <time>2022-01-25T13:42:17Z</time>
      </trkpt>
      <trkpt lat="49.50234" lon="-1.59443">
        <ele>63.4</ele>
        <time>2022-01-25T13:42:23Z</time>
      </trkpt>
      <trkpt lat="49.50232" lon="-1.59449">
        <ele>63.4</ele>
        <time>2022-01-25T13:42:30Z</time>
      </trkpt>
      <trkpt lat="49.50227" lon="-1.59453">
        <ele>63.4</ele>
        <time>2022-01-25T13:42:35Z</time>
      </trkpt>
      <trkpt lat="49.50222" lon="-1.59457">
        <ele>63.3</ele>
        <time>2022-01-25T13:42:38Z</time>
      </trkpt>
      <trkpt lat="49.50218" lon="-1.59462">
        <ele>63</ele>
        <time>2022-01-25T13:42:43Z</time>
      </trkpt>
      <trkpt lat="49.50214" lon="-1.59466">
        <ele>63.2</ele>
        <time>2022-01-25T13:42:54Z</time>
      </trkpt>
      <trkpt lat="49.50209" lon="-1.59471">
        <ele>63.2</ele>
        <time>2022-01-25T13:42:58Z</time>
      </trkpt>
      <trkpt lat="49.50205" lon="-1.59476">
        <ele>63.1</ele>
        <time>2022-01-25T13:43:01Z</time>
      </trkpt>
      <trkpt lat="49.50201" lon="-1.59482">
        <ele>63.1</ele>
        <time>2022-01-25T13:43:04Z</time>
      </trkpt>
      <trkpt lat="49.50196" lon="-1.59487">
        <ele>62.9</ele>
        <time>2022-01-25T13:43:07Z</time>
      </trkpt>
      <trkpt lat="49.50192" lon="-1.59492">
        <ele>62.6</ele>
        <time>2022-01-25T13:43:11Z</time>
      </trkpt>
      <trkpt lat="49.50187" lon="-1.59497">
        <ele>62.8</ele>
        <time>2022-01-25T13:43:14Z</time>
      </trkpt>
      <trkpt lat="49.50185" lon="-1.59504">
        <ele>63.4</ele>
        <time>2022-01-25T13:43:17Z</time>
      </trkpt>
      <trkpt lat="49.50182" lon="-1.59511">
        <ele>64.3</ele>
        <time>2022-01-25T13:43:21Z</time>
      </trkpt>
      <trkpt lat="49.50179" lon="-1.59517">
        <ele>65</ele>
        <time>2022-01-25T13:43:24Z</time>
      </trkpt>
      <trkpt lat="49.50176" lon="-1.59524">
        <ele>65.2</ele>
        <time>2022-01-25T13:43:27Z</time>
      </trkpt>
      <trkpt lat="49.50171" lon="-1.59526">
        <ele>65.2</ele>
        <time>2022-01-25T13:43:32Z</time>
      </trkpt>
      <trkpt lat="49.50167" lon="-1.59532">
        <ele>65.1</ele>
        <time>2022-01-25T13:43:41Z</time>
      </trkpt>
      <trkpt lat="49.50162" lon="-1.59537">
        <ele>64.4</ele>
        <time>2022-01-25T13:43:45Z</time>
      </trkpt>
      <trkpt lat="49.50158" lon="-1.59542">
        <ele>63.8</ele>
        <time>2022-01-25T13:43:48Z</time>
      </trkpt>
      <trkpt lat="49.50154" lon="-1.59547">
        <ele>63.5</ele>
        <time>2022-01-25T13:43:53Z</time>
      </trkpt>
      <trkpt lat="49.50151" lon="-1.59552">
        <ele>63.5</ele>
        <time>2022-01-25T13:43:58Z</time>
      </trkpt>
      <trkpt lat="49.50148" lon="-1.59558">
        <ele>63.7</ele>
        <time>2022-01-25T13:44:03Z</time>
      </trkpt>
      <trkpt lat="49.50144" lon="-1.59564">
        <ele>64</ele>
        <time>2022-01-25T13:44:10Z</time>
      </trkpt>
      <trkpt lat="49.50139" lon="-1.59571">
        <ele>64</ele>
        <time>2022-01-25T13:44:14Z</time>
      </trkpt>
      <trkpt lat="49.50135" lon="-1.59577">
        <ele>64.1</ele>
        <time>2022-01-25T13:44:18Z</time>
      </trkpt>
      <trkpt lat="49.50132" lon="-1.59584">
        <ele>64.2</ele>
        <time>2022-01-25T13:44:26Z</time>
      </trkpt>
      <trkpt lat="49.50128" lon="-1.59589">
        <ele>64.2</ele>
        <time>2022-01-25T13:44:29Z</time>
      </trkpt>
      <trkpt lat="49.50124" lon="-1.59594">
        <ele>64.3</ele>
        <time>2022-01-25T13:44:32Z</time>
      </trkpt>
      <trkpt lat="49.50118" lon="-1.59601">
        <ele>64.3</ele>
        <time>2022-01-25T13:44:36Z</time>
      </trkpt>
      <trkpt lat="49.50115" lon="-1.59606">
        <ele>64.4</ele>
        <time>2022-01-25T13:44:39Z</time>
      </trkpt>
      <trkpt lat="49.5011" lon="-1.59611">
        <ele>64.3</ele>
        <time>2022-01-25T13:44:43Z</time>
      </trkpt>
      <trkpt lat="49.50106" lon="-1.59615">
        <ele>64.4</ele>
        <time>2022-01-25T13:44:46Z</time>
      </trkpt>
      <trkpt lat="49.50102" lon="-1.59621">
        <ele>64.3</ele>
        <time>2022-01-25T13:44:51Z</time>
      </trkpt>
      <trkpt lat="49.50099" lon="-1.59627">
        <ele>64.1</ele>
        <time>2022-01-25T13:44:55Z</time>
      </trkpt>
      <trkpt lat="49.50095" lon="-1.59633">
        <ele>64</ele>
        <time>2022-01-25T13:44:58Z</time>
      </trkpt>
      <trkpt lat="49.50092" lon="-1.59639">
        <ele>64</ele>
        <time>2022-01-25T13:45:03Z</time>
      </trkpt>
      <trkpt lat="49.50089" lon="-1.59645">
        <ele>64</ele>
        <time>2022-01-25T13:45:06Z</time>
      </trkpt>
      <trkpt lat="49.50085" lon="-1.59651">
        <ele>64.1</ele>
        <time>2022-01-25T13:45:11Z</time>
      </trkpt>
      <trkpt lat="49.50081" lon="-1.59657">
        <ele>64.1</ele>
        <time>2022-01-25T13:45:17Z</time>
      </trkpt>
      <trkpt lat="49.50077" lon="-1.59662">
        <ele>63.9</ele>
        <time>2022-01-25T13:45:20Z</time>
      </trkpt>
      <trkpt lat="49.50073" lon="-1.59666">
        <ele>63.7</ele>
        <time>2022-01-25T13:45:24Z</time>
      </trkpt>
      <trkpt lat="49.50069" lon="-1.59672">
        <ele>63.7</ele>
        <time>2022-01-25T13:45:26Z</time>
      </trkpt>
      <trkpt lat="49.50066" lon="-1.59677">
        <ele>63.7</ele>
        <time>2022-01-25T13:45:30Z</time>
      </trkpt>
      <trkpt lat="49.50061" lon="-1.59683">
        <ele>63.9</ele>
        <time>2022-01-25T13:45:33Z</time>
      </trkpt>
      <trkpt lat="49.50058" lon="-1.59689">
        <ele>64</ele>
        <time>2022-01-25T13:45:37Z</time>
      </trkpt>
      <trkpt lat="49.50052" lon="-1.59696">
        <ele>64.3</ele>
        <time>2022-01-25T13:45:40Z</time>
      </trkpt>
      <trkpt lat="49.50048" lon="-1.597">
        <ele>64.6</ele>
        <time>2022-01-25T13:45:44Z</time>
      </trkpt>
      <trkpt lat="49.50044" lon="-1.59705">
        <ele>64.7</ele>
        <time>2022-01-25T13:45:47Z</time>
      </trkpt>
      <trkpt lat="49.5004" lon="-1.5971">
        <ele>64.7</ele>
        <time>2022-01-25T13:45:51Z</time>
      </trkpt>
      <trkpt lat="49.50037" lon="-1.59715">
        <ele>64.6</ele>
        <time>2022-01-25T13:45:58Z</time>
      </trkpt>
      <trkpt lat="49.50034" lon="-1.5972">
        <ele>64.7</ele>
        <time>2022-01-25T13:46:05Z</time>
      </trkpt>
      <trkpt lat="49.5003" lon="-1.59726">
        <ele>65</ele>
        <time>2022-01-25T13:46:09Z</time>
      </trkpt>
      <trkpt lat="49.50025" lon="-1.59732">
        <ele>65.5</ele>
        <time>2022-01-25T13:46:13Z</time>
      </trkpt>
      <trkpt lat="49.50019" lon="-1.59738">
        <ele>65.8</ele>
        <time>2022-01-25T13:46:16Z</time>
      </trkpt>
      <trkpt lat="49.50015" lon="-1.59743">
        <ele>66</ele>
        <time>2022-01-25T13:46:19Z</time>
      </trkpt>
      <trkpt lat="49.50011" lon="-1.59748">
        <ele>66.1</ele>
        <time>2022-01-25T13:46:23Z</time>
      </trkpt>
      <trkpt lat="49.50007" lon="-1.59753">
        <ele>65.9</ele>
        <time>2022-01-25T13:46:26Z</time>
      </trkpt>
      <trkpt lat="49.50002" lon="-1.59758">
        <ele>65.8</ele>
        <time>2022-01-25T13:46:31Z</time>
      </trkpt>
      <trkpt lat="49.49997" lon="-1.59763">
        <ele>66</ele>
        <time>2022-01-25T13:46:34Z</time>
      </trkpt>
      <trkpt lat="49.49994" lon="-1.59768">
        <ele>66.4</ele>
        <time>2022-01-25T13:46:38Z</time>
      </trkpt>
      <trkpt lat="49.4999" lon="-1.59774">
        <ele>66.6</ele>
        <time>2022-01-25T13:46:42Z</time>
      </trkpt>
      <trkpt lat="49.49989" lon="-1.59782">
        <ele>66.7</ele>
        <time>2022-01-25T13:46:46Z</time>
      </trkpt>
      <trkpt lat="49.49985" lon="-1.59788">
        <ele>66.7</ele>
        <time>2022-01-25T13:46:51Z</time>
      </trkpt>
      <trkpt lat="49.4998" lon="-1.59793">
        <ele>66.6</ele>
        <time>2022-01-25T13:46:54Z</time>
      </trkpt>
      <trkpt lat="49.49976" lon="-1.59798">
        <ele>66.2</ele>
        <time>2022-01-25T13:46:59Z</time>
      </trkpt>
      <trkpt lat="49.49973" lon="-1.59804">
        <ele>65.8</ele>
        <time>2022-01-25T13:47:03Z</time>
      </trkpt>
      <trkpt lat="49.49969" lon="-1.59809">
        <ele>65.9</ele>
        <time>2022-01-25T13:47:07Z</time>
      </trkpt>
      <trkpt lat="49.49964" lon="-1.59811">
        <ele>65.6</ele>
        <time>2022-01-25T13:47:12Z</time>
      </trkpt>
      <trkpt lat="49.49962" lon="-1.59819">
        <ele>65</ele>
        <time>2022-01-25T13:47:16Z</time>
      </trkpt>
      <trkpt lat="49.49957" lon="-1.59824">
        <ele>64.4</ele>
        <time>2022-01-25T13:47:21Z</time>
      </trkpt>
      <trkpt lat="49.49953" lon="-1.59831">
        <ele>64.2</ele>
        <time>2022-01-25T13:47:26Z</time>
      </trkpt>
      <trkpt lat="49.4995" lon="-1.59837">
        <ele>64</ele>
        <time>2022-01-25T13:47:30Z</time>
      </trkpt>
      <trkpt lat="49.49946" lon="-1.59845">
        <ele>63.9</ele>
        <time>2022-01-25T13:47:34Z</time>
      </trkpt>
      <trkpt lat="49.49944" lon="-1.59852">
        <ele>63.4</ele>
        <time>2022-01-25T13:47:39Z</time>
      </trkpt>
      <trkpt lat="49.49939" lon="-1.59857">
        <ele>62.8</ele>
        <time>2022-01-25T13:47:45Z</time>
      </trkpt>
      <trkpt lat="49.49938" lon="-1.5985">
        <ele>62.3</ele>
        <time>2022-01-25T13:47:50Z</time>
      </trkpt>
      <trkpt lat="49.49938" lon="-1.59841">
        <ele>62.1</ele>
        <time>2022-01-25T13:47:54Z</time>
      </trkpt>
      <trkpt lat="49.49941" lon="-1.59832">
        <ele>61.5</ele>
        <time>2022-01-25T13:47:59Z</time>
      </trkpt>
      <trkpt lat="49.49943" lon="-1.59825">
        <ele>61</ele>
        <time>2022-01-25T13:48:02Z</time>
      </trkpt>
      <trkpt lat="49.49946" lon="-1.59817">
        <ele>60.5</ele>
        <time>2022-01-25T13:48:07Z</time>
      </trkpt>
      <trkpt lat="49.4995" lon="-1.59812">
        <ele>60.6</ele>
        <time>2022-01-25T13:48:10Z</time>
      </trkpt>
      <trkpt lat="49.49954" lon="-1.59808">
        <ele>61</ele>
        <time>2022-01-25T13:48:14Z</time>
      </trkpt>
      <trkpt lat="49.49958" lon="-1.59804">
        <ele>61.2</ele>
        <time>2022-01-25T13:48:17Z</time>
      </trkpt>
      <trkpt lat="49.49962" lon="-1.598">
        <ele>61.1</ele>
        <time>2022-01-25T13:48:21Z</time>
      </trkpt>
      <trkpt lat="49.49965" lon="-1.59795">
        <ele>60.7</ele>
        <time>2022-01-25T13:48:24Z</time>
      </trkpt>
      <trkpt lat="49.49969" lon="-1.59788">
        <ele>60.9</ele>
        <time>2022-01-25T13:48:33Z</time>
      </trkpt>
      <trkpt lat="49.49974" lon="-1.59781">
        <ele>61.2</ele>
        <time>2022-01-25T13:48:37Z</time>
      </trkpt>
      <trkpt lat="49.49978" lon="-1.59777">
        <ele>61.2</ele>
        <time>2022-01-25T13:48:39Z</time>
      </trkpt>
      <trkpt lat="49.49982" lon="-1.59771">
        <ele>61.1</ele>
        <time>2022-01-25T13:48:43Z</time>
      </trkpt>
      <trkpt lat="49.49985" lon="-1.59767">
        <ele>60.3</ele>
        <time>2022-01-25T13:48:48Z</time>
      </trkpt>
      <trkpt lat="49.49989" lon="-1.59762">
        <ele>59.9</ele>
        <time>2022-01-25T13:48:51Z</time>
      </trkpt>
      <trkpt lat="49.49993" lon="-1.59757">
        <ele>59.9</ele>
        <time>2022-01-25T13:48:55Z</time>
      </trkpt>
      <trkpt lat="49.49997" lon="-1.59752">
        <ele>60</ele>
        <time>2022-01-25T13:48:58Z</time>
      </trkpt>
      <trkpt lat="49.50001" lon="-1.59744">
        <ele>60.1</ele>
        <time>2022-01-25T13:49:03Z</time>
      </trkpt>
      <trkpt lat="49.50005" lon="-1.59739">
        <ele>60.5</ele>
        <time>2022-01-25T13:49:09Z</time>
      </trkpt>
      <trkpt lat="49.50008" lon="-1.59733">
        <ele>60.9</ele>
        <time>2022-01-25T13:49:14Z</time>
      </trkpt>
      <trkpt lat="49.50012" lon="-1.59727">
        <ele>61.6</ele>
        <time>2022-01-25T13:49:19Z</time>
      </trkpt>
      <trkpt lat="49.50016" lon="-1.59719">
        <ele>62.1</ele>
        <time>2022-01-25T13:49:30Z</time>
      </trkpt>
      <trkpt lat="49.50019" lon="-1.59713">
        <ele>61.9</ele>
        <time>2022-01-25T13:49:32Z</time>
      </trkpt>
      <trkpt lat="49.50024" lon="-1.59704">
        <ele>61.6</ele>
        <time>2022-01-25T13:49:35Z</time>
      </trkpt>
      <trkpt lat="49.50027" lon="-1.59699">
        <ele>61.3</ele>
        <time>2022-01-25T13:49:38Z</time>
      </trkpt>
      <trkpt lat="49.50033" lon="-1.59692">
        <ele>61.2</ele>
        <time>2022-01-25T13:49:41Z</time>
      </trkpt>
      <trkpt lat="49.50038" lon="-1.59686">
        <ele>61.2</ele>
        <time>2022-01-25T13:49:45Z</time>
      </trkpt>
      <trkpt lat="49.50043" lon="-1.5968">
        <ele>61.1</ele>
        <time>2022-01-25T13:49:49Z</time>
      </trkpt>
      <trkpt lat="49.50046" lon="-1.59673">
        <ele>60.9</ele>
        <time>2022-01-25T13:49:52Z</time>
      </trkpt>
      <trkpt lat="49.50049" lon="-1.59666">
        <ele>60.6</ele>
        <time>2022-01-25T13:49:56Z</time>
      </trkpt>
      <trkpt lat="49.5005" lon="-1.59659">
        <ele>60.3</ele>
        <time>2022-01-25T13:49:59Z</time>
      </trkpt>
      <trkpt lat="49.50049" lon="-1.59651">
        <ele>60.3</ele>
        <time>2022-01-25T13:50:04Z</time>
      </trkpt>
      <trkpt lat="49.50046" lon="-1.59643">
        <ele>60.4</ele>
        <time>2022-01-25T13:50:08Z</time>
      </trkpt>
      <trkpt lat="49.50044" lon="-1.59637">
        <ele>60.7</ele>
        <time>2022-01-25T13:50:11Z</time>
      </trkpt>
      <trkpt lat="49.50041" lon="-1.5963">
        <ele>61.1</ele>
        <time>2022-01-25T13:50:15Z</time>
      </trkpt>
      <trkpt lat="49.50038" lon="-1.59622">
        <ele>61.5</ele>
        <time>2022-01-25T13:50:18Z</time>
      </trkpt>
      <trkpt lat="49.50036" lon="-1.59616">
        <ele>61.7</ele>
        <time>2022-01-25T13:50:22Z</time>
      </trkpt>
      <trkpt lat="49.50033" lon="-1.59609">
        <ele>61.9</ele>
        <time>2022-01-25T13:50:25Z</time>
      </trkpt>
      <trkpt lat="49.5003" lon="-1.59603">
        <ele>62</ele>
        <time>2022-01-25T13:50:30Z</time>
      </trkpt>
      <trkpt lat="49.50027" lon="-1.59597">
        <ele>62</ele>
        <time>2022-01-25T13:50:34Z</time>
      </trkpt>
      <trkpt lat="49.50024" lon="-1.59588">
        <ele>61.7</ele>
        <time>2022-01-25T13:50:40Z</time>
      </trkpt>
      <trkpt lat="49.5002" lon="-1.59579">
        <ele>61.4</ele>
        <time>2022-01-25T13:50:45Z</time>
      </trkpt>
      <trkpt lat="49.50016" lon="-1.59572">
        <ele>60.8</ele>
        <time>2022-01-25T13:50:49Z</time>
      </trkpt>
      <trkpt lat="49.50012" lon="-1.59566">
        <ele>60.2</ele>
        <time>2022-01-25T13:50:57Z</time>
      </trkpt>
      <trkpt lat="49.50008" lon="-1.59561">
        <ele>59.8</ele>
        <time>2022-01-25T13:51:01Z</time>
      </trkpt>
      <trkpt lat="49.50003" lon="-1.59555">
        <ele>59.2</ele>
        <time>2022-01-25T13:51:04Z</time>
      </trkpt>
      <trkpt lat="49.49999" lon="-1.5955">
        <ele>58.7</ele>
        <time>2022-01-25T13:51:08Z</time>
      </trkpt>
      <trkpt lat="49.49996" lon="-1.59544">
        <ele>58.5</ele>
        <time>2022-01-25T13:51:11Z</time>
      </trkpt>
      <trkpt lat="49.49994" lon="-1.59537">
        <ele>58.4</ele>
        <time>2022-01-25T13:51:15Z</time>
      </trkpt>
      <trkpt lat="49.49991" lon="-1.59531">
        <ele>58.1</ele>
        <time>2022-01-25T13:51:18Z</time>
      </trkpt>
      <trkpt lat="49.49988" lon="-1.59525">
        <ele>57.6</ele>
        <time>2022-01-25T13:51:23Z</time>
      </trkpt>
      <trkpt lat="49.49988" lon="-1.59517">
        <ele>57.5</ele>
        <time>2022-01-25T13:51:28Z</time>
      </trkpt>
      <trkpt lat="49.49987" lon="-1.5951">
        <ele>57.3</ele>
        <time>2022-01-25T13:51:33Z</time>
      </trkpt>
      <trkpt lat="49.49984" lon="-1.59501">
        <ele>57.1</ele>
        <time>2022-01-25T13:51:37Z</time>
      </trkpt>
      <trkpt lat="49.4998" lon="-1.59496">
        <ele>56.9</ele>
        <time>2022-01-25T13:51:40Z</time>
      </trkpt>
      <trkpt lat="49.49977" lon="-1.59491">
        <ele>56.7</ele>
        <time>2022-01-25T13:51:43Z</time>
      </trkpt>
      <trkpt lat="49.49974" lon="-1.59486">
        <ele>56.3</ele>
        <time>2022-01-25T13:51:46Z</time>
      </trkpt>
      <trkpt lat="49.49971" lon="-1.59478">
        <ele>55.6</ele>
        <time>2022-01-25T13:51:50Z</time>
      </trkpt>
      <trkpt lat="49.4997" lon="-1.59471">
        <ele>54.6</ele>
        <time>2022-01-25T13:51:55Z</time>
      </trkpt>
      <trkpt lat="49.49969" lon="-1.59463">
        <ele>53.8</ele>
        <time>2022-01-25T13:52:10Z</time>
      </trkpt>
      <trkpt lat="49.49968" lon="-1.59456">
        <ele>52.8</ele>
        <time>2022-01-25T13:52:26Z</time>
      </trkpt>
      <trkpt lat="49.49966" lon="-1.59448">
        <ele>52.8</ele>
        <time>2022-01-25T13:52:32Z</time>
      </trkpt>
      <trkpt lat="49.49964" lon="-1.59441">
        <ele>52.8</ele>
        <time>2022-01-25T13:52:35Z</time>
      </trkpt>
      <trkpt lat="49.49962" lon="-1.59433">
        <ele>52.7</ele>
        <time>2022-01-25T13:52:39Z</time>
      </trkpt>
      <trkpt lat="49.4996" lon="-1.59426">
        <ele>52.2</ele>
        <time>2022-01-25T13:52:42Z</time>
      </trkpt>
      <trkpt lat="49.49957" lon="-1.59418">
        <ele>51.9</ele>
        <time>2022-01-25T13:52:46Z</time>
      </trkpt>
      <trkpt lat="49.49957" lon="-1.59409">
        <ele>51.2</ele>
        <time>2022-01-25T13:52:49Z</time>
      </trkpt>
      <trkpt lat="49.49955" lon="-1.59402">
        <ele>51.1</ele>
        <time>2022-01-25T13:52:50Z</time>
      </trkpt>
      <trkpt lat="49.49951" lon="-1.59394">
        <ele>51.1</ele>
        <time>2022-01-25T13:52:52Z</time>
      </trkpt>
      <trkpt lat="49.4995" lon="-1.59387">
        <ele>51.3</ele>
        <time>2022-01-25T13:52:55Z</time>
      </trkpt>
      <trkpt lat="49.49948" lon="-1.59378">
        <ele>51.7</ele>
        <time>2022-01-25T13:52:57Z</time>
      </trkpt>
      <trkpt lat="49.49945" lon="-1.59361">
        <ele>52.2</ele>
        <time>2022-01-25T13:53:00Z</time>
      </trkpt>
      <trkpt lat="49.49944" lon="-1.59354">
        <ele>52.3</ele>
        <time>2022-01-25T13:53:02Z</time>
      </trkpt>
      <trkpt lat="49.49942" lon="-1.59346">
        <ele>52.8</ele>
        <time>2022-01-25T13:53:24Z</time>
      </trkpt>
      <trkpt lat="49.49939" lon="-1.59337">
        <ele>52.5</ele>
        <time>2022-01-25T13:53:27Z</time>
      </trkpt>
      <trkpt lat="49.49936" lon="-1.59331">
        <ele>52.4</ele>
        <time>2022-01-25T13:53:29Z</time>
      </trkpt>
      <trkpt lat="49.49932" lon="-1.59324">
        <ele>52.5</ele>
        <time>2022-01-25T13:53:32Z</time>
      </trkpt>
      <trkpt lat="49.4993" lon="-1.59317">
        <ele>53.1</ele>
        <time>2022-01-25T13:53:36Z</time>
      </trkpt>
      <trkpt lat="49.49927" lon="-1.5931">
        <ele>54</ele>
        <time>2022-01-25T13:53:41Z</time>
      </trkpt>
      <trkpt lat="49.49925" lon="-1.59303">
        <ele>54.7</ele>
        <time>2022-01-25T13:53:45Z</time>
      </trkpt>
      <trkpt lat="49.49923" lon="-1.59297">
        <ele>55.1</ele>
        <time>2022-01-25T13:53:50Z</time>
      </trkpt>
      <trkpt lat="49.49919" lon="-1.59287">
        <ele>55.3</ele>
        <time>2022-01-25T13:53:56Z</time>
      </trkpt>
      <trkpt lat="49.49915" lon="-1.59281">
        <ele>55.5</ele>
        <time>2022-01-25T13:53:59Z</time>
      </trkpt>
      <trkpt lat="49.49913" lon="-1.59273">
        <ele>55.6</ele>
        <time>2022-01-25T13:54:02Z</time>
      </trkpt>
      <trkpt lat="49.49911" lon="-1.59267">
        <ele>55.9</ele>
        <time>2022-01-25T13:54:06Z</time>
      </trkpt>
      <trkpt lat="49.49909" lon="-1.59258">
        <ele>56.5</ele>
        <time>2022-01-25T13:54:16Z</time>
      </trkpt>
      <trkpt lat="49.49905" lon="-1.59252">
        <ele>56.7</ele>
        <time>2022-01-25T13:54:19Z</time>
      </trkpt>
      <trkpt lat="49.499" lon="-1.59246">
        <ele>56.8</ele>
        <time>2022-01-25T13:54:22Z</time>
      </trkpt>
      <trkpt lat="49.49897" lon="-1.5924">
        <ele>57</ele>
        <time>2022-01-25T13:54:25Z</time>
      </trkpt>
      <trkpt lat="49.49894" lon="-1.59233">
        <ele>57.2</ele>
        <time>2022-01-25T13:54:29Z</time>
      </trkpt>
      <trkpt lat="49.49891" lon="-1.59227">
        <ele>57.5</ele>
        <time>2022-01-25T13:54:34Z</time>
      </trkpt>
      <trkpt lat="49.49887" lon="-1.59221">
        <ele>57.8</ele>
        <time>2022-01-25T13:54:39Z</time>
      </trkpt>
      <trkpt lat="49.49884" lon="-1.59214">
        <ele>58</ele>
        <time>2022-01-25T13:54:43Z</time>
      </trkpt>
      <trkpt lat="49.49881" lon="-1.59208">
        <ele>58.6</ele>
        <time>2022-01-25T13:54:48Z</time>
      </trkpt>
      <trkpt lat="49.49877" lon="-1.59204">
        <ele>59.1</ele>
        <time>2022-01-25T13:54:52Z</time>
      </trkpt>
      <trkpt lat="49.49873" lon="-1.59201">
        <ele>59.5</ele>
        <time>2022-01-25T13:54:56Z</time>
      </trkpt>
      <trkpt lat="49.49868" lon="-1.59198">
        <ele>59.7</ele>
        <time>2022-01-25T13:54:59Z</time>
      </trkpt>
      <trkpt lat="49.49862" lon="-1.59193">
        <ele>60.1</ele>
        <time>2022-01-25T13:55:05Z</time>
      </trkpt>
      <trkpt lat="49.49857" lon="-1.59188">
        <ele>60.3</ele>
        <time>2022-01-25T13:55:09Z</time>
      </trkpt>
      <trkpt lat="49.49852" lon="-1.59183">
        <ele>60.5</ele>
        <time>2022-01-25T13:55:15Z</time>
      </trkpt>
      <trkpt lat="49.49848" lon="-1.59176">
        <ele>60.8</ele>
        <time>2022-01-25T13:55:19Z</time>
      </trkpt>
      <trkpt lat="49.49843" lon="-1.59172">
        <ele>60.9</ele>
        <time>2022-01-25T13:55:25Z</time>
      </trkpt>
      <trkpt lat="49.49838" lon="-1.59166">
        <ele>61</ele>
        <time>2022-01-25T13:55:30Z</time>
      </trkpt>
      <trkpt lat="49.49832" lon="-1.59162">
        <ele>61.5</ele>
        <time>2022-01-25T13:55:35Z</time>
      </trkpt>
      <trkpt lat="49.49827" lon="-1.59159">
        <ele>62.1</ele>
        <time>2022-01-25T13:55:39Z</time>
      </trkpt>
      <trkpt lat="49.49822" lon="-1.59156">
        <ele>62.6</ele>
        <time>2022-01-25T13:55:42Z</time>
      </trkpt>
      <trkpt lat="49.49818" lon="-1.59154">
        <ele>63</ele>
        <time>2022-01-25T13:55:46Z</time>
      </trkpt>
      <trkpt lat="49.49813" lon="-1.59151">
        <ele>63.1</ele>
        <time>2022-01-25T13:55:51Z</time>
      </trkpt>
      <trkpt lat="49.49809" lon="-1.59157">
        <ele>63.1</ele>
        <time>2022-01-25T13:55:55Z</time>
      </trkpt>
      <trkpt lat="49.49807" lon="-1.59164">
        <ele>63</ele>
        <time>2022-01-25T13:55:58Z</time>
      </trkpt>
      <trkpt lat="49.49805" lon="-1.59171">
        <ele>62.8</ele>
        <time>2022-01-25T13:56:01Z</time>
      </trkpt>
      <trkpt lat="49.49803" lon="-1.59178">
        <ele>62.5</ele>
        <time>2022-01-25T13:56:06Z</time>
      </trkpt>
      <trkpt lat="49.49798" lon="-1.59184">
        <ele>62.7</ele>
        <time>2022-01-25T13:56:11Z</time>
      </trkpt>
      <trkpt lat="49.49792" lon="-1.59187">
        <ele>62.6</ele>
        <time>2022-01-25T13:56:15Z</time>
      </trkpt>
      <trkpt lat="49.49788" lon="-1.59189">
        <ele>62.1</ele>
        <time>2022-01-25T13:56:19Z</time>
      </trkpt>
      <trkpt lat="49.49783" lon="-1.59191">
        <ele>62.3</ele>
        <time>2022-01-25T13:56:25Z</time>
      </trkpt>
      <trkpt lat="49.49776" lon="-1.59191">
        <ele>62.8</ele>
        <time>2022-01-25T13:56:30Z</time>
      </trkpt>
      <trkpt lat="49.49771" lon="-1.59185">
        <ele>63</ele>
        <time>2022-01-25T13:56:35Z</time>
      </trkpt>
      <trkpt lat="49.49766" lon="-1.59184">
        <ele>63.2</ele>
        <time>2022-01-25T13:56:38Z</time>
      </trkpt>
      <trkpt lat="49.49761" lon="-1.59183">
        <ele>63.6</ele>
        <time>2022-01-25T13:56:42Z</time>
      </trkpt>
      <trkpt lat="49.49756" lon="-1.59181">
        <ele>63.8</ele>
        <time>2022-01-25T13:56:45Z</time>
      </trkpt>
      <trkpt lat="49.4975" lon="-1.59182">
        <ele>64.6</ele>
        <time>2022-01-25T13:56:49Z</time>
      </trkpt>
      <trkpt lat="49.49746" lon="-1.59185">
        <ele>65</ele>
        <time>2022-01-25T13:56:51Z</time>
      </trkpt>
      <trkpt lat="49.49742" lon="-1.59189">
        <ele>65.5</ele>
        <time>2022-01-25T13:56:54Z</time>
      </trkpt>
      <trkpt lat="49.49738" lon="-1.59194">
        <ele>66.3</ele>
        <time>2022-01-25T13:56:57Z</time>
      </trkpt>
      <trkpt lat="49.49734" lon="-1.592">
        <ele>67</ele>
        <time>2022-01-25T13:57:01Z</time>
      </trkpt>
      <trkpt lat="49.49729" lon="-1.59206">
        <ele>67.7</ele>
        <time>2022-01-25T13:57:05Z</time>
      </trkpt>
      <trkpt lat="49.49726" lon="-1.59212">
        <ele>68.1</ele>
        <time>2022-01-25T13:57:08Z</time>
      </trkpt>
      <trkpt lat="49.49722" lon="-1.59216">
        <ele>68.3</ele>
        <time>2022-01-25T13:57:11Z</time>
      </trkpt>
      <trkpt lat="49.49718" lon="-1.5922">
        <ele>68.3</ele>
        <time>2022-01-25T13:57:15Z</time>
      </trkpt>
      <trkpt lat="49.49714" lon="-1.59223">
        <ele>68.4</ele>
        <time>2022-01-25T13:57:18Z</time>
      </trkpt>
      <trkpt lat="49.4971" lon="-1.59228">
        <ele>68.3</ele>
        <time>2022-01-25T13:57:22Z</time>
      </trkpt>
      <trkpt lat="49.49704" lon="-1.59234">
        <ele>68.3</ele>
        <time>2022-01-25T13:57:27Z</time>
      </trkpt>
      <trkpt lat="49.49701" lon="-1.59242">
        <ele>68.3</ele>
        <time>2022-01-25T13:57:32Z</time>
      </trkpt>
      <trkpt lat="49.49698" lon="-1.59249">
        <ele>68.2</ele>
        <time>2022-01-25T13:57:36Z</time>
      </trkpt>
      <trkpt lat="49.49694" lon="-1.59255">
        <ele>68.2</ele>
        <time>2022-01-25T13:57:40Z</time>
      </trkpt>
      <trkpt lat="49.4969" lon="-1.59258">
        <ele>68.2</ele>
        <time>2022-01-25T13:57:44Z</time>
      </trkpt>
      <trkpt lat="49.49684" lon="-1.59261">
        <ele>68.2</ele>
        <time>2022-01-25T13:57:49Z</time>
      </trkpt>
      <trkpt lat="49.49678" lon="-1.59263">
        <ele>68.4</ele>
        <time>2022-01-25T13:57:53Z</time>
      </trkpt>
      <trkpt lat="49.49673" lon="-1.59264">
        <ele>68.3</ele>
        <time>2022-01-25T13:57:58Z</time>
      </trkpt>
      <trkpt lat="49.49668" lon="-1.59261">
        <ele>67.8</ele>
        <time>2022-01-25T13:58:02Z</time>
      </trkpt>
      <trkpt lat="49.49663" lon="-1.59263">
        <ele>67.6</ele>
        <time>2022-01-25T13:58:05Z</time>
      </trkpt>
      <trkpt lat="49.49658" lon="-1.59266">
        <ele>67.6</ele>
        <time>2022-01-25T13:58:09Z</time>
      </trkpt>
      <trkpt lat="49.49653" lon="-1.59268">
        <ele>67.3</ele>
        <time>2022-01-25T13:58:13Z</time>
      </trkpt>
      <trkpt lat="49.49649" lon="-1.5927">
        <ele>67.1</ele>
        <time>2022-01-25T13:58:16Z</time>
      </trkpt>
      <trkpt lat="49.49644" lon="-1.59274">
        <ele>67.1</ele>
        <time>2022-01-25T13:58:20Z</time>
      </trkpt>
      <trkpt lat="49.49639" lon="-1.59276">
        <ele>67.5</ele>
        <time>2022-01-25T13:58:25Z</time>
      </trkpt>
      <trkpt lat="49.49633" lon="-1.59275">
        <ele>67.7</ele>
        <time>2022-01-25T13:58:29Z</time>
      </trkpt>
      <trkpt lat="49.49628" lon="-1.59276">
        <ele>67.9</ele>
        <time>2022-01-25T13:58:32Z</time>
      </trkpt>
      <trkpt lat="49.49623" lon="-1.59276">
        <ele>68.1</ele>
        <time>2022-01-25T13:58:36Z</time>
      </trkpt>
      <trkpt lat="49.49618" lon="-1.59276">
        <ele>68.1</ele>
        <time>2022-01-25T13:58:40Z</time>
      </trkpt>
      <trkpt lat="49.49612" lon="-1.5928">
        <ele>68.1</ele>
        <time>2022-01-25T13:58:44Z</time>
      </trkpt>
      <trkpt lat="49.49608" lon="-1.59283">
        <ele>68</ele>
        <time>2022-01-25T13:58:48Z</time>
      </trkpt>
      <trkpt lat="49.49603" lon="-1.59282">
        <ele>67.9</ele>
        <time>2022-01-25T13:58:51Z</time>
      </trkpt>
      <trkpt lat="49.49598" lon="-1.59283">
        <ele>67.6</ele>
        <time>2022-01-25T13:58:55Z</time>
      </trkpt>
      <trkpt lat="49.49594" lon="-1.59287">
        <ele>67.7</ele>
        <time>2022-01-25T13:58:59Z</time>
      </trkpt>
      <trkpt lat="49.49589" lon="-1.5929">
        <ele>68.3</ele>
        <time>2022-01-25T13:59:02Z</time>
      </trkpt>
      <trkpt lat="49.49583" lon="-1.59294">
        <ele>68.7</ele>
        <time>2022-01-25T13:59:07Z</time>
      </trkpt>
      <trkpt lat="49.49579" lon="-1.59299">
        <ele>68.6</ele>
        <time>2022-01-25T13:59:10Z</time>
      </trkpt>
      <trkpt lat="49.49574" lon="-1.59307">
        <ele>68.1</ele>
        <time>2022-01-25T13:59:15Z</time>
      </trkpt>
      <trkpt lat="49.49571" lon="-1.59311">
        <ele>67.9</ele>
        <time>2022-01-25T13:59:19Z</time>
      </trkpt>
      <trkpt lat="49.49566" lon="-1.59315">
        <ele>67.8</ele>
        <time>2022-01-25T13:59:22Z</time>
      </trkpt>
      <trkpt lat="49.49562" lon="-1.59321">
        <ele>67.4</ele>
        <time>2022-01-25T13:59:27Z</time>
      </trkpt>
      <trkpt lat="49.49557" lon="-1.59324">
        <ele>67.3</ele>
        <time>2022-01-25T13:59:30Z</time>
      </trkpt>
      <trkpt lat="49.49553" lon="-1.59327">
        <ele>67.5</ele>
        <time>2022-01-25T13:59:33Z</time>
      </trkpt>
      <trkpt lat="49.49548" lon="-1.59332">
        <ele>67.8</ele>
        <time>2022-01-25T13:59:37Z</time>
      </trkpt>
      <trkpt lat="49.49542" lon="-1.59336">
        <ele>67.9</ele>
        <time>2022-01-25T13:59:41Z</time>
      </trkpt>
      <trkpt lat="49.49537" lon="-1.59339">
        <ele>67.6</ele>
        <time>2022-01-25T13:59:46Z</time>
      </trkpt>
      <trkpt lat="49.49534" lon="-1.59345">
        <ele>67.3</ele>
        <time>2022-01-25T13:59:49Z</time>
      </trkpt>
      <trkpt lat="49.4953" lon="-1.59351">
        <ele>67</ele>
        <time>2022-01-25T13:59:53Z</time>
      </trkpt>
      <trkpt lat="49.49525" lon="-1.59355">
        <ele>66.7</ele>
        <time>2022-01-25T13:59:57Z</time>
      </trkpt>
      <trkpt lat="49.4952" lon="-1.59359">
        <ele>66.7</ele>
        <time>2022-01-25T14:00:01Z</time>
      </trkpt>
      <trkpt lat="49.49515" lon="-1.5936">
        <ele>66.9</ele>
        <time>2022-01-25T14:00:07Z</time>
      </trkpt>
      <trkpt lat="49.4951" lon="-1.59366">
        <ele>67.3</ele>
        <time>2022-01-25T14:00:12Z</time>
      </trkpt>
      <trkpt lat="49.49506" lon="-1.5937">
        <ele>67.4</ele>
        <time>2022-01-25T14:00:15Z</time>
      </trkpt>
      <trkpt lat="49.49502" lon="-1.59374">
        <ele>67.5</ele>
        <time>2022-01-25T14:00:18Z</time>
      </trkpt>
      <trkpt lat="49.49499" lon="-1.59381">
        <ele>67.7</ele>
        <time>2022-01-25T14:00:23Z</time>
      </trkpt>
      <trkpt lat="49.49495" lon="-1.59385">
        <ele>67.8</ele>
        <time>2022-01-25T14:00:26Z</time>
      </trkpt>
      <trkpt lat="49.49491" lon="-1.59389">
        <ele>67.9</ele>
        <time>2022-01-25T14:00:30Z</time>
      </trkpt>
      <trkpt lat="49.49487" lon="-1.59394">
        <ele>68.1</ele>
        <time>2022-01-25T14:00:33Z</time>
      </trkpt>
      <trkpt lat="49.49482" lon="-1.59399">
        <ele>68.1</ele>
        <time>2022-01-25T14:00:36Z</time>
      </trkpt>
      <trkpt lat="49.49471" lon="-1.59405">
        <ele>67.3</ele>
        <time>2022-01-25T14:00:44Z</time>
      </trkpt>
      <trkpt lat="49.49466" lon="-1.59407">
        <ele>66.4</ele>
        <time>2022-01-25T14:00:51Z</time>
      </trkpt>
      <trkpt lat="49.49461" lon="-1.59409">
        <ele>66.5</ele>
        <time>2022-01-25T14:00:54Z</time>
      </trkpt>
      <trkpt lat="49.49457" lon="-1.59414">
        <ele>66.6</ele>
        <time>2022-01-25T14:00:58Z</time>
      </trkpt>
      <trkpt lat="49.49453" lon="-1.59419">
        <ele>66.6</ele>
        <time>2022-01-25T14:01:01Z</time>
      </trkpt>
      <trkpt lat="49.49448" lon="-1.59424">
        <ele>66</ele>
        <time>2022-01-25T14:01:04Z</time>
      </trkpt>
      <trkpt lat="49.49444" lon="-1.59427">
        <ele>65.2</ele>
        <time>2022-01-25T14:01:08Z</time>
      </trkpt>
      <trkpt lat="49.49439" lon="-1.59429">
        <ele>64.3</ele>
        <time>2022-01-25T14:01:12Z</time>
      </trkpt>
      <trkpt lat="49.49436" lon="-1.59435">
        <ele>63.3</ele>
        <time>2022-01-25T14:01:17Z</time>
      </trkpt>
      <trkpt lat="49.49431" lon="-1.59437">
        <ele>62.3</ele>
        <time>2022-01-25T14:01:23Z</time>
      </trkpt>
      <trkpt lat="49.49426" lon="-1.59441">
        <ele>61.1</ele>
        <time>2022-01-25T14:01:29Z</time>
      </trkpt>
      <trkpt lat="49.4942" lon="-1.59444">
        <ele>61</ele>
        <time>2022-01-25T14:01:34Z</time>
      </trkpt>
      <trkpt lat="49.49414" lon="-1.59446">
        <ele>61.2</ele>
        <time>2022-01-25T14:01:38Z</time>
      </trkpt>
      <trkpt lat="49.49409" lon="-1.59448">
        <ele>61</ele>
        <time>2022-01-25T14:01:41Z</time>
      </trkpt>
      <trkpt lat="49.49403" lon="-1.59451">
        <ele>60.9</ele>
        <time>2022-01-25T14:01:45Z</time>
      </trkpt>
      <trkpt lat="49.49397" lon="-1.59454">
        <ele>60.7</ele>
        <time>2022-01-25T14:01:49Z</time>
      </trkpt>
      <trkpt lat="49.49382" lon="-1.59459">
        <ele>60.4</ele>
        <time>2022-01-25T14:01:59Z</time>
      </trkpt>
      <trkpt lat="49.49377" lon="-1.5946">
        <ele>60.4</ele>
        <time>2022-01-25T14:02:02Z</time>
      </trkpt>
      <trkpt lat="49.49373" lon="-1.59458">
        <ele>60.5</ele>
        <time>2022-01-25T14:02:06Z</time>
      </trkpt>
      <trkpt lat="49.4937" lon="-1.59452">
        <ele>60.5</ele>
        <time>2022-01-25T14:02:11Z</time>
      </trkpt>
      <trkpt lat="49.4937" lon="-1.59444">
        <ele>60.5</ele>
        <time>2022-01-25T14:02:23Z</time>
      </trkpt>
      <trkpt lat="49.49368" lon="-1.59438">
        <ele>60.5</ele>
        <time>2022-01-25T14:02:29Z</time>
      </trkpt>
      <trkpt lat="49.49365" lon="-1.59431">
        <ele>60</ele>
        <time>2022-01-25T14:02:35Z</time>
      </trkpt>
      <trkpt lat="49.49364" lon="-1.59425">
        <ele>59.7</ele>
        <time>2022-01-25T14:02:38Z</time>
      </trkpt>
      <trkpt lat="49.49361" lon="-1.59416">
        <ele>59.5</ele>
        <time>2022-01-25T14:02:42Z</time>
      </trkpt>
      <trkpt lat="49.49358" lon="-1.59408">
        <ele>59.4</ele>
        <time>2022-01-25T14:02:46Z</time>
      </trkpt>
      <trkpt lat="49.49357" lon="-1.59399">
        <ele>60</ele>
        <time>2022-01-25T14:02:51Z</time>
      </trkpt>
      <trkpt lat="49.49354" lon="-1.59392">
        <ele>61</ele>
        <time>2022-01-25T14:02:55Z</time>
      </trkpt>
      <trkpt lat="49.49352" lon="-1.59384">
        <ele>61.5</ele>
        <time>2022-01-25T14:02:59Z</time>
      </trkpt>
      <trkpt lat="49.4935" lon="-1.59376">
        <ele>62.2</ele>
        <time>2022-01-25T14:03:02Z</time>
      </trkpt>
      <trkpt lat="49.49349" lon="-1.59369">
        <ele>62.9</ele>
        <time>2022-01-25T14:03:07Z</time>
      </trkpt>
      <trkpt lat="49.49349" lon="-1.59361">
        <ele>63.4</ele>
        <time>2022-01-25T14:03:11Z</time>
      </trkpt>
      <trkpt lat="49.49344" lon="-1.59348">
        <ele>64.9</ele>
        <time>2022-01-25T14:03:19Z</time>
      </trkpt>
      <trkpt lat="49.4934" lon="-1.59343">
        <ele>66</ele>
        <time>2022-01-25T14:03:23Z</time>
      </trkpt>
      <trkpt lat="49.49335" lon="-1.5934">
        <ele>66.4</ele>
        <time>2022-01-25T14:03:25Z</time>
      </trkpt>
      <trkpt lat="49.49334" lon="-1.5931">
        <ele>62.6</ele>
        <time>2022-01-25T14:03:39Z</time>
      </trkpt>
      <trkpt lat="49.49334" lon="-1.59303">
        <ele>62.5</ele>
        <time>2022-01-25T14:03:43Z</time>
      </trkpt>
      <trkpt lat="49.49333" lon="-1.59294">
        <ele>62.5</ele>
        <time>2022-01-25T14:03:46Z</time>
      </trkpt>
      <trkpt lat="49.49331" lon="-1.59286">
        <ele>62.4</ele>
        <time>2022-01-25T14:03:51Z</time>
      </trkpt>
      <trkpt lat="49.49329" lon="-1.59279">
        <ele>63.2</ele>
        <time>2022-01-25T14:03:58Z</time>
      </trkpt>
      <trkpt lat="49.49329" lon="-1.59271">
        <ele>66.2</ele>
        <time>2022-01-25T14:04:10Z</time>
      </trkpt>
      <trkpt lat="49.49329" lon="-1.59262">
        <ele>66.7</ele>
        <time>2022-01-25T14:04:14Z</time>
      </trkpt>
      <trkpt lat="49.49328" lon="-1.59254">
        <ele>67.1</ele>
        <time>2022-01-25T14:04:18Z</time>
      </trkpt>
      <trkpt lat="49.49327" lon="-1.59247">
        <ele>68.5</ele>
        <time>2022-01-25T14:04:22Z</time>
      </trkpt>
      <trkpt lat="49.49323" lon="-1.59239">
        <ele>71.2</ele>
        <time>2022-01-25T14:04:28Z</time>
      </trkpt>
      <trkpt lat="49.49321" lon="-1.59233">
        <ele>72.9</ele>
        <time>2022-01-25T14:04:32Z</time>
      </trkpt>
      <trkpt lat="49.4932" lon="-1.59226">
        <ele>74.5</ele>
        <time>2022-01-25T14:04:37Z</time>
      </trkpt>
      <trkpt lat="49.49319" lon="-1.59219">
        <ele>75.6</ele>
        <time>2022-01-25T14:04:41Z</time>
      </trkpt>
      <trkpt lat="49.49319" lon="-1.59212">
        <ele>76.6</ele>
        <time>2022-01-25T14:04:46Z</time>
      </trkpt>
      <trkpt lat="49.49319" lon="-1.59205">
        <ele>77.5</ele>
        <time>2022-01-25T14:04:51Z</time>
      </trkpt>
      <trkpt lat="49.49322" lon="-1.59198">
        <ele>77.9</ele>
        <time>2022-01-25T14:04:55Z</time>
      </trkpt>
      <trkpt lat="49.49325" lon="-1.59193">
        <ele>77.8</ele>
        <time>2022-01-25T14:04:58Z</time>
      </trkpt>
      <trkpt lat="49.49329" lon="-1.59188">
        <ele>77.8</ele>
        <time>2022-01-25T14:05:04Z</time>
      </trkpt>
      <trkpt lat="49.49333" lon="-1.59187">
        <ele>79.5</ele>
        <time>2022-01-25T14:05:20Z</time>
      </trkpt>
      <trkpt lat="49.49336" lon="-1.59192">
        <ele>79.6</ele>
        <time>2022-01-25T14:05:24Z</time>
      </trkpt>
      <trkpt lat="49.49339" lon="-1.59197">
        <ele>79.6</ele>
        <time>2022-01-25T14:05:28Z</time>
      </trkpt>
      <trkpt lat="49.49343" lon="-1.59201">
        <ele>79.7</ele>
        <time>2022-01-25T14:05:32Z</time>
      </trkpt>
      <trkpt lat="49.49347" lon="-1.59204">
        <ele>80.9</ele>
        <time>2022-01-25T14:05:50Z</time>
      </trkpt>
      <trkpt lat="49.49351" lon="-1.59207">
        <ele>81.7</ele>
        <time>2022-01-25T14:06:04Z</time>
      </trkpt>
      <trkpt lat="49.49356" lon="-1.59206">
        <ele>81.8</ele>
        <time>2022-01-25T14:06:10Z</time>
      </trkpt>
      <trkpt lat="49.4936" lon="-1.59208">
        <ele>81.7</ele>
        <time>2022-01-25T14:06:15Z</time>
      </trkpt>
      <trkpt lat="49.49363" lon="-1.59214">
        <ele>81.7</ele>
        <time>2022-01-25T14:06:18Z</time>
      </trkpt>
      <trkpt lat="49.49368" lon="-1.59212">
        <ele>87</ele>
        <time>2022-01-25T14:07:04Z</time>
      </trkpt>
      <trkpt lat="49.49372" lon="-1.59208">
        <ele>87.8</ele>
        <time>2022-01-25T14:07:16Z</time>
      </trkpt>
      <trkpt lat="49.49375" lon="-1.59205">
        <ele>89.7</ele>
        <time>2022-01-25T14:08:17Z</time>
      </trkpt>
      <trkpt lat="49.4938" lon="-1.59203">
        <ele>89.2</ele>
        <time>2022-01-25T14:08:44Z</time>
      </trkpt>
      <trkpt lat="49.49384" lon="-1.59202">
        <ele>88.3</ele>
        <time>2022-01-25T14:09:22Z</time>
      </trkpt>
      <trkpt lat="49.49389" lon="-1.59205">
        <ele>88.8</ele>
        <time>2022-01-25T14:09:45Z</time>
      </trkpt>
      <trkpt lat="49.4939" lon="-1.59213">
        <ele>88.9</ele>
        <time>2022-01-25T14:09:53Z</time>
      </trkpt>
      <trkpt lat="49.49391" lon="-1.5922">
        <ele>88.3</ele>
        <time>2022-01-25T14:10:00Z</time>
      </trkpt>
      <trkpt lat="49.49392" lon="-1.59227">
        <ele>87.8</ele>
        <time>2022-01-25T14:10:07Z</time>
      </trkpt>
      <trkpt lat="49.49397" lon="-1.59224">
        <ele>86.3</ele>
        <time>2022-01-25T14:10:54Z</time>
      </trkpt>
      <trkpt lat="49.49401" lon="-1.5922">
        <ele>85.9</ele>
        <time>2022-01-25T14:10:59Z</time>
      </trkpt>
      <trkpt lat="49.49402" lon="-1.59213">
        <ele>85.3</ele>
        <time>2022-01-25T14:11:06Z</time>
      </trkpt>
      <trkpt lat="49.49402" lon="-1.59205">
        <ele>84.4</ele>
        <time>2022-01-25T14:11:14Z</time>
      </trkpt>
      <trkpt lat="49.49402" lon="-1.59198">
        <ele>84</ele>
        <time>2022-01-25T14:11:20Z</time>
      </trkpt>
      <trkpt lat="49.49403" lon="-1.59189">
        <ele>84.1</ele>
        <time>2022-01-25T14:11:25Z</time>
      </trkpt>
      <trkpt lat="49.494" lon="-1.59182">
        <ele>84.4</ele>
        <time>2022-01-25T14:11:27Z</time>
      </trkpt>
      <trkpt lat="49.49398" lon="-1.59176">
        <ele>84.8</ele>
        <time>2022-01-25T14:11:29Z</time>
      </trkpt>
      <trkpt lat="49.49395" lon="-1.5917">
        <ele>85</ele>
        <time>2022-01-25T14:11:33Z</time>
      </trkpt>
      <trkpt lat="49.49391" lon="-1.59167">
        <ele>85</ele>
        <time>2022-01-25T14:11:45Z</time>
      </trkpt>
      <trkpt lat="49.49387" lon="-1.59162">
        <ele>84.9</ele>
        <time>2022-01-25T14:11:53Z</time>
      </trkpt>
      <trkpt lat="49.49384" lon="-1.59157">
        <ele>85.1</ele>
        <time>2022-01-25T14:11:56Z</time>
      </trkpt>
      <trkpt lat="49.49378" lon="-1.59152">
        <ele>85.2</ele>
        <time>2022-01-25T14:12:00Z</time>
      </trkpt>
      <trkpt lat="49.49374" lon="-1.59148">
        <ele>85.1</ele>
        <time>2022-01-25T14:12:05Z</time>
      </trkpt>
      <trkpt lat="49.49368" lon="-1.59146">
        <ele>84.7</ele>
        <time>2022-01-25T14:12:10Z</time>
      </trkpt>
      <trkpt lat="49.49361" lon="-1.59147">
        <ele>84</ele>
        <time>2022-01-25T14:12:15Z</time>
      </trkpt>
      <trkpt lat="49.49356" lon="-1.59149">
        <ele>83.2</ele>
        <time>2022-01-25T14:12:19Z</time>
      </trkpt>
      <trkpt lat="49.4935" lon="-1.59151">
        <ele>82.4</ele>
        <time>2022-01-25T14:12:23Z</time>
      </trkpt>
      <trkpt lat="49.49346" lon="-1.59156">
        <ele>81.5</ele>
        <time>2022-01-25T14:12:28Z</time>
      </trkpt>
      <trkpt lat="49.49342" lon="-1.5916">
        <ele>80.2</ele>
        <time>2022-01-25T14:12:32Z</time>
      </trkpt>
      <trkpt lat="49.49338" lon="-1.59166">
        <ele>79.6</ele>
        <time>2022-01-25T14:12:38Z</time>
      </trkpt>
      <trkpt lat="49.49334" lon="-1.59171">
        <ele>79.2</ele>
        <time>2022-01-25T14:12:41Z</time>
      </trkpt>
      <trkpt lat="49.49329" lon="-1.59173">
        <ele>78.9</ele>
        <time>2022-01-25T14:12:44Z</time>
      </trkpt>
      <trkpt lat="49.49323" lon="-1.59174">
        <ele>78.1</ele>
        <time>2022-01-25T14:12:48Z</time>
      </trkpt>
      <trkpt lat="49.49318" lon="-1.59173">
        <ele>77.8</ele>
        <time>2022-01-25T14:12:53Z</time>
      </trkpt>
      <trkpt lat="49.49313" lon="-1.5917">
        <ele>77.5</ele>
        <time>2022-01-25T14:12:56Z</time>
      </trkpt>
      <trkpt lat="49.4931" lon="-1.59162">
        <ele>77</ele>
        <time>2022-01-25T14:13:01Z</time>
      </trkpt>
      <trkpt lat="49.49308" lon="-1.59155">
        <ele>76.6</ele>
        <time>2022-01-25T14:13:03Z</time>
      </trkpt>
      <trkpt lat="49.49308" lon="-1.59147">
        <ele>76.1</ele>
        <time>2022-01-25T14:13:07Z</time>
      </trkpt>
      <trkpt lat="49.49305" lon="-1.5914">
        <ele>75.8</ele>
        <time>2022-01-25T14:13:11Z</time>
      </trkpt>
      <trkpt lat="49.493" lon="-1.59134">
        <ele>75.9</ele>
        <time>2022-01-25T14:13:16Z</time>
      </trkpt>
      <trkpt lat="49.49295" lon="-1.59131">
        <ele>75.8</ele>
        <time>2022-01-25T14:13:22Z</time>
      </trkpt>
      <trkpt lat="49.49291" lon="-1.59136">
        <ele>75.7</ele>
        <time>2022-01-25T14:13:37Z</time>
      </trkpt>
      <trkpt lat="49.49285" lon="-1.59139">
        <ele>75.3</ele>
        <time>2022-01-25T14:13:39Z</time>
      </trkpt>
      <trkpt lat="49.49279" lon="-1.59139">
        <ele>74.8</ele>
        <time>2022-01-25T14:13:41Z</time>
      </trkpt>
      <trkpt lat="49.49273" lon="-1.59143">
        <ele>74.3</ele>
        <time>2022-01-25T14:13:43Z</time>
      </trkpt>
      <trkpt lat="49.49268" lon="-1.59146">
        <ele>73.7</ele>
        <time>2022-01-25T14:13:46Z</time>
      </trkpt>
      <trkpt lat="49.49262" lon="-1.59147">
        <ele>73.2</ele>
        <time>2022-01-25T14:13:49Z</time>
      </trkpt>
      <trkpt lat="49.49256" lon="-1.59148">
        <ele>73.1</ele>
        <time>2022-01-25T14:13:52Z</time>
      </trkpt>
      <trkpt lat="49.49251" lon="-1.59148">
        <ele>73.1</ele>
        <time>2022-01-25T14:13:56Z</time>
      </trkpt>
      <trkpt lat="49.49246" lon="-1.59148">
        <ele>73.2</ele>
        <time>2022-01-25T14:14:01Z</time>
      </trkpt>
      <trkpt lat="49.49241" lon="-1.59149">
        <ele>73.5</ele>
        <time>2022-01-25T14:14:06Z</time>
      </trkpt>
      <trkpt lat="49.49237" lon="-1.59147">
        <ele>74.1</ele>
        <time>2022-01-25T14:14:11Z</time>
      </trkpt>
      <trkpt lat="49.49231" lon="-1.59145">
        <ele>74.3</ele>
        <time>2022-01-25T14:14:16Z</time>
      </trkpt>
      <trkpt lat="49.49226" lon="-1.59147">
        <ele>74.2</ele>
        <time>2022-01-25T14:14:18Z</time>
      </trkpt>
      <trkpt lat="49.4922" lon="-1.59146">
        <ele>73.6</ele>
        <time>2022-01-25T14:14:22Z</time>
      </trkpt>
      <trkpt lat="49.49216" lon="-1.59145">
        <ele>72.8</ele>
        <time>2022-01-25T14:14:28Z</time>
      </trkpt>
      <trkpt lat="49.49213" lon="-1.59139">
        <ele>72.6</ele>
        <time>2022-01-25T14:14:34Z</time>
      </trkpt>
      <trkpt lat="49.4921" lon="-1.59133">
        <ele>72.6</ele>
        <time>2022-01-25T14:14:39Z</time>
      </trkpt>
      <trkpt lat="49.49207" lon="-1.59126">
        <ele>72.8</ele>
        <time>2022-01-25T14:14:43Z</time>
      </trkpt>
      <trkpt lat="49.49205" lon="-1.5912">
        <ele>73.1</ele>
        <time>2022-01-25T14:14:50Z</time>
      </trkpt>
      <trkpt lat="49.49203" lon="-1.59113">
        <ele>73.2</ele>
        <time>2022-01-25T14:14:55Z</time>
      </trkpt>
      <trkpt lat="49.492" lon="-1.59108">
        <ele>72.9</ele>
        <time>2022-01-25T14:15:09Z</time>
      </trkpt>
      <trkpt lat="49.49197" lon="-1.59102">
        <ele>73</ele>
        <time>2022-01-25T14:15:28Z</time>
      </trkpt>
      <trkpt lat="49.49193" lon="-1.59098">
        <ele>73.5</ele>
        <time>2022-01-25T14:15:44Z</time>
      </trkpt>
      <trkpt lat="49.49193" lon="-1.5909">
        <ele>73.6</ele>
        <time>2022-01-25T14:15:48Z</time>
      </trkpt>
      <trkpt lat="49.49194" lon="-1.59083">
        <ele>73.9</ele>
        <time>2022-01-25T14:16:06Z</time>
      </trkpt>
      <trkpt lat="49.49193" lon="-1.59076">
        <ele>74.2</ele>
        <time>2022-01-25T14:16:13Z</time>
      </trkpt>
      <trkpt lat="49.49191" lon="-1.5907">
        <ele>70.8</ele>
        <time>2022-01-25T14:19:13Z</time>
      </trkpt>
      <trkpt lat="49.49191" lon="-1.59063">
        <ele>71</ele>
        <time>2022-01-25T14:19:19Z</time>
      </trkpt>
      <trkpt lat="49.49189" lon="-1.5907">
        <ele>71.6</ele>
        <time>2022-01-25T14:20:00Z</time>
      </trkpt>
      <trkpt lat="49.49191" lon="-1.59076">
        <ele>72.1</ele>
        <time>2022-01-25T14:20:21Z</time>
      </trkpt>
      <trkpt lat="49.49191" lon="-1.59069">
        <ele>72.3</ele>
        <time>2022-01-25T14:20:33Z</time>
      </trkpt>
      <trkpt lat="49.49189" lon="-1.59063">
        <ele>72.8</ele>
        <time>2022-01-25T14:20:45Z</time>
      </trkpt>
      <trkpt lat="49.49188" lon="-1.59056">
        <ele>72.9</ele>
        <time>2022-01-25T14:20:59Z</time>
      </trkpt>
      <trkpt lat="49.49186" lon="-1.59049">
        <ele>71.8</ele>
        <time>2022-01-25T14:21:11Z</time>
      </trkpt>
      <trkpt lat="49.49184" lon="-1.59043">
        <ele>71.6</ele>
        <time>2022-01-25T14:21:22Z</time>
      </trkpt>
      <trkpt lat="49.49182" lon="-1.59036">
        <ele>71.7</ele>
        <time>2022-01-25T14:21:29Z</time>
      </trkpt>
      <trkpt lat="49.4918" lon="-1.5903">
        <ele>71.9</ele>
        <time>2022-01-25T14:21:33Z</time>
      </trkpt>
      <trkpt lat="49.49179" lon="-1.59023">
        <ele>72</ele>
        <time>2022-01-25T14:21:48Z</time>
      </trkpt>
      <trkpt lat="49.49175" lon="-1.59021">
        <ele>71.9</ele>
        <time>2022-01-25T14:22:01Z</time>
      </trkpt>
      <trkpt lat="49.4917" lon="-1.59019">
        <ele>71.5</ele>
        <time>2022-01-25T14:22:19Z</time>
      </trkpt>
      <trkpt lat="49.49166" lon="-1.59016">
        <ele>71</ele>
        <time>2022-01-25T14:22:22Z</time>
      </trkpt>
      <trkpt lat="49.49161" lon="-1.59012">
        <ele>70.4</ele>
        <time>2022-01-25T14:22:30Z</time>
      </trkpt>
      <trkpt lat="49.4916" lon="-1.59005">
        <ele>69.8</ele>
        <time>2022-01-25T14:22:38Z</time>
      </trkpt>
      <trkpt lat="49.49161" lon="-1.58997">
        <ele>69.1</ele>
        <time>2022-01-25T14:22:44Z</time>
      </trkpt>
      <trkpt lat="49.49166" lon="-1.58993">
        <ele>69.4</ele>
        <time>2022-01-25T14:22:56Z</time>
      </trkpt>
      <trkpt lat="49.4917" lon="-1.58989">
        <ele>69.1</ele>
        <time>2022-01-25T14:23:02Z</time>
      </trkpt>
      <trkpt lat="49.49175" lon="-1.58985">
        <ele>69.1</ele>
        <time>2022-01-25T14:23:07Z</time>
      </trkpt>
      <trkpt lat="49.4918" lon="-1.58984">
        <ele>69.1</ele>
        <time>2022-01-25T14:23:10Z</time>
      </trkpt>
      <trkpt lat="49.49184" lon="-1.58984">
        <ele>68.8</ele>
        <time>2022-01-25T14:23:14Z</time>
      </trkpt>
      <trkpt lat="49.49189" lon="-1.58986">
        <ele>68</ele>
        <time>2022-01-25T14:23:19Z</time>
      </trkpt>
      <trkpt lat="49.49194" lon="-1.58987">
        <ele>67.1</ele>
        <time>2022-01-25T14:23:24Z</time>
      </trkpt>
      <trkpt lat="49.49199" lon="-1.58989">
        <ele>67.2</ele>
        <time>2022-01-25T14:23:26Z</time>
      </trkpt>
      <trkpt lat="49.49205" lon="-1.58991">
        <ele>67.1</ele>
        <time>2022-01-25T14:23:30Z</time>
      </trkpt>
      <trkpt lat="49.4921" lon="-1.58992">
        <ele>67.7</ele>
        <time>2022-01-25T14:23:33Z</time>
      </trkpt>
      <trkpt lat="49.49215" lon="-1.58992">
        <ele>68.1</ele>
        <time>2022-01-25T14:23:37Z</time>
      </trkpt>
      <trkpt lat="49.4922" lon="-1.58992">
        <ele>68.2</ele>
        <time>2022-01-25T14:23:39Z</time>
      </trkpt>
      <trkpt lat="49.49225" lon="-1.58991">
        <ele>68.5</ele>
        <time>2022-01-25T14:23:43Z</time>
      </trkpt>
      <trkpt lat="49.4923" lon="-1.5899">
        <ele>68.4</ele>
        <time>2022-01-25T14:23:46Z</time>
      </trkpt>
      <trkpt lat="49.49235" lon="-1.58992">
        <ele>68.7</ele>
        <time>2022-01-25T14:23:53Z</time>
      </trkpt>
      <trkpt lat="49.49239" lon="-1.58988">
        <ele>69.2</ele>
        <time>2022-01-25T14:24:05Z</time>
      </trkpt>
      <trkpt lat="49.49243" lon="-1.58985">
        <ele>69</ele>
        <time>2022-01-25T14:24:11Z</time>
      </trkpt>
      <trkpt lat="49.49248" lon="-1.58982">
        <ele>68.6</ele>
        <time>2022-01-25T14:24:13Z</time>
      </trkpt>
      <trkpt lat="49.49253" lon="-1.58979">
        <ele>67.9</ele>
        <time>2022-01-25T14:24:17Z</time>
      </trkpt>
      <trkpt lat="49.49258" lon="-1.58978">
        <ele>67.4</ele>
        <time>2022-01-25T14:24:20Z</time>
      </trkpt>
      <trkpt lat="49.49264" lon="-1.58976">
        <ele>67.3</ele>
        <time>2022-01-25T14:24:25Z</time>
      </trkpt>
      <trkpt lat="49.49269" lon="-1.58974">
        <ele>67.4</ele>
        <time>2022-01-25T14:24:28Z</time>
      </trkpt>
      <trkpt lat="49.49273" lon="-1.58972">
        <ele>67.5</ele>
        <time>2022-01-25T14:24:33Z</time>
      </trkpt>
      <trkpt lat="49.49278" lon="-1.58969">
        <ele>67.5</ele>
        <time>2022-01-25T14:24:40Z</time>
      </trkpt>
      <trkpt lat="49.49284" lon="-1.58966">
        <ele>67.4</ele>
        <time>2022-01-25T14:24:53Z</time>
      </trkpt>
      <trkpt lat="49.4929" lon="-1.58962">
        <ele>67.4</ele>
        <time>2022-01-25T14:24:57Z</time>
      </trkpt>
      <trkpt lat="49.49295" lon="-1.5896">
        <ele>67.5</ele>
        <time>2022-01-25T14:25:01Z</time>
      </trkpt>
      <trkpt lat="49.49299" lon="-1.58958">
        <ele>67.5</ele>
        <time>2022-01-25T14:25:05Z</time>
      </trkpt>
      <trkpt lat="49.49304" lon="-1.58956">
        <ele>67.5</ele>
        <time>2022-01-25T14:25:09Z</time>
      </trkpt>
      <trkpt lat="49.49309" lon="-1.58955">
        <ele>67.6</ele>
        <time>2022-01-25T14:25:14Z</time>
      </trkpt>
      <trkpt lat="49.49314" lon="-1.58953">
        <ele>68.1</ele>
        <time>2022-01-25T14:25:21Z</time>
      </trkpt>
      <trkpt lat="49.49318" lon="-1.5895">
        <ele>68.4</ele>
        <time>2022-01-25T14:25:31Z</time>
      </trkpt>
      <trkpt lat="49.49323" lon="-1.58947">
        <ele>68.7</ele>
        <time>2022-01-25T14:25:38Z</time>
      </trkpt>
      <trkpt lat="49.49328" lon="-1.58944">
        <ele>68.8</ele>
        <time>2022-01-25T14:25:42Z</time>
      </trkpt>
      <trkpt lat="49.49332" lon="-1.58942">
        <ele>68.8</ele>
        <time>2022-01-25T14:25:45Z</time>
      </trkpt>
      <trkpt lat="49.49337" lon="-1.5894">
        <ele>68.8</ele>
        <time>2022-01-25T14:25:48Z</time>
      </trkpt>
      <trkpt lat="49.49343" lon="-1.58936">
        <ele>68.5</ele>
        <time>2022-01-25T14:25:52Z</time>
      </trkpt>
      <trkpt lat="49.49347" lon="-1.58934">
        <ele>68.3</ele>
        <time>2022-01-25T14:25:55Z</time>
      </trkpt>
      <trkpt lat="49.49353" lon="-1.58932">
        <ele>68.3</ele>
        <time>2022-01-25T14:25:59Z</time>
      </trkpt>
      <trkpt lat="49.49358" lon="-1.58931">
        <ele>68.5</ele>
        <time>2022-01-25T14:26:03Z</time>
      </trkpt>
      <trkpt lat="49.49362" lon="-1.58929">
        <ele>68.4</ele>
        <time>2022-01-25T14:26:07Z</time>
      </trkpt>
      <trkpt lat="49.49367" lon="-1.58927">
        <ele>68</ele>
        <time>2022-01-25T14:26:12Z</time>
      </trkpt>
      <trkpt lat="49.49372" lon="-1.58924">
        <ele>66.8</ele>
        <time>2022-01-25T14:26:18Z</time>
      </trkpt>
      <trkpt lat="49.49376" lon="-1.58921">
        <ele>66.9</ele>
        <time>2022-01-25T14:26:38Z</time>
      </trkpt>
      <trkpt lat="49.4938" lon="-1.58915">
        <ele>66.7</ele>
        <time>2022-01-25T14:26:44Z</time>
      </trkpt>
      <trkpt lat="49.49384" lon="-1.58909">
        <ele>66.4</ele>
        <time>2022-01-25T14:26:47Z</time>
      </trkpt>
      <trkpt lat="49.49388" lon="-1.58905">
        <ele>66.2</ele>
        <time>2022-01-25T14:26:49Z</time>
      </trkpt>
      <trkpt lat="49.49392" lon="-1.589">
        <ele>66.1</ele>
        <time>2022-01-25T14:26:53Z</time>
      </trkpt>
      <trkpt lat="49.49392" lon="-1.58892">
        <ele>66.6</ele>
        <time>2022-01-25T14:26:59Z</time>
      </trkpt>
      <trkpt lat="49.4939" lon="-1.58885">
        <ele>66.8</ele>
        <time>2022-01-25T14:27:03Z</time>
      </trkpt>
      <trkpt lat="49.49386" lon="-1.5888">
        <ele>66.7</ele>
        <time>2022-01-25T14:27:06Z</time>
      </trkpt>
      <trkpt lat="49.49383" lon="-1.58872">
        <ele>66.5</ele>
        <time>2022-01-25T14:27:10Z</time>
      </trkpt>
      <trkpt lat="49.49381" lon="-1.58864">
        <ele>66.4</ele>
        <time>2022-01-25T14:27:15Z</time>
      </trkpt>
      <trkpt lat="49.49381" lon="-1.58856">
        <ele>66.4</ele>
        <time>2022-01-25T14:27:19Z</time>
      </trkpt>
      <trkpt lat="49.49381" lon="-1.58848">
        <ele>66.1</ele>
        <time>2022-01-25T14:27:24Z</time>
      </trkpt>
      <trkpt lat="49.49383" lon="-1.58839">
        <ele>65.7</ele>
        <time>2022-01-25T14:27:29Z</time>
      </trkpt>
      <trkpt lat="49.49384" lon="-1.58833">
        <ele>65.7</ele>
        <time>2022-01-25T14:27:32Z</time>
      </trkpt>
      <trkpt lat="49.49386" lon="-1.58826">
        <ele>65.6</ele>
        <time>2022-01-25T14:27:35Z</time>
      </trkpt>
      <trkpt lat="49.49387" lon="-1.58818">
        <ele>65.5</ele>
        <time>2022-01-25T14:27:40Z</time>
      </trkpt>
      <trkpt lat="49.49389" lon="-1.58809">
        <ele>65.3</ele>
        <time>2022-01-25T14:27:44Z</time>
      </trkpt>
      <trkpt lat="49.4939" lon="-1.58803">
        <ele>65.1</ele>
        <time>2022-01-25T14:27:49Z</time>
      </trkpt>
      <trkpt lat="49.49391" lon="-1.58794">
        <ele>64.8</ele>
        <time>2022-01-25T14:27:54Z</time>
      </trkpt>
      <trkpt lat="49.49394" lon="-1.58788">
        <ele>64.6</ele>
        <time>2022-01-25T14:27:58Z</time>
      </trkpt>
      <trkpt lat="49.49398" lon="-1.58784">
        <ele>64.5</ele>
        <time>2022-01-25T14:28:02Z</time>
      </trkpt>
      <trkpt lat="49.49402" lon="-1.58779">
        <ele>64.4</ele>
        <time>2022-01-25T14:28:05Z</time>
      </trkpt>
      <trkpt lat="49.49407" lon="-1.58772">
        <ele>64.4</ele>
        <time>2022-01-25T14:28:08Z</time>
      </trkpt>
      <trkpt lat="49.4941" lon="-1.58767">
        <ele>64.4</ele>
        <time>2022-01-25T14:28:13Z</time>
      </trkpt>
      <trkpt lat="49.49414" lon="-1.5876">
        <ele>64</ele>
        <time>2022-01-25T14:28:25Z</time>
      </trkpt>
      <trkpt lat="49.49418" lon="-1.58754">
        <ele>63.4</ele>
        <time>2022-01-25T14:28:31Z</time>
      </trkpt>
      <trkpt lat="49.49425" lon="-1.58748">
        <ele>63</ele>
        <time>2022-01-25T14:28:36Z</time>
      </trkpt>
      <trkpt lat="49.49429" lon="-1.58743">
        <ele>62.9</ele>
        <time>2022-01-25T14:28:38Z</time>
      </trkpt>
      <trkpt lat="49.49434" lon="-1.58736">
        <ele>62.9</ele>
        <time>2022-01-25T14:28:41Z</time>
      </trkpt>
      <trkpt lat="49.49438" lon="-1.5873">
        <ele>62.9</ele>
        <time>2022-01-25T14:28:43Z</time>
      </trkpt>
      <trkpt lat="49.49442" lon="-1.58725">
        <ele>63.1</ele>
        <time>2022-01-25T14:28:47Z</time>
      </trkpt>
      <trkpt lat="49.49446" lon="-1.5872">
        <ele>63</ele>
        <time>2022-01-25T14:28:50Z</time>
      </trkpt>
      <trkpt lat="49.49449" lon="-1.58715">
        <ele>62.9</ele>
        <time>2022-01-25T14:28:54Z</time>
      </trkpt>
      <trkpt lat="49.49454" lon="-1.5871">
        <ele>63</ele>
        <time>2022-01-25T14:28:58Z</time>
      </trkpt>
      <trkpt lat="49.49458" lon="-1.5871">
        <ele>63.2</ele>
        <time>2022-01-25T14:29:03Z</time>
      </trkpt>
      <trkpt lat="49.49463" lon="-1.58707">
        <ele>63.8</ele>
        <time>2022-01-25T14:29:08Z</time>
      </trkpt>
      <trkpt lat="49.49465" lon="-1.587">
        <ele>64.1</ele>
        <time>2022-01-25T14:29:24Z</time>
      </trkpt>
      <trkpt lat="49.49467" lon="-1.58693">
        <ele>63.8</ele>
        <time>2022-01-25T14:29:27Z</time>
      </trkpt>
      <trkpt lat="49.4947" lon="-1.58687">
        <ele>63.3</ele>
        <time>2022-01-25T14:29:30Z</time>
      </trkpt>
      <trkpt lat="49.49473" lon="-1.58681">
        <ele>62.9</ele>
        <time>2022-01-25T14:29:34Z</time>
      </trkpt>
      <trkpt lat="49.49478" lon="-1.58677">
        <ele>62.8</ele>
        <time>2022-01-25T14:29:37Z</time>
      </trkpt>
      <trkpt lat="49.49481" lon="-1.58673">
        <ele>62.9</ele>
        <time>2022-01-25T14:29:40Z</time>
      </trkpt>
      <trkpt lat="49.49485" lon="-1.58667">
        <ele>63.1</ele>
        <time>2022-01-25T14:29:44Z</time>
      </trkpt>
      <trkpt lat="49.49489" lon="-1.58662">
        <ele>63.1</ele>
        <time>2022-01-25T14:29:49Z</time>
      </trkpt>
      <trkpt lat="49.49494" lon="-1.58658">
        <ele>62.6</ele>
        <time>2022-01-25T14:29:54Z</time>
      </trkpt>
      <trkpt lat="49.49498" lon="-1.58655">
        <ele>62.7</ele>
        <time>2022-01-25T14:29:57Z</time>
      </trkpt>
      <trkpt lat="49.49502" lon="-1.58651">
        <ele>63</ele>
        <time>2022-01-25T14:30:01Z</time>
      </trkpt>
      <trkpt lat="49.49508" lon="-1.58647">
        <ele>63.5</ele>
        <time>2022-01-25T14:30:05Z</time>
      </trkpt>
      <trkpt lat="49.49513" lon="-1.58643">
        <ele>63.6</ele>
        <time>2022-01-25T14:30:10Z</time>
      </trkpt>
      <trkpt lat="49.49517" lon="-1.58638">
        <ele>63.6</ele>
        <time>2022-01-25T14:30:15Z</time>
      </trkpt>
      <trkpt lat="49.4952" lon="-1.58633">
        <ele>63.4</ele>
        <time>2022-01-25T14:30:19Z</time>
      </trkpt>
      <trkpt lat="49.49525" lon="-1.58629">
        <ele>63.6</ele>
        <time>2022-01-25T14:30:23Z</time>
      </trkpt>
      <trkpt lat="49.49529" lon="-1.58625">
        <ele>64.2</ele>
        <time>2022-01-25T14:30:27Z</time>
      </trkpt>
      <trkpt lat="49.49533" lon="-1.58621">
        <ele>64.9</ele>
        <time>2022-01-25T14:30:32Z</time>
      </trkpt>
      <trkpt lat="49.49537" lon="-1.58617">
        <ele>65.1</ele>
        <time>2022-01-25T14:30:35Z</time>
      </trkpt>
      <trkpt lat="49.49542" lon="-1.58613">
        <ele>65.2</ele>
        <time>2022-01-25T14:30:40Z</time>
      </trkpt>
      <trkpt lat="49.49545" lon="-1.58604">
        <ele>65.1</ele>
        <time>2022-01-25T14:30:45Z</time>
      </trkpt>
      <trkpt lat="49.49548" lon="-1.58596">
        <ele>65.1</ele>
        <time>2022-01-25T14:30:49Z</time>
      </trkpt>
      <trkpt lat="49.4955" lon="-1.58588">
        <ele>65.7</ele>
        <time>2022-01-25T14:30:56Z</time>
      </trkpt>
      <trkpt lat="49.49548" lon="-1.58579">
        <ele>65.9</ele>
        <time>2022-01-25T14:31:00Z</time>
      </trkpt>
      <trkpt lat="49.49545" lon="-1.58571">
        <ele>66.2</ele>
        <time>2022-01-25T14:31:03Z</time>
      </trkpt>
      <trkpt lat="49.49543" lon="-1.58563">
        <ele>66.3</ele>
        <time>2022-01-25T14:31:06Z</time>
      </trkpt>
      <trkpt lat="49.49542" lon="-1.58554">
        <ele>66.1</ele>
        <time>2022-01-25T14:31:11Z</time>
      </trkpt>
      <trkpt lat="49.49541" lon="-1.58546">
        <ele>65.3</ele>
        <time>2022-01-25T14:31:15Z</time>
      </trkpt>
      <trkpt lat="49.49539" lon="-1.58539">
        <ele>64.6</ele>
        <time>2022-01-25T14:31:19Z</time>
      </trkpt>
      <trkpt lat="49.49538" lon="-1.58532">
        <ele>64.1</ele>
        <time>2022-01-25T14:31:23Z</time>
      </trkpt>
      <trkpt lat="49.49535" lon="-1.58521">
        <ele>63.8</ele>
        <time>2022-01-25T14:31:28Z</time>
      </trkpt>
      <trkpt lat="49.49534" lon="-1.58514">
        <ele>63.4</ele>
        <time>2022-01-25T14:31:32Z</time>
      </trkpt>
      <trkpt lat="49.49533" lon="-1.58507">
        <ele>63.3</ele>
        <time>2022-01-25T14:31:35Z</time>
      </trkpt>
      <trkpt lat="49.49532" lon="-1.58499">
        <ele>63.1</ele>
        <time>2022-01-25T14:31:39Z</time>
      </trkpt>
      <trkpt lat="49.49531" lon="-1.58491">
        <ele>63.1</ele>
        <time>2022-01-25T14:31:42Z</time>
      </trkpt>
      <trkpt lat="49.49529" lon="-1.58483">
        <ele>63</ele>
        <time>2022-01-25T14:31:45Z</time>
      </trkpt>
      <trkpt lat="49.49529" lon="-1.58475">
        <ele>63</ele>
        <time>2022-01-25T14:31:49Z</time>
      </trkpt>
      <trkpt lat="49.49528" lon="-1.58466">
        <ele>62.8</ele>
        <time>2022-01-25T14:31:54Z</time>
      </trkpt>
      <trkpt lat="49.49527" lon="-1.58459">
        <ele>62.8</ele>
        <time>2022-01-25T14:31:58Z</time>
      </trkpt>
      <trkpt lat="49.49526" lon="-1.5845">
        <ele>62.9</ele>
        <time>2022-01-25T14:32:01Z</time>
      </trkpt>
      <trkpt lat="49.49525" lon="-1.58442">
        <ele>63.1</ele>
        <time>2022-01-25T14:32:04Z</time>
      </trkpt>
      <trkpt lat="49.49524" lon="-1.58434">
        <ele>63</ele>
        <time>2022-01-25T14:32:09Z</time>
      </trkpt>
      <trkpt lat="49.49523" lon="-1.58427">
        <ele>63</ele>
        <time>2022-01-25T14:32:12Z</time>
      </trkpt>
      <trkpt lat="49.49522" lon="-1.5842">
        <ele>62.9</ele>
        <time>2022-01-25T14:32:16Z</time>
      </trkpt>
      <trkpt lat="49.4952" lon="-1.58412">
        <ele>61.9</ele>
        <time>2022-01-25T14:32:24Z</time>
      </trkpt>
      <trkpt lat="49.49519" lon="-1.58403">
        <ele>61.1</ele>
        <time>2022-01-25T14:32:29Z</time>
      </trkpt>
      <trkpt lat="49.49516" lon="-1.58396">
        <ele>60.6</ele>
        <time>2022-01-25T14:32:32Z</time>
      </trkpt>
      <trkpt lat="49.49515" lon="-1.58389">
        <ele>60.6</ele>
        <time>2022-01-25T14:32:35Z</time>
      </trkpt>
      <trkpt lat="49.49511" lon="-1.58382">
        <ele>60.9</ele>
        <time>2022-01-25T14:32:38Z</time>
      </trkpt>
      <trkpt lat="49.4951" lon="-1.58375">
        <ele>61.3</ele>
        <time>2022-01-25T14:32:42Z</time>
      </trkpt>
      <trkpt lat="49.49512" lon="-1.58368">
        <ele>61.3</ele>
        <time>2022-01-25T14:32:45Z</time>
      </trkpt>
      <trkpt lat="49.49515" lon="-1.58362">
        <ele>61.2</ele>
        <time>2022-01-25T14:32:49Z</time>
      </trkpt>
      <trkpt lat="49.49514" lon="-1.58353">
        <ele>60.9</ele>
        <time>2022-01-25T14:32:52Z</time>
      </trkpt>
      <trkpt lat="49.49514" lon="-1.58343">
        <ele>60.7</ele>
        <time>2022-01-25T14:32:58Z</time>
      </trkpt>
      <trkpt lat="49.49514" lon="-1.58336">
        <ele>60.7</ele>
        <time>2022-01-25T14:33:01Z</time>
      </trkpt>
      <trkpt lat="49.49514" lon="-1.58329">
        <ele>60.7</ele>
        <time>2022-01-25T14:33:06Z</time>
      </trkpt>
      <trkpt lat="49.49519" lon="-1.58323">
        <ele>60.5</ele>
        <time>2022-01-25T14:33:14Z</time>
      </trkpt>
      <trkpt lat="49.49523" lon="-1.58314">
        <ele>60.5</ele>
        <time>2022-01-25T14:33:18Z</time>
      </trkpt>
      <trkpt lat="49.49527" lon="-1.58309">
        <ele>60.4</ele>
        <time>2022-01-25T14:33:21Z</time>
      </trkpt>
      <trkpt lat="49.49531" lon="-1.58305">
        <ele>59.8</ele>
        <time>2022-01-25T14:33:25Z</time>
      </trkpt>
      <trkpt lat="49.49535" lon="-1.583">
        <ele>59.1</ele>
        <time>2022-01-25T14:33:29Z</time>
      </trkpt>
      <trkpt lat="49.49539" lon="-1.58294">
        <ele>58.9</ele>
        <time>2022-01-25T14:33:34Z</time>
      </trkpt>
      <trkpt lat="49.49543" lon="-1.58289">
        <ele>59.1</ele>
        <time>2022-01-25T14:33:38Z</time>
      </trkpt>
      <trkpt lat="49.49547" lon="-1.58282">
        <ele>59.5</ele>
        <time>2022-01-25T14:33:45Z</time>
      </trkpt>
      <trkpt lat="49.49549" lon="-1.58274">
        <ele>59.3</ele>
        <time>2022-01-25T14:33:48Z</time>
      </trkpt>
      <trkpt lat="49.49552" lon="-1.58266">
        <ele>59</ele>
        <time>2022-01-25T14:33:53Z</time>
      </trkpt>
      <trkpt lat="49.49555" lon="-1.58261">
        <ele>58.5</ele>
        <time>2022-01-25T14:33:56Z</time>
      </trkpt>
      <trkpt lat="49.49558" lon="-1.58256">
        <ele>58</ele>
        <time>2022-01-25T14:33:59Z</time>
      </trkpt>
      <trkpt lat="49.49562" lon="-1.5825">
        <ele>57.5</ele>
        <time>2022-01-25T14:34:03Z</time>
      </trkpt>
      <trkpt lat="49.49566" lon="-1.58245">
        <ele>57.1</ele>
        <time>2022-01-25T14:34:07Z</time>
      </trkpt>
      <trkpt lat="49.49569" lon="-1.5824">
        <ele>57</ele>
        <time>2022-01-25T14:34:11Z</time>
      </trkpt>
      <trkpt lat="49.49572" lon="-1.58234">
        <ele>56.8</ele>
        <time>2022-01-25T14:34:15Z</time>
      </trkpt>
      <trkpt lat="49.49576" lon="-1.58231">
        <ele>56.8</ele>
        <time>2022-01-25T14:34:19Z</time>
      </trkpt>
      <trkpt lat="49.49582" lon="-1.58226">
        <ele>56.9</ele>
        <time>2022-01-25T14:34:23Z</time>
      </trkpt>
      <trkpt lat="49.49585" lon="-1.58221">
        <ele>57.2</ele>
        <time>2022-01-25T14:34:28Z</time>
      </trkpt>
      <trkpt lat="49.49589" lon="-1.58216">
        <ele>57.1</ele>
        <time>2022-01-25T14:34:31Z</time>
      </trkpt>
      <trkpt lat="49.49592" lon="-1.58212">
        <ele>57.2</ele>
        <time>2022-01-25T14:34:35Z</time>
      </trkpt>
      <trkpt lat="49.49597" lon="-1.58206">
        <ele>57.3</ele>
        <time>2022-01-25T14:34:39Z</time>
      </trkpt>
      <trkpt lat="49.49601" lon="-1.582">
        <ele>57.5</ele>
        <time>2022-01-25T14:34:42Z</time>
      </trkpt>
      <trkpt lat="49.49605" lon="-1.58194">
        <ele>57.5</ele>
        <time>2022-01-25T14:34:45Z</time>
      </trkpt>
      <trkpt lat="49.49609" lon="-1.58189">
        <ele>57.3</ele>
        <time>2022-01-25T14:34:48Z</time>
      </trkpt>
      <trkpt lat="49.49612" lon="-1.58183">
        <ele>56.9</ele>
        <time>2022-01-25T14:34:53Z</time>
      </trkpt>
      <trkpt lat="49.49617" lon="-1.58181">
        <ele>56.7</ele>
        <time>2022-01-25T14:34:56Z</time>
      </trkpt>
      <trkpt lat="49.49621" lon="-1.58178">
        <ele>56.7</ele>
        <time>2022-01-25T14:35:00Z</time>
      </trkpt>
      <trkpt lat="49.49627" lon="-1.58173">
        <ele>56.4</ele>
        <time>2022-01-25T14:35:07Z</time>
      </trkpt>
      <trkpt lat="49.49632" lon="-1.58168">
        <ele>55.8</ele>
        <time>2022-01-25T14:35:13Z</time>
      </trkpt>
      <trkpt lat="49.49637" lon="-1.58164">
        <ele>55.8</ele>
        <time>2022-01-25T14:35:16Z</time>
      </trkpt>
      <trkpt lat="49.49643" lon="-1.58159">
        <ele>56.3</ele>
        <time>2022-01-25T14:35:21Z</time>
      </trkpt>
      <trkpt lat="49.49647" lon="-1.58155">
        <ele>56.7</ele>
        <time>2022-01-25T14:35:25Z</time>
      </trkpt>
      <trkpt lat="49.49652" lon="-1.58153">
        <ele>57</ele>
        <time>2022-01-25T14:35:30Z</time>
      </trkpt>
      <trkpt lat="49.49656" lon="-1.58151">
        <ele>57</ele>
        <time>2022-01-25T14:35:34Z</time>
      </trkpt>
      <trkpt lat="49.49659" lon="-1.58145">
        <ele>57.1</ele>
        <time>2022-01-25T14:35:38Z</time>
      </trkpt>
      <trkpt lat="49.49665" lon="-1.58142">
        <ele>57.3</ele>
        <time>2022-01-25T14:35:42Z</time>
      </trkpt>
      <trkpt lat="49.4967" lon="-1.5814">
        <ele>57.6</ele>
        <time>2022-01-25T14:35:45Z</time>
      </trkpt>
      <trkpt lat="49.49675" lon="-1.58136">
        <ele>57.7</ele>
        <time>2022-01-25T14:35:49Z</time>
      </trkpt>
      <trkpt lat="49.49678" lon="-1.58131">
        <ele>57.8</ele>
        <time>2022-01-25T14:35:54Z</time>
      </trkpt>
      <trkpt lat="49.49683" lon="-1.58129">
        <ele>57.8</ele>
        <time>2022-01-25T14:35:58Z</time>
      </trkpt>
      <trkpt lat="49.49686" lon="-1.58124">
        <ele>57.9</ele>
        <time>2022-01-25T14:36:02Z</time>
      </trkpt>
      <trkpt lat="49.4969" lon="-1.5812">
        <ele>57.9</ele>
        <time>2022-01-25T14:36:05Z</time>
      </trkpt>
      <trkpt lat="49.49695" lon="-1.58116">
        <ele>58</ele>
        <time>2022-01-25T14:36:09Z</time>
      </trkpt>
      <trkpt lat="49.497" lon="-1.58113">
        <ele>58.1</ele>
        <time>2022-01-25T14:36:14Z</time>
      </trkpt>
      <trkpt lat="49.49705" lon="-1.58108">
        <ele>58.1</ele>
        <time>2022-01-25T14:36:19Z</time>
      </trkpt>
      <trkpt lat="49.49709" lon="-1.58106">
        <ele>58.2</ele>
        <time>2022-01-25T14:36:24Z</time>
      </trkpt>
      <trkpt lat="49.49713" lon="-1.581">
        <ele>58.3</ele>
        <time>2022-01-25T14:36:28Z</time>
      </trkpt>
      <trkpt lat="49.49717" lon="-1.58097">
        <ele>58.3</ele>
        <time>2022-01-25T14:36:34Z</time>
      </trkpt>
      <trkpt lat="49.49722" lon="-1.58094">
        <ele>58.1</ele>
        <time>2022-01-25T14:36:45Z</time>
      </trkpt>
      <trkpt lat="49.49726" lon="-1.58091">
        <ele>58.1</ele>
        <time>2022-01-25T14:36:49Z</time>
      </trkpt>
      <trkpt lat="49.49731" lon="-1.58089">
        <ele>58.1</ele>
        <time>2022-01-25T14:36:53Z</time>
      </trkpt>
      <trkpt lat="49.49736" lon="-1.58089">
        <ele>58</ele>
        <time>2022-01-25T14:36:57Z</time>
      </trkpt>
      <trkpt lat="49.49742" lon="-1.58088">
        <ele>57.9</ele>
        <time>2022-01-25T14:37:03Z</time>
      </trkpt>
      <trkpt lat="49.49747" lon="-1.58089">
        <ele>58.2</ele>
        <time>2022-01-25T14:37:09Z</time>
      </trkpt>
      <trkpt lat="49.49753" lon="-1.58089">
        <ele>57.6</ele>
        <time>2022-01-25T14:37:15Z</time>
      </trkpt>
      <trkpt lat="49.49759" lon="-1.58091">
        <ele>57.4</ele>
        <time>2022-01-25T14:37:20Z</time>
      </trkpt>
      <trkpt lat="49.49764" lon="-1.58091">
        <ele>57.5</ele>
        <time>2022-01-25T14:37:23Z</time>
      </trkpt>
      <trkpt lat="49.4977" lon="-1.58089">
        <ele>57.6</ele>
        <time>2022-01-25T14:37:27Z</time>
      </trkpt>
      <trkpt lat="49.49775" lon="-1.58089">
        <ele>57.8</ele>
        <time>2022-01-25T14:37:31Z</time>
      </trkpt>
      <trkpt lat="49.4978" lon="-1.58088">
        <ele>57.9</ele>
        <time>2022-01-25T14:37:34Z</time>
      </trkpt>
      <trkpt lat="49.49784" lon="-1.58091">
        <ele>57.7</ele>
        <time>2022-01-25T14:37:39Z</time>
      </trkpt>
      <trkpt lat="49.49786" lon="-1.58098">
        <ele>57.2</ele>
        <time>2022-01-25T14:37:47Z</time>
      </trkpt>
      <trkpt lat="49.49791" lon="-1.58101">
        <ele>57.1</ele>
        <time>2022-01-25T14:37:52Z</time>
      </trkpt>
      <trkpt lat="49.49796" lon="-1.58104">
        <ele>56.8</ele>
        <time>2022-01-25T14:38:00Z</time>
      </trkpt>
      <trkpt lat="49.49801" lon="-1.58108">
        <ele>56.6</ele>
        <time>2022-01-25T14:38:03Z</time>
      </trkpt>
      <trkpt lat="49.49804" lon="-1.58112">
        <ele>56.1</ele>
        <time>2022-01-25T14:38:07Z</time>
      </trkpt>
      <trkpt lat="49.49807" lon="-1.58119">
        <ele>55.8</ele>
        <time>2022-01-25T14:38:11Z</time>
      </trkpt>
      <trkpt lat="49.49811" lon="-1.58125">
        <ele>55.7</ele>
        <time>2022-01-25T14:38:16Z</time>
      </trkpt>
      <trkpt lat="49.49815" lon="-1.5813">
        <ele>55.9</ele>
        <time>2022-01-25T14:38:19Z</time>
      </trkpt>
      <trkpt lat="49.49818" lon="-1.58137">
        <ele>56</ele>
        <time>2022-01-25T14:38:23Z</time>
      </trkpt>
      <trkpt lat="49.4982" lon="-1.58144">
        <ele>56.3</ele>
        <time>2022-01-25T14:38:29Z</time>
      </trkpt>
      <trkpt lat="49.49823" lon="-1.58152">
        <ele>56.8</ele>
        <time>2022-01-25T14:38:33Z</time>
      </trkpt>
      <trkpt lat="49.49825" lon="-1.5816">
        <ele>57.1</ele>
        <time>2022-01-25T14:38:38Z</time>
      </trkpt>
      <trkpt lat="49.49826" lon="-1.58168">
        <ele>57.3</ele>
        <time>2022-01-25T14:38:42Z</time>
      </trkpt>
      <trkpt lat="49.49828" lon="-1.58174">
        <ele>57.5</ele>
        <time>2022-01-25T14:38:45Z</time>
      </trkpt>
      <trkpt lat="49.49831" lon="-1.5818">
        <ele>57.7</ele>
        <time>2022-01-25T14:38:49Z</time>
      </trkpt>
      <trkpt lat="49.49835" lon="-1.58183">
        <ele>57.9</ele>
        <time>2022-01-25T14:38:53Z</time>
      </trkpt>
      <trkpt lat="49.4984" lon="-1.5818">
        <ele>58.1</ele>
        <time>2022-01-25T14:38:58Z</time>
      </trkpt>
      <trkpt lat="49.49845" lon="-1.58178">
        <ele>58.8</ele>
        <time>2022-01-25T14:39:02Z</time>
      </trkpt>
      <trkpt lat="49.49849" lon="-1.58176">
        <ele>59.3</ele>
        <time>2022-01-25T14:39:12Z</time>
      </trkpt>
      <trkpt lat="49.49854" lon="-1.58173">
        <ele>59.3</ele>
        <time>2022-01-25T14:39:31Z</time>
      </trkpt>
      <trkpt lat="49.49856" lon="-1.58167">
        <ele>59.8</ele>
        <time>2022-01-25T14:39:38Z</time>
      </trkpt>
      <trkpt lat="49.49858" lon="-1.5816">
        <ele>59.9</ele>
        <time>2022-01-25T14:39:42Z</time>
      </trkpt>
      <trkpt lat="49.49861" lon="-1.58153">
        <ele>59.6</ele>
        <time>2022-01-25T14:39:45Z</time>
      </trkpt>
      <trkpt lat="49.49865" lon="-1.58147">
        <ele>59.3</ele>
        <time>2022-01-25T14:39:47Z</time>
      </trkpt>
      <trkpt lat="49.49882" lon="-1.58128">
        <ele>58.8</ele>
        <time>2022-01-25T14:39:55Z</time>
      </trkpt>
      <trkpt lat="49.49885" lon="-1.58123">
        <ele>59.3</ele>
        <time>2022-01-25T14:39:59Z</time>
      </trkpt>
      <trkpt lat="49.49909" lon="-1.58098">
        <ele>61.9</ele>
        <time>2022-01-25T14:40:17Z</time>
      </trkpt>
      <trkpt lat="49.49913" lon="-1.58094">
        <ele>62.1</ele>
        <time>2022-01-25T14:40:20Z</time>
      </trkpt>
      <trkpt lat="49.49916" lon="-1.58088">
        <ele>62.1</ele>
        <time>2022-01-25T14:40:24Z</time>
      </trkpt>
      <trkpt lat="49.49918" lon="-1.58082">
        <ele>61.1</ele>
        <time>2022-01-25T14:40:30Z</time>
      </trkpt>
      <trkpt lat="49.49921" lon="-1.58074">
        <ele>60</ele>
        <time>2022-01-25T14:40:36Z</time>
      </trkpt>
      <trkpt lat="49.49924" lon="-1.58068">
        <ele>59.5</ele>
        <time>2022-01-25T14:40:44Z</time>
      </trkpt>
      <trkpt lat="49.49927" lon="-1.58059">
        <ele>58.7</ele>
        <time>2022-01-25T14:40:50Z</time>
      </trkpt>
      <trkpt lat="49.49931" lon="-1.5805">
        <ele>58.1</ele>
        <time>2022-01-25T14:40:54Z</time>
      </trkpt>
      <trkpt lat="49.49935" lon="-1.58033">
        <ele>57.3</ele>
        <time>2022-01-25T14:41:03Z</time>
      </trkpt>
      <trkpt lat="49.49936" lon="-1.58026">
        <ele>56.9</ele>
        <time>2022-01-25T14:41:07Z</time>
      </trkpt>
      <trkpt lat="49.49939" lon="-1.5802">
        <ele>56.5</ele>
        <time>2022-01-25T14:41:10Z</time>
      </trkpt>
      <trkpt lat="49.49943" lon="-1.58015">
        <ele>56.4</ele>
        <time>2022-01-25T14:41:13Z</time>
      </trkpt>
      <trkpt lat="49.49946" lon="-1.58008">
        <ele>56.5</ele>
        <time>2022-01-25T14:41:17Z</time>
      </trkpt>
      <trkpt lat="49.49948" lon="-1.58002">
        <ele>56.9</ele>
        <time>2022-01-25T14:41:21Z</time>
      </trkpt>
      <trkpt lat="49.49951" lon="-1.57988">
        <ele>57.3</ele>
        <time>2022-01-25T14:41:25Z</time>
      </trkpt>
      <trkpt lat="49.49952" lon="-1.57981">
        <ele>57.8</ele>
        <time>2022-01-25T14:41:28Z</time>
      </trkpt>
      <trkpt lat="49.49955" lon="-1.57975">
        <ele>58</ele>
        <time>2022-01-25T14:41:32Z</time>
      </trkpt>
      <trkpt lat="49.49958" lon="-1.57968">
        <ele>58.2</ele>
        <time>2022-01-25T14:41:36Z</time>
      </trkpt>
      <trkpt lat="49.4996" lon="-1.57961">
        <ele>58</ele>
        <time>2022-01-25T14:41:39Z</time>
      </trkpt>
      <trkpt lat="49.49963" lon="-1.57952">
        <ele>57.6</ele>
        <time>2022-01-25T14:41:45Z</time>
      </trkpt>
      <trkpt lat="49.49966" lon="-1.57946">
        <ele>56.2</ele>
        <time>2022-01-25T14:41:50Z</time>
      </trkpt>
      <trkpt lat="49.49969" lon="-1.57939">
        <ele>55.3</ele>
        <time>2022-01-25T14:41:53Z</time>
      </trkpt>
      <trkpt lat="49.49972" lon="-1.57933">
        <ele>55.1</ele>
        <time>2022-01-25T14:41:59Z</time>
      </trkpt>
      <trkpt lat="49.49974" lon="-1.57922">
        <ele>55.9</ele>
        <time>2022-01-25T14:42:04Z</time>
      </trkpt>
      <trkpt lat="49.49977" lon="-1.57915">
        <ele>56</ele>
        <time>2022-01-25T14:42:07Z</time>
      </trkpt>
      <trkpt lat="49.49979" lon="-1.57906">
        <ele>56</ele>
        <time>2022-01-25T14:42:11Z</time>
      </trkpt>
      <trkpt lat="49.49981" lon="-1.579">
        <ele>56</ele>
        <time>2022-01-25T14:42:15Z</time>
      </trkpt>
      <trkpt lat="49.49982" lon="-1.57892">
        <ele>55.8</ele>
        <time>2022-01-25T14:42:27Z</time>
      </trkpt>
      <trkpt lat="49.49985" lon="-1.57885">
        <ele>55.3</ele>
        <time>2022-01-25T14:42:30Z</time>
      </trkpt>
      <trkpt lat="49.49987" lon="-1.57877">
        <ele>54.7</ele>
        <time>2022-01-25T14:42:34Z</time>
      </trkpt>
      <trkpt lat="49.4999" lon="-1.57867">
        <ele>54.3</ele>
        <time>2022-01-25T14:42:38Z</time>
      </trkpt>
      <trkpt lat="49.49992" lon="-1.5786">
        <ele>54.1</ele>
        <time>2022-01-25T14:42:41Z</time>
      </trkpt>
      <trkpt lat="49.49995" lon="-1.57854">
        <ele>54.1</ele>
        <time>2022-01-25T14:42:44Z</time>
      </trkpt>
      <trkpt lat="49.49998" lon="-1.57846">
        <ele>53.8</ele>
        <time>2022-01-25T14:42:48Z</time>
      </trkpt>
      <trkpt lat="49.50001" lon="-1.57837">
        <ele>52.7</ele>
        <time>2022-01-25T14:42:53Z</time>
      </trkpt>
      <trkpt lat="49.50003" lon="-1.57829">
        <ele>51.5</ele>
        <time>2022-01-25T14:42:57Z</time>
      </trkpt>
      <trkpt lat="49.50006" lon="-1.57822">
        <ele>50.2</ele>
        <time>2022-01-25T14:43:01Z</time>
      </trkpt>
      <trkpt lat="49.50009" lon="-1.57815">
        <ele>50</ele>
        <time>2022-01-25T14:43:05Z</time>
      </trkpt>
      <trkpt lat="49.50012" lon="-1.5781">
        <ele>50.7</ele>
        <time>2022-01-25T14:43:10Z</time>
      </trkpt>
      <trkpt lat="49.50015" lon="-1.57804">
        <ele>50.2</ele>
        <time>2022-01-25T14:43:18Z</time>
      </trkpt>
      <trkpt lat="49.50017" lon="-1.57796">
        <ele>49</ele>
        <time>2022-01-25T14:43:24Z</time>
      </trkpt>
      <trkpt lat="49.50021" lon="-1.57789">
        <ele>48.3</ele>
        <time>2022-01-25T14:43:30Z</time>
      </trkpt>
      <trkpt lat="49.50023" lon="-1.57782">
        <ele>48.1</ele>
        <time>2022-01-25T14:43:33Z</time>
      </trkpt>
      <trkpt lat="49.50025" lon="-1.57775">
        <ele>48.1</ele>
        <time>2022-01-25T14:43:35Z</time>
      </trkpt>
      <trkpt lat="49.50027" lon="-1.57768">
        <ele>48.5</ele>
        <time>2022-01-25T14:43:37Z</time>
      </trkpt>
      <trkpt lat="49.50029" lon="-1.57762">
        <ele>48.8</ele>
        <time>2022-01-25T14:43:40Z</time>
      </trkpt>
      <trkpt lat="49.50033" lon="-1.57753">
        <ele>48.9</ele>
        <time>2022-01-25T14:43:43Z</time>
      </trkpt>
      <trkpt lat="49.50036" lon="-1.57746">
        <ele>48.8</ele>
        <time>2022-01-25T14:43:45Z</time>
      </trkpt>
      <trkpt lat="49.5004" lon="-1.5774">
        <ele>47.9</ele>
        <time>2022-01-25T14:43:50Z</time>
      </trkpt>
      <trkpt lat="49.50045" lon="-1.57737">
        <ele>46.5</ele>
        <time>2022-01-25T14:43:57Z</time>
      </trkpt>
      <trkpt lat="49.5005" lon="-1.57735">
        <ele>45.7</ele>
        <time>2022-01-25T14:44:02Z</time>
      </trkpt>
      <trkpt lat="49.50055" lon="-1.57733">
        <ele>44.8</ele>
        <time>2022-01-25T14:44:08Z</time>
      </trkpt>
      <trkpt lat="49.5006" lon="-1.57732">
        <ele>43.6</ele>
        <time>2022-01-25T14:44:14Z</time>
      </trkpt>
      <trkpt lat="49.50065" lon="-1.57732">
        <ele>43</ele>
        <time>2022-01-25T14:44:19Z</time>
      </trkpt>
      <trkpt lat="49.50071" lon="-1.57732">
        <ele>41.7</ele>
        <time>2022-01-25T14:44:23Z</time>
      </trkpt>
      <trkpt lat="49.50076" lon="-1.57731">
        <ele>38.9</ele>
        <time>2022-01-25T14:44:28Z</time>
      </trkpt>
      <trkpt lat="49.50082" lon="-1.57731">
        <ele>37.4</ele>
        <time>2022-01-25T14:44:37Z</time>
      </trkpt>
      <trkpt lat="49.50087" lon="-1.57735">
        <ele>35.2</ele>
        <time>2022-01-25T14:44:49Z</time>
      </trkpt>
      <trkpt lat="49.50091" lon="-1.57739">
        <ele>34.6</ele>
        <time>2022-01-25T14:44:53Z</time>
      </trkpt>
      <trkpt lat="49.50095" lon="-1.57744">
        <ele>34.2</ele>
        <time>2022-01-25T14:44:58Z</time>
      </trkpt>
      <trkpt lat="49.50099" lon="-1.57747">
        <ele>33.9</ele>
        <time>2022-01-25T14:45:03Z</time>
      </trkpt>
      <trkpt lat="49.50104" lon="-1.57749">
        <ele>33.6</ele>
        <time>2022-01-25T14:45:08Z</time>
      </trkpt>
      <trkpt lat="49.5011" lon="-1.5775">
        <ele>33.4</ele>
        <time>2022-01-25T14:45:13Z</time>
      </trkpt>
      <trkpt lat="49.50115" lon="-1.5775">
        <ele>33.3</ele>
        <time>2022-01-25T14:45:16Z</time>
      </trkpt>
      <trkpt lat="49.5012" lon="-1.57752">
        <ele>33.1</ele>
        <time>2022-01-25T14:45:21Z</time>
      </trkpt>
      <trkpt lat="49.50125" lon="-1.57754">
        <ele>33.3</ele>
        <time>2022-01-25T14:45:26Z</time>
      </trkpt>
      <trkpt lat="49.50131" lon="-1.57758">
        <ele>33.7</ele>
        <time>2022-01-25T14:45:31Z</time>
      </trkpt>
      <trkpt lat="49.50137" lon="-1.57761">
        <ele>33.7</ele>
        <time>2022-01-25T14:45:36Z</time>
      </trkpt>
      <trkpt lat="49.50144" lon="-1.57765">
        <ele>33.4</ele>
        <time>2022-01-25T14:45:41Z</time>
      </trkpt>
      <trkpt lat="49.50148" lon="-1.57765">
        <ele>33.6</ele>
        <time>2022-01-25T14:45:45Z</time>
      </trkpt>
      <trkpt lat="49.50154" lon="-1.57767">
        <ele>34</ele>
        <time>2022-01-25T14:45:48Z</time>
      </trkpt>
      <trkpt lat="49.50158" lon="-1.57766">
        <ele>34.4</ele>
        <time>2022-01-25T14:46:02Z</time>
      </trkpt>
      <trkpt lat="49.50163" lon="-1.5777">
        <ele>34.5</ele>
        <time>2022-01-25T14:46:08Z</time>
      </trkpt>
      <trkpt lat="49.50168" lon="-1.57772">
        <ele>34.5</ele>
        <time>2022-01-25T14:46:13Z</time>
      </trkpt>
      <trkpt lat="49.50172" lon="-1.57773">
        <ele>34.6</ele>
        <time>2022-01-25T14:46:17Z</time>
      </trkpt>
      <trkpt lat="49.50177" lon="-1.57774">
        <ele>34.7</ele>
        <time>2022-01-25T14:46:23Z</time>
      </trkpt>
      <trkpt lat="49.50181" lon="-1.57777">
        <ele>34.3</ele>
        <time>2022-01-25T14:46:29Z</time>
      </trkpt>
      <trkpt lat="49.50187" lon="-1.57779">
        <ele>34.2</ele>
        <time>2022-01-25T14:46:36Z</time>
      </trkpt>
      <trkpt lat="49.50192" lon="-1.5778">
        <ele>34.6</ele>
        <time>2022-01-25T14:46:40Z</time>
      </trkpt>
      <trkpt lat="49.50197" lon="-1.5778">
        <ele>34.9</ele>
        <time>2022-01-25T14:46:44Z</time>
      </trkpt>
      <trkpt lat="49.50202" lon="-1.5778">
        <ele>35.1</ele>
        <time>2022-01-25T14:46:48Z</time>
      </trkpt>
      <trkpt lat="49.50208" lon="-1.57782">
        <ele>35.8</ele>
        <time>2022-01-25T14:46:52Z</time>
      </trkpt>
      <trkpt lat="49.50216" lon="-1.57783">
        <ele>37.8</ele>
        <time>2022-01-25T14:46:56Z</time>
      </trkpt>
      <trkpt lat="49.50221" lon="-1.57783">
        <ele>39.6</ele>
        <time>2022-01-25T14:46:59Z</time>
      </trkpt>
      <trkpt lat="49.50225" lon="-1.57786">
        <ele>39.6</ele>
        <time>2022-01-25T14:47:08Z</time>
      </trkpt>
      <trkpt lat="49.5023" lon="-1.57789">
        <ele>39</ele>
        <time>2022-01-25T14:47:13Z</time>
      </trkpt>
      <trkpt lat="49.50234" lon="-1.57792">
        <ele>38.3</ele>
        <time>2022-01-25T14:47:17Z</time>
      </trkpt>
      <trkpt lat="49.50238" lon="-1.57795">
        <ele>37.9</ele>
        <time>2022-01-25T14:47:30Z</time>
      </trkpt>
      <trkpt lat="49.50243" lon="-1.57793">
        <ele>38</ele>
        <time>2022-01-25T14:47:45Z</time>
      </trkpt>
      <trkpt lat="49.50246" lon="-1.57787">
        <ele>37.6</ele>
        <time>2022-01-25T14:47:49Z</time>
      </trkpt>
      <trkpt lat="49.50249" lon="-1.57781">
        <ele>37.5</ele>
        <time>2022-01-25T14:47:53Z</time>
      </trkpt>
      <trkpt lat="49.50254" lon="-1.57777">
        <ele>37.5</ele>
        <time>2022-01-25T14:47:58Z</time>
      </trkpt>
      <trkpt lat="49.50257" lon="-1.57772">
        <ele>37.3</ele>
        <time>2022-01-25T14:48:02Z</time>
      </trkpt>
      <trkpt lat="49.50262" lon="-1.57768">
        <ele>37</ele>
        <time>2022-01-25T14:48:07Z</time>
      </trkpt>
      <trkpt lat="49.50267" lon="-1.57767">
        <ele>36.6</ele>
        <time>2022-01-25T14:48:13Z</time>
      </trkpt>
      <trkpt lat="49.50273" lon="-1.57767">
        <ele>35.8</ele>
        <time>2022-01-25T14:48:17Z</time>
      </trkpt>
      <trkpt lat="49.50278" lon="-1.57766">
        <ele>35.3</ele>
        <time>2022-01-25T14:48:23Z</time>
      </trkpt>
      <trkpt lat="49.50283" lon="-1.57764">
        <ele>35</ele>
        <time>2022-01-25T14:48:28Z</time>
      </trkpt>
      <trkpt lat="49.50288" lon="-1.57763">
        <ele>34.8</ele>
        <time>2022-01-25T14:48:32Z</time>
      </trkpt>
      <trkpt lat="49.50294" lon="-1.57762">
        <ele>35</ele>
        <time>2022-01-25T14:48:35Z</time>
      </trkpt>
      <trkpt lat="49.50299" lon="-1.57761">
        <ele>35.1</ele>
        <time>2022-01-25T14:48:39Z</time>
      </trkpt>
      <trkpt lat="49.50305" lon="-1.57759">
        <ele>35.1</ele>
        <time>2022-01-25T14:48:42Z</time>
      </trkpt>
      <trkpt lat="49.5031" lon="-1.57758">
        <ele>34.7</ele>
        <time>2022-01-25T14:48:46Z</time>
      </trkpt>
      <trkpt lat="49.50316" lon="-1.57756">
        <ele>34.5</ele>
        <time>2022-01-25T14:48:50Z</time>
      </trkpt>
      <trkpt lat="49.50321" lon="-1.57756">
        <ele>33.8</ele>
        <time>2022-01-25T14:48:53Z</time>
      </trkpt>
      <trkpt lat="49.50327" lon="-1.57755">
        <ele>32.9</ele>
        <time>2022-01-25T14:48:58Z</time>
      </trkpt>
      <trkpt lat="49.50332" lon="-1.57756">
        <ele>32.6</ele>
        <time>2022-01-25T14:49:03Z</time>
      </trkpt>
      <trkpt lat="49.50338" lon="-1.57755">
        <ele>31.6</ele>
        <time>2022-01-25T14:49:09Z</time>
      </trkpt>
      <trkpt lat="49.50343" lon="-1.57756">
        <ele>31.1</ele>
        <time>2022-01-25T14:49:13Z</time>
      </trkpt>
      <trkpt lat="49.50348" lon="-1.57755">
        <ele>31.1</ele>
        <time>2022-01-25T14:49:17Z</time>
      </trkpt>
      <trkpt lat="49.50353" lon="-1.57754">
        <ele>31.2</ele>
        <time>2022-01-25T14:49:21Z</time>
      </trkpt>
      <trkpt lat="49.50359" lon="-1.57754">
        <ele>31.4</ele>
        <time>2022-01-25T14:49:25Z</time>
      </trkpt>
      <trkpt lat="49.50365" lon="-1.57752">
        <ele>31.1</ele>
        <time>2022-01-25T14:49:31Z</time>
      </trkpt>
      <trkpt lat="49.50369" lon="-1.5775">
        <ele>30.9</ele>
        <time>2022-01-25T14:49:38Z</time>
      </trkpt>
      <trkpt lat="49.50375" lon="-1.57748">
        <ele>31.1</ele>
        <time>2022-01-25T14:49:44Z</time>
      </trkpt>
      <trkpt lat="49.50379" lon="-1.57748">
        <ele>31.5</ele>
        <time>2022-01-25T14:49:47Z</time>
      </trkpt>
      <trkpt lat="49.50384" lon="-1.57747">
        <ele>31.9</ele>
        <time>2022-01-25T14:49:50Z</time>
      </trkpt>
      <trkpt lat="49.50389" lon="-1.57747">
        <ele>32.6</ele>
        <time>2022-01-25T14:49:53Z</time>
      </trkpt>
      <trkpt lat="49.50395" lon="-1.57746">
        <ele>32.9</ele>
        <time>2022-01-25T14:49:57Z</time>
      </trkpt>
      <trkpt lat="49.50404" lon="-1.57746">
        <ele>33.3</ele>
        <time>2022-01-25T14:50:02Z</time>
      </trkpt>
      <trkpt lat="49.5041" lon="-1.57745">
        <ele>33.7</ele>
        <time>2022-01-25T14:50:07Z</time>
      </trkpt>
      <trkpt lat="49.50414" lon="-1.57744">
        <ele>33.6</ele>
        <time>2022-01-25T14:50:10Z</time>
      </trkpt>
      <trkpt lat="49.5042" lon="-1.57749">
        <ele>33.8</ele>
        <time>2022-01-25T14:50:32Z</time>
      </trkpt>
      <trkpt lat="49.50427" lon="-1.57751">
        <ele>33.9</ele>
        <time>2022-01-25T14:50:38Z</time>
      </trkpt>
      <trkpt lat="49.50433" lon="-1.57753">
        <ele>34.5</ele>
        <time>2022-01-25T14:50:52Z</time>
      </trkpt>
      <trkpt lat="49.50438" lon="-1.57748">
        <ele>34.2</ele>
        <time>2022-01-25T14:51:03Z</time>
      </trkpt>
      <trkpt lat="49.50442" lon="-1.57747">
        <ele>32.9</ele>
        <time>2022-01-25T14:51:42Z</time>
      </trkpt>
      <trkpt lat="49.50447" lon="-1.57747">
        <ele>31.7</ele>
        <time>2022-01-25T14:55:06Z</time>
      </trkpt>
      <trkpt lat="49.50453" lon="-1.57744">
        <ele>31.6</ele>
        <time>2022-01-25T14:56:15Z</time>
      </trkpt>
      <trkpt lat="49.50458" lon="-1.57743">
        <ele>31.8</ele>
        <time>2022-01-25T14:56:18Z</time>
      </trkpt>
      <trkpt lat="49.50463" lon="-1.57742">
        <ele>32</ele>
        <time>2022-01-25T14:56:22Z</time>
      </trkpt>
      <trkpt lat="49.50469" lon="-1.57741">
        <ele>32.1</ele>
        <time>2022-01-25T14:56:25Z</time>
      </trkpt>
      <trkpt lat="49.50473" lon="-1.5774">
        <ele>32.1</ele>
        <time>2022-01-25T14:56:30Z</time>
      </trkpt>
      <trkpt lat="49.50479" lon="-1.57738">
        <ele>32.1</ele>
        <time>2022-01-25T14:56:35Z</time>
      </trkpt>
      <trkpt lat="49.50484" lon="-1.57739">
        <ele>31.8</ele>
        <time>2022-01-25T14:56:40Z</time>
      </trkpt>
      <trkpt lat="49.50489" lon="-1.57737">
        <ele>31.1</ele>
        <time>2022-01-25T14:56:45Z</time>
      </trkpt>
      <trkpt lat="49.50493" lon="-1.57731">
        <ele>30.7</ele>
        <time>2022-01-25T14:56:49Z</time>
      </trkpt>
      <trkpt lat="49.50496" lon="-1.57726">
        <ele>30.5</ele>
        <time>2022-01-25T14:56:52Z</time>
      </trkpt>
      <trkpt lat="49.505" lon="-1.57718">
        <ele>30.5</ele>
        <time>2022-01-25T14:56:57Z</time>
      </trkpt>
      <trkpt lat="49.50504" lon="-1.57713">
        <ele>30.6</ele>
        <time>2022-01-25T14:57:02Z</time>
      </trkpt>
      <trkpt lat="49.50509" lon="-1.57709">
        <ele>30.5</ele>
        <time>2022-01-25T14:57:06Z</time>
      </trkpt>
      <trkpt lat="49.50513" lon="-1.57705">
        <ele>30.6</ele>
        <time>2022-01-25T14:57:11Z</time>
      </trkpt>
      <trkpt lat="49.50518" lon="-1.57702">
        <ele>30.8</ele>
        <time>2022-01-25T14:57:16Z</time>
      </trkpt>
      <trkpt lat="49.50522" lon="-1.577">
        <ele>30.8</ele>
        <time>2022-01-25T14:57:20Z</time>
      </trkpt>
      <trkpt lat="49.50527" lon="-1.57697">
        <ele>30.7</ele>
        <time>2022-01-25T14:57:25Z</time>
      </trkpt>
      <trkpt lat="49.50533" lon="-1.57695">
        <ele>30.8</ele>
        <time>2022-01-25T14:57:30Z</time>
      </trkpt>
      <trkpt lat="49.50538" lon="-1.57692">
        <ele>31.3</ele>
        <time>2022-01-25T14:57:35Z</time>
      </trkpt>
      <trkpt lat="49.50543" lon="-1.57689">
        <ele>31.9</ele>
        <time>2022-01-25T14:57:40Z</time>
      </trkpt>
      <trkpt lat="49.50548" lon="-1.57686">
        <ele>32.7</ele>
        <time>2022-01-25T14:57:45Z</time>
      </trkpt>
      <trkpt lat="49.50552" lon="-1.57682">
        <ele>33.1</ele>
        <time>2022-01-25T14:57:50Z</time>
      </trkpt>
      <trkpt lat="49.50557" lon="-1.5768">
        <ele>33.1</ele>
        <time>2022-01-25T14:57:56Z</time>
      </trkpt>
      <trkpt lat="49.50561" lon="-1.57677">
        <ele>33.3</ele>
        <time>2022-01-25T14:58:02Z</time>
      </trkpt>
      <trkpt lat="49.50565" lon="-1.57676">
        <ele>33.7</ele>
        <time>2022-01-25T14:58:06Z</time>
      </trkpt>
      <trkpt lat="49.50571" lon="-1.57672">
        <ele>34.1</ele>
        <time>2022-01-25T14:58:10Z</time>
      </trkpt>
      <trkpt lat="49.50576" lon="-1.57669">
        <ele>34.4</ele>
        <time>2022-01-25T14:58:15Z</time>
      </trkpt>
      <trkpt lat="49.50582" lon="-1.57669">
        <ele>34.7</ele>
        <time>2022-01-25T14:58:20Z</time>
      </trkpt>
      <trkpt lat="49.50587" lon="-1.5767">
        <ele>35.2</ele>
        <time>2022-01-25T14:58:25Z</time>
      </trkpt>
      <trkpt lat="49.50591" lon="-1.57672">
        <ele>35.7</ele>
        <time>2022-01-25T14:58:30Z</time>
      </trkpt>
      <trkpt lat="49.50596" lon="-1.57673">
        <ele>36.3</ele>
        <time>2022-01-25T14:58:35Z</time>
      </trkpt>
      <trkpt lat="49.50601" lon="-1.57672">
        <ele>36.9</ele>
        <time>2022-01-25T14:58:40Z</time>
      </trkpt>
      <trkpt lat="49.50606" lon="-1.57673">
        <ele>37.3</ele>
        <time>2022-01-25T14:58:45Z</time>
      </trkpt>
      <trkpt lat="49.50611" lon="-1.57675">
        <ele>37.5</ele>
        <time>2022-01-25T14:58:50Z</time>
      </trkpt>
      <trkpt lat="49.50617" lon="-1.57674">
        <ele>37.6</ele>
        <time>2022-01-25T14:58:55Z</time>
      </trkpt>
      <trkpt lat="49.50623" lon="-1.57675">
        <ele>37.5</ele>
        <time>2022-01-25T14:59:00Z</time>
      </trkpt>
      <trkpt lat="49.50629" lon="-1.57676">
        <ele>37.1</ele>
        <time>2022-01-25T14:59:05Z</time>
      </trkpt>
      <trkpt lat="49.50635" lon="-1.5768">
        <ele>36.9</ele>
        <time>2022-01-25T14:59:10Z</time>
      </trkpt>
      <trkpt lat="49.5064" lon="-1.57684">
        <ele>36.8</ele>
        <time>2022-01-25T14:59:15Z</time>
      </trkpt>
      <trkpt lat="49.50645" lon="-1.57688">
        <ele>37.1</ele>
        <time>2022-01-25T14:59:18Z</time>
      </trkpt>
      <trkpt lat="49.5065" lon="-1.57694">
        <ele>37.4</ele>
        <time>2022-01-25T14:59:22Z</time>
      </trkpt>
      <trkpt lat="49.50654" lon="-1.57699">
        <ele>37.9</ele>
        <time>2022-01-25T14:59:26Z</time>
      </trkpt>
      <trkpt lat="49.50658" lon="-1.57707">
        <ele>38.7</ele>
        <time>2022-01-25T14:59:33Z</time>
      </trkpt>
      <trkpt lat="49.50662" lon="-1.57712">
        <ele>39.4</ele>
        <time>2022-01-25T14:59:37Z</time>
      </trkpt>
      <trkpt lat="49.50667" lon="-1.57716">
        <ele>39.4</ele>
        <time>2022-01-25T14:59:42Z</time>
      </trkpt>
      <trkpt lat="49.5067" lon="-1.57723">
        <ele>40.8</ele>
        <time>2022-01-25T14:59:59Z</time>
      </trkpt>
      <trkpt lat="49.50675" lon="-1.57725">
        <ele>40.8</ele>
        <time>2022-01-25T15:00:04Z</time>
      </trkpt>
      <trkpt lat="49.5068" lon="-1.57727">
        <ele>40.8</ele>
        <time>2022-01-25T15:00:10Z</time>
      </trkpt>
      <trkpt lat="49.50686" lon="-1.57728">
        <ele>40.9</ele>
        <time>2022-01-25T15:00:14Z</time>
      </trkpt>
      <trkpt lat="49.50691" lon="-1.57728">
        <ele>41.9</ele>
        <time>2022-01-25T15:00:20Z</time>
      </trkpt>
      <trkpt lat="49.50696" lon="-1.5773">
        <ele>42.9</ele>
        <time>2022-01-25T15:00:28Z</time>
      </trkpt>
      <trkpt lat="49.507" lon="-1.57733">
        <ele>43</ele>
        <time>2022-01-25T15:00:35Z</time>
      </trkpt>
      <trkpt lat="49.50706" lon="-1.57734">
        <ele>42.8</ele>
        <time>2022-01-25T15:00:41Z</time>
      </trkpt>
      <trkpt lat="49.50712" lon="-1.57736">
        <ele>42.9</ele>
        <time>2022-01-25T15:00:45Z</time>
      </trkpt>
      <trkpt lat="49.50717" lon="-1.57738">
        <ele>43.4</ele>
        <time>2022-01-25T15:00:49Z</time>
      </trkpt>
      <trkpt lat="49.50722" lon="-1.57741">
        <ele>43.7</ele>
        <time>2022-01-25T15:00:53Z</time>
      </trkpt>
      <trkpt lat="49.50727" lon="-1.57744">
        <ele>43.7</ele>
        <time>2022-01-25T15:00:57Z</time>
      </trkpt>
      <trkpt lat="49.50732" lon="-1.57748">
        <ele>44.1</ele>
        <time>2022-01-25T15:01:02Z</time>
      </trkpt>
      <trkpt lat="49.50735" lon="-1.57752">
        <ele>44.4</ele>
        <time>2022-01-25T15:01:07Z</time>
      </trkpt>
      <trkpt lat="49.50738" lon="-1.57758">
        <ele>44.5</ele>
        <time>2022-01-25T15:01:11Z</time>
      </trkpt>
      <trkpt lat="49.50739" lon="-1.57766">
        <ele>44.6</ele>
        <time>2022-01-25T15:01:14Z</time>
      </trkpt>
      <trkpt lat="49.50739" lon="-1.57775">
        <ele>44.7</ele>
        <time>2022-01-25T15:01:19Z</time>
      </trkpt>
      <trkpt lat="49.50742" lon="-1.57782">
        <ele>44.8</ele>
        <time>2022-01-25T15:01:24Z</time>
      </trkpt>
      <trkpt lat="49.50749" lon="-1.57786">
        <ele>44.6</ele>
        <time>2022-01-25T15:01:29Z</time>
      </trkpt>
      <trkpt lat="49.50755" lon="-1.57789">
        <ele>45.2</ele>
        <time>2022-01-25T15:01:33Z</time>
      </trkpt>
      <trkpt lat="49.5076" lon="-1.5779">
        <ele>45.8</ele>
        <time>2022-01-25T15:01:36Z</time>
      </trkpt>
      <trkpt lat="49.50765" lon="-1.5779">
        <ele>46.3</ele>
        <time>2022-01-25T15:01:40Z</time>
      </trkpt>
      <trkpt lat="49.5077" lon="-1.57788">
        <ele>46.6</ele>
        <time>2022-01-25T15:01:45Z</time>
      </trkpt>
      <trkpt lat="49.50774" lon="-1.57791">
        <ele>47.3</ele>
        <time>2022-01-25T15:01:49Z</time>
      </trkpt>
      <trkpt lat="49.50778" lon="-1.57798">
        <ele>48.2</ele>
        <time>2022-01-25T15:01:54Z</time>
      </trkpt>
      <trkpt lat="49.50773" lon="-1.57802">
        <ele>48.1</ele>
        <time>2022-01-25T15:01:58Z</time>
      </trkpt>
      <trkpt lat="49.50769" lon="-1.578">
        <ele>47.8</ele>
        <time>2022-01-25T15:02:01Z</time>
      </trkpt>
      <trkpt lat="49.50764" lon="-1.57801">
        <ele>47.4</ele>
        <time>2022-01-25T15:02:05Z</time>
      </trkpt>
      <trkpt lat="49.50759" lon="-1.57804">
        <ele>47.5</ele>
        <time>2022-01-25T15:02:09Z</time>
      </trkpt>
      <trkpt lat="49.50755" lon="-1.57806">
        <ele>47.7</ele>
        <time>2022-01-25T15:02:13Z</time>
      </trkpt>
      <trkpt lat="49.5075" lon="-1.5781">
        <ele>47.9</ele>
        <time>2022-01-25T15:02:17Z</time>
      </trkpt>
      <trkpt lat="49.50746" lon="-1.57814">
        <ele>47.9</ele>
        <time>2022-01-25T15:02:22Z</time>
      </trkpt>
      <trkpt lat="49.50741" lon="-1.57818">
        <ele>47.7</ele>
        <time>2022-01-25T15:02:26Z</time>
      </trkpt>
      <trkpt lat="49.50737" lon="-1.57823">
        <ele>47.3</ele>
        <time>2022-01-25T15:02:31Z</time>
      </trkpt>
      <trkpt lat="49.50732" lon="-1.57826">
        <ele>47.2</ele>
        <time>2022-01-25T15:02:35Z</time>
      </trkpt>
      <trkpt lat="49.50727" lon="-1.57829">
        <ele>47.1</ele>
        <time>2022-01-25T15:02:39Z</time>
      </trkpt>
      <trkpt lat="49.50723" lon="-1.57832">
        <ele>46.8</ele>
        <time>2022-01-25T15:02:46Z</time>
      </trkpt>
      <trkpt lat="49.50718" lon="-1.57835">
        <ele>46.8</ele>
        <time>2022-01-25T15:02:51Z</time>
      </trkpt>
      <trkpt lat="49.50714" lon="-1.57838">
        <ele>46.9</ele>
        <time>2022-01-25T15:02:55Z</time>
      </trkpt>
      <trkpt lat="49.5071" lon="-1.5784">
        <ele>46.8</ele>
        <time>2022-01-25T15:02:58Z</time>
      </trkpt>
      <trkpt lat="49.50705" lon="-1.57844">
        <ele>46.9</ele>
        <time>2022-01-25T15:03:01Z</time>
      </trkpt>
      <trkpt lat="49.507" lon="-1.57848">
        <ele>46.9</ele>
        <time>2022-01-25T15:03:05Z</time>
      </trkpt>
      <trkpt lat="49.50695" lon="-1.57851">
        <ele>46.9</ele>
        <time>2022-01-25T15:03:10Z</time>
      </trkpt>
      <trkpt lat="49.5069" lon="-1.57852">
        <ele>47</ele>
        <time>2022-01-25T15:03:14Z</time>
      </trkpt>
      <trkpt lat="49.50685" lon="-1.57854">
        <ele>47.5</ele>
        <time>2022-01-25T15:03:19Z</time>
      </trkpt>
      <trkpt lat="49.5068" lon="-1.57854">
        <ele>47.9</ele>
        <time>2022-01-25T15:03:24Z</time>
      </trkpt>
      <trkpt lat="49.50674" lon="-1.57857">
        <ele>48.3</ele>
        <time>2022-01-25T15:03:29Z</time>
      </trkpt>
      <trkpt lat="49.5067" lon="-1.57858">
        <ele>48</ele>
        <time>2022-01-25T15:03:34Z</time>
      </trkpt>
      <trkpt lat="49.50665" lon="-1.57862">
        <ele>48.3</ele>
        <time>2022-01-25T15:03:38Z</time>
      </trkpt>
      <trkpt lat="49.5066" lon="-1.57865">
        <ele>49.1</ele>
        <time>2022-01-25T15:03:42Z</time>
      </trkpt>
      <trkpt lat="49.50655" lon="-1.57866">
        <ele>49.7</ele>
        <time>2022-01-25T15:03:49Z</time>
      </trkpt>
      <trkpt lat="49.5065" lon="-1.57868">
        <ele>49.6</ele>
        <time>2022-01-25T15:03:55Z</time>
      </trkpt>
      <trkpt lat="49.50645" lon="-1.57866">
        <ele>49.1</ele>
        <time>2022-01-25T15:03:58Z</time>
      </trkpt>
      <trkpt lat="49.5064" lon="-1.57867">
        <ele>48.6</ele>
        <time>2022-01-25T15:04:05Z</time>
      </trkpt>
      <trkpt lat="49.50633" lon="-1.57871">
        <ele>49.3</ele>
        <time>2022-01-25T15:04:11Z</time>
      </trkpt>
      <trkpt lat="49.50628" lon="-1.57876">
        <ele>49.4</ele>
        <time>2022-01-25T15:04:16Z</time>
      </trkpt>
      <trkpt lat="49.50623" lon="-1.57878">
        <ele>49.2</ele>
        <time>2022-01-25T15:04:21Z</time>
      </trkpt>
      <trkpt lat="49.50618" lon="-1.57881">
        <ele>49.5</ele>
        <time>2022-01-25T15:04:26Z</time>
      </trkpt>
      <trkpt lat="49.50614" lon="-1.57885">
        <ele>50.4</ele>
        <time>2022-01-25T15:04:31Z</time>
      </trkpt>
      <trkpt lat="49.50609" lon="-1.57888">
        <ele>50.5</ele>
        <time>2022-01-25T15:04:36Z</time>
      </trkpt>
      <trkpt lat="49.50604" lon="-1.57892">
        <ele>50.3</ele>
        <time>2022-01-25T15:04:40Z</time>
      </trkpt>
      <trkpt lat="49.50598" lon="-1.57898">
        <ele>49.6</ele>
        <time>2022-01-25T15:04:47Z</time>
      </trkpt>
      <trkpt lat="49.50593" lon="-1.57901">
        <ele>48.3</ele>
        <time>2022-01-25T15:04:53Z</time>
      </trkpt>
      <trkpt lat="49.50588" lon="-1.57905">
        <ele>47.8</ele>
        <time>2022-01-25T15:05:00Z</time>
      </trkpt>
      <trkpt lat="49.50584" lon="-1.57908">
        <ele>48.3</ele>
        <time>2022-01-25T15:05:06Z</time>
      </trkpt>
      <trkpt lat="49.50581" lon="-1.57914">
        <ele>49.5</ele>
        <time>2022-01-25T15:05:10Z</time>
      </trkpt>
      <trkpt lat="49.50577" lon="-1.57921">
        <ele>50.5</ele>
        <time>2022-01-25T15:05:14Z</time>
      </trkpt>
      <trkpt lat="49.50573" lon="-1.57925">
        <ele>51.1</ele>
        <time>2022-01-25T15:05:17Z</time>
      </trkpt>
      <trkpt lat="49.50569" lon="-1.57929">
        <ele>51.7</ele>
        <time>2022-01-25T15:05:21Z</time>
      </trkpt>
      <trkpt lat="49.50565" lon="-1.57935">
        <ele>51.9</ele>
        <time>2022-01-25T15:05:26Z</time>
      </trkpt>
      <trkpt lat="49.50561" lon="-1.57939">
        <ele>51.8</ele>
        <time>2022-01-25T15:05:36Z</time>
      </trkpt>
      <trkpt lat="49.50557" lon="-1.57945">
        <ele>51.8</ele>
        <time>2022-01-25T15:05:41Z</time>
      </trkpt>
      <trkpt lat="49.50552" lon="-1.5795">
        <ele>51.7</ele>
        <time>2022-01-25T15:05:44Z</time>
      </trkpt>
      <trkpt lat="49.50549" lon="-1.57956">
        <ele>51.6</ele>
        <time>2022-01-25T15:05:47Z</time>
      </trkpt>
      <trkpt lat="49.50545" lon="-1.57962">
        <ele>51.8</ele>
        <time>2022-01-25T15:05:52Z</time>
      </trkpt>
      <trkpt lat="49.5054" lon="-1.57967">
        <ele>52.7</ele>
        <time>2022-01-25T15:05:57Z</time>
      </trkpt>
      <trkpt lat="49.50537" lon="-1.57975">
        <ele>53.2</ele>
        <time>2022-01-25T15:06:02Z</time>
      </trkpt>
      <trkpt lat="49.50534" lon="-1.57983">
        <ele>54.7</ele>
        <time>2022-01-25T15:06:50Z</time>
      </trkpt>
      <trkpt lat="49.50529" lon="-1.57987">
        <ele>54.9</ele>
        <time>2022-01-25T15:06:54Z</time>
      </trkpt>
      <trkpt lat="49.50525" lon="-1.57991">
        <ele>55</ele>
        <time>2022-01-25T15:06:58Z</time>
      </trkpt>
      <trkpt lat="49.5052" lon="-1.57998">
        <ele>55.2</ele>
        <time>2022-01-25T15:07:02Z</time>
      </trkpt>
      <trkpt lat="49.50516" lon="-1.58002">
        <ele>55.8</ele>
        <time>2022-01-25T15:07:05Z</time>
      </trkpt>
      <trkpt lat="49.50512" lon="-1.58006">
        <ele>56.5</ele>
        <time>2022-01-25T15:07:10Z</time>
      </trkpt>
      <trkpt lat="49.50508" lon="-1.58011">
        <ele>57.1</ele>
        <time>2022-01-25T15:07:14Z</time>
      </trkpt>
      <trkpt lat="49.50504" lon="-1.58015">
        <ele>57.9</ele>
        <time>2022-01-25T15:07:19Z</time>
      </trkpt>
      <trkpt lat="49.50499" lon="-1.5802">
        <ele>59.2</ele>
        <time>2022-01-25T15:07:25Z</time>
      </trkpt>
      <trkpt lat="49.50496" lon="-1.58024">
        <ele>59.8</ele>
        <time>2022-01-25T15:07:29Z</time>
      </trkpt>
      <trkpt lat="49.50491" lon="-1.58028">
        <ele>61.4</ele>
        <time>2022-01-25T15:07:42Z</time>
      </trkpt>
      <trkpt lat="49.50487" lon="-1.58034">
        <ele>62.1</ele>
        <time>2022-01-25T15:07:49Z</time>
      </trkpt>
      <trkpt lat="49.50481" lon="-1.58037">
        <ele>62.5</ele>
        <time>2022-01-25T15:07:52Z</time>
      </trkpt>
      <trkpt lat="49.50476" lon="-1.58046">
        <ele>64</ele>
        <time>2022-01-25T15:07:57Z</time>
      </trkpt>
      <trkpt lat="49.50472" lon="-1.58052">
        <ele>65.5</ele>
        <time>2022-01-25T15:08:01Z</time>
      </trkpt>
      <trkpt lat="49.50467" lon="-1.58058">
        <ele>67.2</ele>
        <time>2022-01-25T15:08:06Z</time>
      </trkpt>
      <trkpt lat="49.50462" lon="-1.58063">
        <ele>69.4</ele>
        <time>2022-01-25T15:08:10Z</time>
      </trkpt>
      <trkpt lat="49.50459" lon="-1.58068">
        <ele>71.2</ele>
        <time>2022-01-25T15:08:14Z</time>
      </trkpt>
      <trkpt lat="49.50456" lon="-1.58074">
        <ele>73.3</ele>
        <time>2022-01-25T15:08:19Z</time>
      </trkpt>
      <trkpt lat="49.50452" lon="-1.58078">
        <ele>74.7</ele>
        <time>2022-01-25T15:08:26Z</time>
      </trkpt>
      <trkpt lat="49.50448" lon="-1.58083">
        <ele>74.6</ele>
        <time>2022-01-25T15:08:34Z</time>
      </trkpt>
      <trkpt lat="49.50444" lon="-1.58088">
        <ele>75</ele>
        <time>2022-01-25T15:08:37Z</time>
      </trkpt>
      <trkpt lat="49.50441" lon="-1.58092">
        <ele>76.4</ele>
        <time>2022-01-25T15:08:43Z</time>
      </trkpt>
      <trkpt lat="49.50437" lon="-1.58095">
        <ele>77.1</ele>
        <time>2022-01-25T15:08:46Z</time>
      </trkpt>
      <trkpt lat="49.50432" lon="-1.58101">
        <ele>78.1</ele>
        <time>2022-01-25T15:08:50Z</time>
      </trkpt>
      <trkpt lat="49.50428" lon="-1.58106">
        <ele>78.4</ele>
        <time>2022-01-25T15:08:56Z</time>
      </trkpt>
      <trkpt lat="49.50424" lon="-1.58111">
        <ele>78.9</ele>
        <time>2022-01-25T15:08:59Z</time>
      </trkpt>
      <trkpt lat="49.5042" lon="-1.58117">
        <ele>79.7</ele>
        <time>2022-01-25T15:09:04Z</time>
      </trkpt>
      <trkpt lat="49.50416" lon="-1.58122">
        <ele>80.8</ele>
        <time>2022-01-25T15:09:08Z</time>
      </trkpt>
      <trkpt lat="49.50412" lon="-1.58126">
        <ele>81.7</ele>
        <time>2022-01-25T15:09:14Z</time>
      </trkpt>
      <trkpt lat="49.50408" lon="-1.58131">
        <ele>82.8</ele>
        <time>2022-01-25T15:09:21Z</time>
      </trkpt>
      <trkpt lat="49.50403" lon="-1.58135">
        <ele>84.1</ele>
        <time>2022-01-25T15:09:31Z</time>
      </trkpt>
      <trkpt lat="49.50399" lon="-1.5814">
        <ele>85.5</ele>
        <time>2022-01-25T15:09:36Z</time>
      </trkpt>
      <trkpt lat="49.50395" lon="-1.58143">
        <ele>86.8</ele>
        <time>2022-01-25T15:09:41Z</time>
      </trkpt>
      <trkpt lat="49.50391" lon="-1.58148">
        <ele>87.8</ele>
        <time>2022-01-25T15:09:49Z</time>
      </trkpt>
      <trkpt lat="49.50387" lon="-1.58153">
        <ele>88.1</ele>
        <time>2022-01-25T15:09:53Z</time>
      </trkpt>
      <trkpt lat="49.50383" lon="-1.58159">
        <ele>88.5</ele>
        <time>2022-01-25T15:09:56Z</time>
      </trkpt>
      <trkpt lat="49.50379" lon="-1.58163">
        <ele>88.6</ele>
        <time>2022-01-25T15:10:01Z</time>
      </trkpt>
      <trkpt lat="49.50375" lon="-1.58167">
        <ele>88.7</ele>
        <time>2022-01-25T15:10:06Z</time>
      </trkpt>
      <trkpt lat="49.50371" lon="-1.58173">
        <ele>88.8</ele>
        <time>2022-01-25T15:10:11Z</time>
      </trkpt>
      <trkpt lat="49.50367" lon="-1.58177">
        <ele>89.2</ele>
        <time>2022-01-25T15:10:16Z</time>
      </trkpt>
      <trkpt lat="49.50363" lon="-1.58183">
        <ele>93.1</ele>
        <time>2022-01-25T15:10:37Z</time>
      </trkpt>
      <trkpt lat="49.50361" lon="-1.5819">
        <ele>94.2</ele>
        <time>2022-01-25T15:10:46Z</time>
      </trkpt>
      <trkpt lat="49.50337" lon="-1.58227">
        <ele>93.8</ele>
        <time>2022-01-25T15:11:02Z</time>
      </trkpt>
      <trkpt lat="49.50337" lon="-1.58234">
        <ele>94.7</ele>
        <time>2022-01-25T15:11:06Z</time>
      </trkpt>
      <trkpt lat="49.50333" lon="-1.58241">
        <ele>95.4</ele>
        <time>2022-01-25T15:11:10Z</time>
      </trkpt>
      <trkpt lat="49.50329" lon="-1.58243">
        <ele>95.2</ele>
        <time>2022-01-25T15:11:13Z</time>
      </trkpt>
      <trkpt lat="49.50324" lon="-1.58243">
        <ele>95.6</ele>
        <time>2022-01-25T15:11:19Z</time>
      </trkpt>
      <trkpt lat="49.5032" lon="-1.58246">
        <ele>96</ele>
        <time>2022-01-25T15:11:28Z</time>
      </trkpt>
      <trkpt lat="49.50316" lon="-1.58251">
        <ele>95.7</ele>
        <time>2022-01-25T15:11:33Z</time>
      </trkpt>
      <trkpt lat="49.50311" lon="-1.58256">
        <ele>95.4</ele>
        <time>2022-01-25T15:11:38Z</time>
      </trkpt>
      <trkpt lat="49.50308" lon="-1.58259">
        <ele>95.2</ele>
        <time>2022-01-25T15:11:40Z</time>
      </trkpt>
      <trkpt lat="49.50303" lon="-1.58264">
        <ele>94.9</ele>
        <time>2022-01-25T15:11:42Z</time>
      </trkpt>
      <trkpt lat="49.50299" lon="-1.58268">
        <ele>94.9</ele>
        <time>2022-01-25T15:11:46Z</time>
      </trkpt>
      <trkpt lat="49.50295" lon="-1.58274">
        <ele>94.7</ele>
        <time>2022-01-25T15:11:49Z</time>
      </trkpt>
      <trkpt lat="49.50291" lon="-1.58278">
        <ele>94.3</ele>
        <time>2022-01-25T15:11:53Z</time>
      </trkpt>
      <trkpt lat="49.50287" lon="-1.58283">
        <ele>93.5</ele>
        <time>2022-01-25T15:11:56Z</time>
      </trkpt>
      <trkpt lat="49.50283" lon="-1.58287">
        <ele>92.8</ele>
        <time>2022-01-25T15:11:59Z</time>
      </trkpt>
      <trkpt lat="49.50278" lon="-1.58292">
        <ele>92.5</ele>
        <time>2022-01-25T15:12:02Z</time>
      </trkpt>
      <trkpt lat="49.50275" lon="-1.58296">
        <ele>92.9</ele>
        <time>2022-01-25T15:12:06Z</time>
      </trkpt>
      <trkpt lat="49.50271" lon="-1.58302">
        <ele>94</ele>
        <time>2022-01-25T15:12:09Z</time>
      </trkpt>
      <trkpt lat="49.50268" lon="-1.58308">
        <ele>95.8</ele>
        <time>2022-01-25T15:12:14Z</time>
      </trkpt>
      <trkpt lat="49.50264" lon="-1.58313">
        <ele>97</ele>
        <time>2022-01-25T15:12:25Z</time>
      </trkpt>
      <trkpt lat="49.5026" lon="-1.58316">
        <ele>97.9</ele>
        <time>2022-01-25T15:12:30Z</time>
      </trkpt>
      <trkpt lat="49.50254" lon="-1.58322">
        <ele>98.3</ele>
        <time>2022-01-25T15:12:32Z</time>
      </trkpt>
      <trkpt lat="49.5025" lon="-1.58328">
        <ele>98.7</ele>
        <time>2022-01-25T15:12:36Z</time>
      </trkpt>
      <trkpt lat="49.50246" lon="-1.58333">
        <ele>98.8</ele>
        <time>2022-01-25T15:12:39Z</time>
      </trkpt>
      <trkpt lat="49.50242" lon="-1.58338">
        <ele>99</ele>
        <time>2022-01-25T15:12:43Z</time>
      </trkpt>
      <trkpt lat="49.50237" lon="-1.58345">
        <ele>99.4</ele>
        <time>2022-01-25T15:12:49Z</time>
      </trkpt>
      <trkpt lat="49.50232" lon="-1.58352">
        <ele>99.8</ele>
        <time>2022-01-25T15:12:53Z</time>
      </trkpt>
      <trkpt lat="49.50229" lon="-1.58356">
        <ele>100.2</ele>
        <time>2022-01-25T15:12:55Z</time>
      </trkpt>
      <trkpt lat="49.50225" lon="-1.58362">
        <ele>100.9</ele>
        <time>2022-01-25T15:12:59Z</time>
      </trkpt>
      <trkpt lat="49.50222" lon="-1.5837">
        <ele>101.2</ele>
        <time>2022-01-25T15:13:02Z</time>
      </trkpt>
      <trkpt lat="49.5022" lon="-1.58376">
        <ele>101.1</ele>
        <time>2022-01-25T15:13:05Z</time>
      </trkpt>
      <trkpt lat="49.50222" lon="-1.58383">
        <ele>98.8</ele>
        <time>2022-01-25T15:13:21Z</time>
      </trkpt>
      <trkpt lat="49.50225" lon="-1.58389">
        <ele>98.3</ele>
        <time>2022-01-25T15:13:24Z</time>
      </trkpt>
      <trkpt lat="49.5023" lon="-1.58392">
        <ele>96.4</ele>
        <time>2022-01-25T15:13:36Z</time>
      </trkpt>
      <trkpt lat="49.50232" lon="-1.58399">
        <ele>95</ele>
        <time>2022-01-25T15:13:46Z</time>
      </trkpt>
      <trkpt lat="49.50236" lon="-1.58406">
        <ele>94.6</ele>
        <time>2022-01-25T15:13:49Z</time>
      </trkpt>
      <trkpt lat="49.5024" lon="-1.58413">
        <ele>93.5</ele>
        <time>2022-01-25T15:13:53Z</time>
      </trkpt>
      <trkpt lat="49.50244" lon="-1.58418">
        <ele>93.3</ele>
        <time>2022-01-25T15:13:58Z</time>
      </trkpt>
      <trkpt lat="49.50247" lon="-1.58425">
        <ele>94.1</ele>
        <time>2022-01-25T15:14:04Z</time>
      </trkpt>
      <trkpt lat="49.5025" lon="-1.58433">
        <ele>94.6</ele>
        <time>2022-01-25T15:14:07Z</time>
      </trkpt>
      <trkpt lat="49.50253" lon="-1.58441">
        <ele>94.9</ele>
        <time>2022-01-25T15:14:11Z</time>
      </trkpt>
      <trkpt lat="49.50256" lon="-1.58448">
        <ele>95.1</ele>
        <time>2022-01-25T15:14:15Z</time>
      </trkpt>
      <trkpt lat="49.50257" lon="-1.58455">
        <ele>95.2</ele>
        <time>2022-01-25T15:14:18Z</time>
      </trkpt>
      <trkpt lat="49.50259" lon="-1.58464">
        <ele>95</ele>
        <time>2022-01-25T15:14:24Z</time>
      </trkpt>
      <trkpt lat="49.50263" lon="-1.58471">
        <ele>94.9</ele>
        <time>2022-01-25T15:14:31Z</time>
      </trkpt>
      <trkpt lat="49.50265" lon="-1.58477">
        <ele>94.8</ele>
        <time>2022-01-25T15:14:37Z</time>
      </trkpt>
      <trkpt lat="49.50268" lon="-1.58482">
        <ele>95.2</ele>
        <time>2022-01-25T15:14:43Z</time>
      </trkpt>
      <trkpt lat="49.50271" lon="-1.58489">
        <ele>95.5</ele>
        <time>2022-01-25T15:14:48Z</time>
      </trkpt>
      <trkpt lat="49.50273" lon="-1.58496">
        <ele>95.3</ele>
        <time>2022-01-25T15:14:52Z</time>
      </trkpt>
      <trkpt lat="49.50273" lon="-1.58503">
        <ele>94.5</ele>
        <time>2022-01-25T15:14:56Z</time>
      </trkpt>
      <trkpt lat="49.50274" lon="-1.5851">
        <ele>93.9</ele>
        <time>2022-01-25T15:14:58Z</time>
      </trkpt>
      <trkpt lat="49.50274" lon="-1.5852">
        <ele>92.7</ele>
        <time>2022-01-25T15:15:04Z</time>
      </trkpt>
      <trkpt lat="49.50276" lon="-1.58528">
        <ele>92.2</ele>
        <time>2022-01-25T15:15:08Z</time>
      </trkpt>
      <trkpt lat="49.50278" lon="-1.58536">
        <ele>92</ele>
        <time>2022-01-25T15:15:11Z</time>
      </trkpt>
      <trkpt lat="49.50281" lon="-1.58543">
        <ele>90.9</ele>
        <time>2022-01-25T15:15:16Z</time>
      </trkpt>
      <trkpt lat="49.50283" lon="-1.58549">
        <ele>90.6</ele>
        <time>2022-01-25T15:15:20Z</time>
      </trkpt>
      <trkpt lat="49.50287" lon="-1.58558">
        <ele>91</ele>
        <time>2022-01-25T15:15:24Z</time>
      </trkpt>
      <trkpt lat="49.50291" lon="-1.58567">
        <ele>91.4</ele>
        <time>2022-01-25T15:15:29Z</time>
      </trkpt>
      <trkpt lat="49.50293" lon="-1.58574">
        <ele>91.6</ele>
        <time>2022-01-25T15:15:33Z</time>
      </trkpt>
      <trkpt lat="49.50295" lon="-1.58581">
        <ele>91.6</ele>
        <time>2022-01-25T15:15:37Z</time>
      </trkpt>
      <trkpt lat="49.50299" lon="-1.58588">
        <ele>91.4</ele>
        <time>2022-01-25T15:15:45Z</time>
      </trkpt>
      <trkpt lat="49.50302" lon="-1.58596">
        <ele>90.5</ele>
        <time>2022-01-25T15:15:50Z</time>
      </trkpt>
      <trkpt lat="49.50306" lon="-1.58601">
        <ele>89.3</ele>
        <time>2022-01-25T15:15:53Z</time>
      </trkpt>
      <trkpt lat="49.50311" lon="-1.58605">
        <ele>88.2</ele>
        <time>2022-01-25T15:15:56Z</time>
      </trkpt>
      <trkpt lat="49.50316" lon="-1.58612">
        <ele>87.2</ele>
        <time>2022-01-25T15:16:02Z</time>
      </trkpt>
      <trkpt lat="49.5032" lon="-1.58618">
        <ele>86.9</ele>
        <time>2022-01-25T15:16:06Z</time>
      </trkpt>
      <trkpt lat="49.50323" lon="-1.58625">
        <ele>86.4</ele>
        <time>2022-01-25T15:16:12Z</time>
      </trkpt>
      <trkpt lat="49.50327" lon="-1.5863">
        <ele>85</ele>
        <time>2022-01-25T15:16:16Z</time>
      </trkpt>
      <trkpt lat="49.50331" lon="-1.58635">
        <ele>83.9</ele>
        <time>2022-01-25T15:16:19Z</time>
      </trkpt>
      <trkpt lat="49.50335" lon="-1.58638">
        <ele>83.1</ele>
        <time>2022-01-25T15:16:23Z</time>
      </trkpt>
      <trkpt lat="49.5034" lon="-1.58643">
        <ele>83.1</ele>
        <time>2022-01-25T15:16:33Z</time>
      </trkpt>
      <trkpt lat="49.50344" lon="-1.5865">
        <ele>83.1</ele>
        <time>2022-01-25T15:16:36Z</time>
      </trkpt>
      <trkpt lat="49.50348" lon="-1.58655">
        <ele>82.7</ele>
        <time>2022-01-25T15:16:40Z</time>
      </trkpt>
      <trkpt lat="49.50351" lon="-1.5866">
        <ele>82.3</ele>
        <time>2022-01-25T15:16:43Z</time>
      </trkpt>
      <trkpt lat="49.5036" lon="-1.58677">
        <ele>81.5</ele>
        <time>2022-01-25T15:16:52Z</time>
      </trkpt>
      <trkpt lat="49.50364" lon="-1.58682">
        <ele>81.3</ele>
        <time>2022-01-25T15:16:55Z</time>
      </trkpt>
      <trkpt lat="49.50367" lon="-1.58687">
        <ele>81.2</ele>
        <time>2022-01-25T15:16:59Z</time>
      </trkpt>
      <trkpt lat="49.50376" lon="-1.58685">
        <ele>80.7</ele>
        <time>2022-01-25T15:17:13Z</time>
      </trkpt>
      <trkpt lat="49.5038" lon="-1.58684">
        <ele>79.6</ele>
        <time>2022-01-25T15:17:15Z</time>
      </trkpt>
      <trkpt lat="49.50386" lon="-1.58683">
        <ele>78.6</ele>
        <time>2022-01-25T15:17:17Z</time>
      </trkpt>
      <trkpt lat="49.50391" lon="-1.58685">
        <ele>78</ele>
        <time>2022-01-25T15:17:19Z</time>
      </trkpt>
      <trkpt lat="49.50396" lon="-1.58689">
        <ele>77.8</ele>
        <time>2022-01-25T15:17:21Z</time>
      </trkpt>
      <trkpt lat="49.50401" lon="-1.58696">
        <ele>77.8</ele>
        <time>2022-01-25T15:17:25Z</time>
      </trkpt>
      <trkpt lat="49.50402" lon="-1.58703">
        <ele>77.6</ele>
        <time>2022-01-25T15:17:28Z</time>
      </trkpt>
      <trkpt lat="49.50403" lon="-1.5871">
        <ele>77.1</ele>
        <time>2022-01-25T15:17:31Z</time>
      </trkpt>
      <trkpt lat="49.50404" lon="-1.58717">
        <ele>76.8</ele>
        <time>2022-01-25T15:17:35Z</time>
      </trkpt>
      <trkpt lat="49.50403" lon="-1.58724">
        <ele>76.6</ele>
        <time>2022-01-25T15:17:39Z</time>
      </trkpt>
      <trkpt lat="49.50401" lon="-1.58733">
        <ele>76.2</ele>
        <time>2022-01-25T15:17:42Z</time>
      </trkpt>
      <trkpt lat="49.504" lon="-1.58741">
        <ele>76</ele>
        <time>2022-01-25T15:17:46Z</time>
      </trkpt>
      <trkpt lat="49.50401" lon="-1.5875">
        <ele>75.9</ele>
        <time>2022-01-25T15:17:51Z</time>
      </trkpt>
      <trkpt lat="49.50401" lon="-1.58758">
        <ele>76</ele>
        <time>2022-01-25T15:17:55Z</time>
      </trkpt>
      <trkpt lat="49.50402" lon="-1.58765">
        <ele>75.6</ele>
        <time>2022-01-25T15:17:58Z</time>
      </trkpt>
      <trkpt lat="49.50403" lon="-1.58774">
        <ele>74.8</ele>
        <time>2022-01-25T15:18:03Z</time>
      </trkpt>
      <trkpt lat="49.50404" lon="-1.58782">
        <ele>74.4</ele>
        <time>2022-01-25T15:18:07Z</time>
      </trkpt>
      <trkpt lat="49.50404" lon="-1.58792">
        <ele>74.3</ele>
        <time>2022-01-25T15:18:13Z</time>
      </trkpt>
      <trkpt lat="49.50402" lon="-1.58799">
        <ele>74.4</ele>
        <time>2022-01-25T15:18:16Z</time>
      </trkpt>
      <trkpt lat="49.50401" lon="-1.58807">
        <ele>74.3</ele>
        <time>2022-01-25T15:18:20Z</time>
      </trkpt>
      <trkpt lat="49.50401" lon="-1.58815">
        <ele>73.9</ele>
        <time>2022-01-25T15:18:23Z</time>
      </trkpt>
      <trkpt lat="49.50401" lon="-1.58823">
        <ele>73.4</ele>
        <time>2022-01-25T15:18:26Z</time>
      </trkpt>
      <trkpt lat="49.50402" lon="-1.5883">
        <ele>72.9</ele>
        <time>2022-01-25T15:18:30Z</time>
      </trkpt>
      <trkpt lat="49.50402" lon="-1.58839">
        <ele>72.5</ele>
        <time>2022-01-25T15:18:33Z</time>
      </trkpt>
      <trkpt lat="49.50403" lon="-1.58847">
        <ele>72.1</ele>
        <time>2022-01-25T15:18:37Z</time>
      </trkpt>
      <trkpt lat="49.50402" lon="-1.58854">
        <ele>71.8</ele>
        <time>2022-01-25T15:18:41Z</time>
      </trkpt>
      <trkpt lat="49.50397" lon="-1.58856">
        <ele>71.6</ele>
        <time>2022-01-25T15:18:46Z</time>
      </trkpt>
      <trkpt lat="49.50393" lon="-1.58859">
        <ele>71.2</ele>
        <time>2022-01-25T15:18:49Z</time>
      </trkpt>
      <trkpt lat="49.50388" lon="-1.58863">
        <ele>70.5</ele>
        <time>2022-01-25T15:18:53Z</time>
      </trkpt>
      <trkpt lat="49.50383" lon="-1.58867">
        <ele>69.9</ele>
        <time>2022-01-25T15:18:56Z</time>
      </trkpt>
      <trkpt lat="49.50379" lon="-1.58872">
        <ele>69.5</ele>
        <time>2022-01-25T15:19:00Z</time>
      </trkpt>
      <trkpt lat="49.50373" lon="-1.58875">
        <ele>69.5</ele>
        <time>2022-01-25T15:19:04Z</time>
      </trkpt>
      <trkpt lat="49.50368" lon="-1.58878">
        <ele>69.6</ele>
        <time>2022-01-25T15:19:09Z</time>
      </trkpt>
      <trkpt lat="49.50363" lon="-1.58881">
        <ele>69.6</ele>
        <time>2022-01-25T15:19:14Z</time>
      </trkpt>
      <trkpt lat="49.50358" lon="-1.58883">
        <ele>69.5</ele>
        <time>2022-01-25T15:19:18Z</time>
      </trkpt>
      <trkpt lat="49.50354" lon="-1.58884">
        <ele>69.5</ele>
        <time>2022-01-25T15:19:22Z</time>
      </trkpt>
      <trkpt lat="49.50348" lon="-1.58885">
        <ele>69.4</ele>
        <time>2022-01-25T15:19:27Z</time>
      </trkpt>
      <trkpt lat="49.50342" lon="-1.58892">
        <ele>69.2</ele>
        <time>2022-01-25T15:19:31Z</time>
      </trkpt>
      <trkpt lat="49.50338" lon="-1.58897">
        <ele>69.2</ele>
        <time>2022-01-25T15:19:36Z</time>
      </trkpt>
      <trkpt lat="49.50333" lon="-1.589">
        <ele>68.9</ele>
        <time>2022-01-25T15:19:40Z</time>
      </trkpt>
      <trkpt lat="49.50328" lon="-1.58902">
        <ele>68.9</ele>
        <time>2022-01-25T15:19:44Z</time>
      </trkpt>
      <trkpt lat="49.50324" lon="-1.58908">
        <ele>68.8</ele>
        <time>2022-01-25T15:19:48Z</time>
      </trkpt>
      <trkpt lat="49.50322" lon="-1.58916">
        <ele>68.6</ele>
        <time>2022-01-25T15:19:52Z</time>
      </trkpt>
      <trkpt lat="49.50317" lon="-1.58919">
        <ele>68.3</ele>
        <time>2022-01-25T15:19:55Z</time>
      </trkpt>
      <trkpt lat="49.50313" lon="-1.58922">
        <ele>68</ele>
        <time>2022-01-25T15:19:59Z</time>
      </trkpt>
      <trkpt lat="49.50308" lon="-1.58925">
        <ele>67.9</ele>
        <time>2022-01-25T15:20:02Z</time>
      </trkpt>
      <trkpt lat="49.50302" lon="-1.58928">
        <ele>67.6</ele>
        <time>2022-01-25T15:20:08Z</time>
      </trkpt>
      <trkpt lat="49.50298" lon="-1.58932">
        <ele>67.5</ele>
        <time>2022-01-25T15:20:12Z</time>
      </trkpt>
      <trkpt lat="49.50293" lon="-1.58934">
        <ele>67.4</ele>
        <time>2022-01-25T15:20:15Z</time>
      </trkpt>
      <trkpt lat="49.50288" lon="-1.58934">
        <ele>67.3</ele>
        <time>2022-01-25T15:20:18Z</time>
      </trkpt>
      <trkpt lat="49.50283" lon="-1.58937">
        <ele>67.1</ele>
        <time>2022-01-25T15:20:21Z</time>
      </trkpt>
      <trkpt lat="49.50279" lon="-1.58939">
        <ele>66.7</ele>
        <time>2022-01-25T15:20:25Z</time>
      </trkpt>
      <trkpt lat="49.50273" lon="-1.58941">
        <ele>66.6</ele>
        <time>2022-01-25T15:20:30Z</time>
      </trkpt>
      <trkpt lat="49.50269" lon="-1.58942">
        <ele>66.6</ele>
        <time>2022-01-25T15:20:34Z</time>
      </trkpt>
      <trkpt lat="49.50265" lon="-1.58946">
        <ele>66.4</ele>
        <time>2022-01-25T15:20:38Z</time>
      </trkpt>
      <trkpt lat="49.5026" lon="-1.58946">
        <ele>66</ele>
        <time>2022-01-25T15:20:43Z</time>
      </trkpt>
      <trkpt lat="49.50255" lon="-1.58944">
        <ele>66</ele>
        <time>2022-01-25T15:20:46Z</time>
      </trkpt>
      <trkpt lat="49.5025" lon="-1.58943">
        <ele>65.9</ele>
        <time>2022-01-25T15:20:51Z</time>
      </trkpt>
      <trkpt lat="49.50243" lon="-1.58945">
        <ele>65.8</ele>
        <time>2022-01-25T15:20:56Z</time>
      </trkpt>
      <trkpt lat="49.50239" lon="-1.58946">
        <ele>65.5</ele>
        <time>2022-01-25T15:21:00Z</time>
      </trkpt>
      <trkpt lat="49.50234" lon="-1.5895">
        <ele>65.4</ele>
        <time>2022-01-25T15:21:03Z</time>
      </trkpt>
      <trkpt lat="49.5023" lon="-1.58955">
        <ele>65.3</ele>
        <time>2022-01-25T15:21:07Z</time>
      </trkpt>
      <trkpt lat="49.50226" lon="-1.5896">
        <ele>65.3</ele>
        <time>2022-01-25T15:21:10Z</time>
      </trkpt>
      <trkpt lat="49.50222" lon="-1.58963">
        <ele>65.3</ele>
        <time>2022-01-25T15:21:13Z</time>
      </trkpt>
      <trkpt lat="49.50217" lon="-1.58967">
        <ele>65.5</ele>
        <time>2022-01-25T15:21:17Z</time>
      </trkpt>
      <trkpt lat="49.50211" lon="-1.58967">
        <ele>65.8</ele>
        <time>2022-01-25T15:21:22Z</time>
      </trkpt>
      <trkpt lat="49.50207" lon="-1.5897">
        <ele>66.1</ele>
        <time>2022-01-25T15:21:27Z</time>
      </trkpt>
      <trkpt lat="49.502" lon="-1.5897">
        <ele>66.1</ele>
        <time>2022-01-25T15:21:32Z</time>
      </trkpt>
      <trkpt lat="49.50196" lon="-1.58975">
        <ele>66.2</ele>
        <time>2022-01-25T15:21:36Z</time>
      </trkpt>
      <trkpt lat="49.50192" lon="-1.5898">
        <ele>66.1</ele>
        <time>2022-01-25T15:21:40Z</time>
      </trkpt>
      <trkpt lat="49.50187" lon="-1.58983">
        <ele>65.6</ele>
        <time>2022-01-25T15:21:45Z</time>
      </trkpt>
      <trkpt lat="49.50182" lon="-1.58989">
        <ele>65.4</ele>
        <time>2022-01-25T15:21:50Z</time>
      </trkpt>
      <trkpt lat="49.50178" lon="-1.58995">
        <ele>65.6</ele>
        <time>2022-01-25T15:21:54Z</time>
      </trkpt>
      <trkpt lat="49.50174" lon="-1.59">
        <ele>65.7</ele>
        <time>2022-01-25T15:21:58Z</time>
      </trkpt>
      <trkpt lat="49.50168" lon="-1.59003">
        <ele>65.5</ele>
        <time>2022-01-25T15:22:02Z</time>
      </trkpt>
      <trkpt lat="49.50163" lon="-1.59001">
        <ele>65.3</ele>
        <time>2022-01-25T15:22:06Z</time>
      </trkpt>
      <trkpt lat="49.50159" lon="-1.59004">
        <ele>65.2</ele>
        <time>2022-01-25T15:22:11Z</time>
      </trkpt>
      <trkpt lat="49.50154" lon="-1.59004">
        <ele>65.1</ele>
        <time>2022-01-25T15:22:15Z</time>
      </trkpt>
      <trkpt lat="49.50149" lon="-1.59005">
        <ele>65.1</ele>
        <time>2022-01-25T15:22:20Z</time>
      </trkpt>
      <trkpt lat="49.50146" lon="-1.59012">
        <ele>64.9</ele>
        <time>2022-01-25T15:22:25Z</time>
      </trkpt>
      <trkpt lat="49.50143" lon="-1.59018">
        <ele>64.9</ele>
        <time>2022-01-25T15:22:29Z</time>
      </trkpt>
      <trkpt lat="49.50138" lon="-1.5902">
        <ele>65</ele>
        <time>2022-01-25T15:22:32Z</time>
      </trkpt>
      <trkpt lat="49.50133" lon="-1.59022">
        <ele>65</ele>
        <time>2022-01-25T15:22:36Z</time>
      </trkpt>
      <trkpt lat="49.50128" lon="-1.59023">
        <ele>64.9</ele>
        <time>2022-01-25T15:22:40Z</time>
      </trkpt>
      <trkpt lat="49.50124" lon="-1.59026">
        <ele>64.9</ele>
        <time>2022-01-25T15:22:43Z</time>
      </trkpt>
      <trkpt lat="49.50119" lon="-1.59029">
        <ele>65.1</ele>
        <time>2022-01-25T15:22:48Z</time>
      </trkpt>
      <trkpt lat="49.50114" lon="-1.59035">
        <ele>65.2</ele>
        <time>2022-01-25T15:22:51Z</time>
      </trkpt>
      <trkpt lat="49.50109" lon="-1.59041">
        <ele>65.2</ele>
        <time>2022-01-25T15:22:56Z</time>
      </trkpt>
      <trkpt lat="49.50105" lon="-1.59046">
        <ele>64.9</ele>
        <time>2022-01-25T15:23:01Z</time>
      </trkpt>
      <trkpt lat="49.501" lon="-1.59048">
        <ele>64.8</ele>
        <time>2022-01-25T15:23:05Z</time>
      </trkpt>
      <trkpt lat="49.50096" lon="-1.59051">
        <ele>64.9</ele>
        <time>2022-01-25T15:23:08Z</time>
      </trkpt>
      <trkpt lat="49.50091" lon="-1.59054">
        <ele>65</ele>
        <time>2022-01-25T15:23:13Z</time>
      </trkpt>
      <trkpt lat="49.50085" lon="-1.59059">
        <ele>65</ele>
        <time>2022-01-25T15:23:17Z</time>
      </trkpt>
      <trkpt lat="49.5008" lon="-1.59062">
        <ele>64.7</ele>
        <time>2022-01-25T15:23:22Z</time>
      </trkpt>
      <trkpt lat="49.50075" lon="-1.59067">
        <ele>63.9</ele>
        <time>2022-01-25T15:23:27Z</time>
      </trkpt>
      <trkpt lat="49.50072" lon="-1.59073">
        <ele>63.3</ele>
        <time>2022-01-25T15:23:30Z</time>
      </trkpt>
      <trkpt lat="49.50068" lon="-1.59077">
        <ele>63</ele>
        <time>2022-01-25T15:23:33Z</time>
      </trkpt>
      <trkpt lat="49.50063" lon="-1.59081">
        <ele>62.7</ele>
        <time>2022-01-25T15:23:37Z</time>
      </trkpt>
      <trkpt lat="49.50057" lon="-1.5908">
        <ele>62.4</ele>
        <time>2022-01-25T15:23:41Z</time>
      </trkpt>
      <trkpt lat="49.50052" lon="-1.59079">
        <ele>62.2</ele>
        <time>2022-01-25T15:23:46Z</time>
      </trkpt>
      <trkpt lat="49.50046" lon="-1.5908">
        <ele>62.1</ele>
        <time>2022-01-25T15:23:51Z</time>
      </trkpt>
      <trkpt lat="49.50042" lon="-1.59078">
        <ele>62.3</ele>
        <time>2022-01-25T15:23:56Z</time>
      </trkpt>
      <trkpt lat="49.50037" lon="-1.5908">
        <ele>62.6</ele>
        <time>2022-01-25T15:24:01Z</time>
      </trkpt>
      <trkpt lat="49.50032" lon="-1.59082">
        <ele>62.7</ele>
        <time>2022-01-25T15:24:06Z</time>
      </trkpt>
      <trkpt lat="49.50026" lon="-1.59082">
        <ele>62.5</ele>
        <time>2022-01-25T15:24:11Z</time>
      </trkpt>
      <trkpt lat="49.50022" lon="-1.59084">
        <ele>62.3</ele>
        <time>2022-01-25T15:24:14Z</time>
      </trkpt>
      <trkpt lat="49.50016" lon="-1.59087">
        <ele>62.3</ele>
        <time>2022-01-25T15:24:19Z</time>
      </trkpt>
      <trkpt lat="49.5001" lon="-1.5909">
        <ele>62.6</ele>
        <time>2022-01-25T15:24:24Z</time>
      </trkpt>
      <trkpt lat="49.50007" lon="-1.59096">
        <ele>62.6</ele>
        <time>2022-01-25T15:24:29Z</time>
      </trkpt>
      <trkpt lat="49.50002" lon="-1.59099">
        <ele>62.6</ele>
        <time>2022-01-25T15:24:33Z</time>
      </trkpt>
      <trkpt lat="49.49998" lon="-1.59104">
        <ele>62.3</ele>
        <time>2022-01-25T15:24:38Z</time>
      </trkpt>
      <trkpt lat="49.49994" lon="-1.59109">
        <ele>62.1</ele>
        <time>2022-01-25T15:24:43Z</time>
      </trkpt>
      <trkpt lat="49.49989" lon="-1.5911">
        <ele>61.8</ele>
        <time>2022-01-25T15:24:48Z</time>
      </trkpt>
      <trkpt lat="49.49992" lon="-1.59115">
        <ele>57.9</ele>
        <time>2022-01-25T15:26:13Z</time>
      </trkpt>
      <trkpt lat="49.49996" lon="-1.59121">
        <ele>57.9</ele>
        <time>2022-01-25T15:26:19Z</time>
      </trkpt>
      <trkpt lat="49.5" lon="-1.59127">
        <ele>57.9</ele>
        <time>2022-01-25T15:26:23Z</time>
      </trkpt>
      <trkpt lat="49.50004" lon="-1.59134">
        <ele>57.9</ele>
        <time>2022-01-25T15:26:27Z</time>
      </trkpt>
      <trkpt lat="49.50006" lon="-1.5914">
        <ele>57.7</ele>
        <time>2022-01-25T15:27:13Z</time>
      </trkpt>
      <trkpt lat="49.5001" lon="-1.5915">
        <ele>57.6</ele>
        <time>2022-01-25T15:27:16Z</time>
      </trkpt>
      <trkpt lat="49.50014" lon="-1.59159">
        <ele>57.4</ele>
        <time>2022-01-25T15:27:19Z</time>
      </trkpt>
      <trkpt lat="49.50016" lon="-1.59167">
        <ele>57.1</ele>
        <time>2022-01-25T15:27:21Z</time>
      </trkpt>
      <trkpt lat="49.50018" lon="-1.59175">
        <ele>56.9</ele>
        <time>2022-01-25T15:27:23Z</time>
      </trkpt>
      <trkpt lat="49.50021" lon="-1.59182">
        <ele>56.8</ele>
        <time>2022-01-25T15:27:26Z</time>
      </trkpt>
      <trkpt lat="49.50023" lon="-1.59189">
        <ele>56.6</ele>
        <time>2022-01-25T15:27:30Z</time>
      </trkpt>
      <trkpt lat="49.50027" lon="-1.59197">
        <ele>56.5</ele>
        <time>2022-01-25T15:27:34Z</time>
      </trkpt>
      <trkpt lat="49.5003" lon="-1.59206">
        <ele>56.1</ele>
        <time>2022-01-25T15:27:40Z</time>
      </trkpt>
      <trkpt lat="49.50032" lon="-1.59215">
        <ele>55.9</ele>
        <time>2022-01-25T15:27:44Z</time>
      </trkpt>
      <trkpt lat="49.50034" lon="-1.59222">
        <ele>55.8</ele>
        <time>2022-01-25T15:27:47Z</time>
      </trkpt>
      <trkpt lat="49.50035" lon="-1.59228">
        <ele>55.9</ele>
        <time>2022-01-25T15:27:51Z</time>
      </trkpt>
      <trkpt lat="49.5004" lon="-1.59233">
        <ele>56</ele>
        <time>2022-01-25T15:27:57Z</time>
      </trkpt>
      <trkpt lat="49.50041" lon="-1.5924">
        <ele>55.8</ele>
        <time>2022-01-25T15:28:00Z</time>
      </trkpt>
      <trkpt lat="49.50042" lon="-1.59248">
        <ele>55.5</ele>
        <time>2022-01-25T15:28:03Z</time>
      </trkpt>
      <trkpt lat="49.50046" lon="-1.59254">
        <ele>55.2</ele>
        <time>2022-01-25T15:28:06Z</time>
      </trkpt>
      <trkpt lat="49.50049" lon="-1.5926">
        <ele>55.2</ele>
        <time>2022-01-25T15:28:10Z</time>
      </trkpt>
      <trkpt lat="49.50052" lon="-1.59267">
        <ele>55.2</ele>
        <time>2022-01-25T15:28:14Z</time>
      </trkpt>
      <trkpt lat="49.50054" lon="-1.59274">
        <ele>55.1</ele>
        <time>2022-01-25T15:28:17Z</time>
      </trkpt>
      <trkpt lat="49.50058" lon="-1.5928">
        <ele>55</ele>
        <time>2022-01-25T15:28:22Z</time>
      </trkpt>
      <trkpt lat="49.50062" lon="-1.59285">
        <ele>55.1</ele>
        <time>2022-01-25T15:28:25Z</time>
      </trkpt>
      <trkpt lat="49.50063" lon="-1.59292">
        <ele>55.1</ele>
        <time>2022-01-25T15:28:28Z</time>
      </trkpt>
      <trkpt lat="49.50066" lon="-1.593">
        <ele>54.9</ele>
        <time>2022-01-25T15:28:33Z</time>
      </trkpt>
      <trkpt lat="49.50069" lon="-1.59306">
        <ele>54.8</ele>
        <time>2022-01-25T15:28:36Z</time>
      </trkpt>
      <trkpt lat="49.50071" lon="-1.59312">
        <ele>54.7</ele>
        <time>2022-01-25T15:28:40Z</time>
      </trkpt>
      <trkpt lat="49.50074" lon="-1.59321">
        <ele>54.6</ele>
        <time>2022-01-25T15:28:44Z</time>
      </trkpt>
      <trkpt lat="49.50076" lon="-1.59326">
        <ele>54.2</ele>
        <time>2022-01-25T15:28:47Z</time>
      </trkpt>
      <trkpt lat="49.5008" lon="-1.59334">
        <ele>53.9</ele>
        <time>2022-01-25T15:28:51Z</time>
      </trkpt>
      <trkpt lat="49.50083" lon="-1.59341">
        <ele>53.6</ele>
        <time>2022-01-25T15:28:56Z</time>
      </trkpt>
      <trkpt lat="49.50085" lon="-1.59347">
        <ele>53.2</ele>
        <time>2022-01-25T15:29:00Z</time>
      </trkpt>
      <trkpt lat="49.50088" lon="-1.59355">
        <ele>52.8</ele>
        <time>2022-01-25T15:29:03Z</time>
      </trkpt>
      <trkpt lat="49.5009" lon="-1.59361">
        <ele>52.7</ele>
        <time>2022-01-25T15:29:07Z</time>
      </trkpt>
      <trkpt lat="49.50093" lon="-1.59368">
        <ele>52.6</ele>
        <time>2022-01-25T15:29:11Z</time>
      </trkpt>
      <trkpt lat="49.50094" lon="-1.59375">
        <ele>52.8</ele>
        <time>2022-01-25T15:29:15Z</time>
      </trkpt>
      <trkpt lat="49.50097" lon="-1.59382">
        <ele>52.8</ele>
        <time>2022-01-25T15:29:19Z</time>
      </trkpt>
      <trkpt lat="49.501" lon="-1.5939">
        <ele>52.6</ele>
        <time>2022-01-25T15:29:23Z</time>
      </trkpt>
      <trkpt lat="49.50103" lon="-1.59394">
        <ele>52.4</ele>
        <time>2022-01-25T15:29:26Z</time>
      </trkpt>
      <trkpt lat="49.50106" lon="-1.594">
        <ele>52.2</ele>
        <time>2022-01-25T15:29:29Z</time>
      </trkpt>
      <trkpt lat="49.50108" lon="-1.59408">
        <ele>52.1</ele>
        <time>2022-01-25T15:29:33Z</time>
      </trkpt>
      <trkpt lat="49.50109" lon="-1.59416">
        <ele>52.1</ele>
        <time>2022-01-25T15:29:36Z</time>
      </trkpt>
      <trkpt lat="49.50111" lon="-1.59426">
        <ele>52.3</ele>
        <time>2022-01-25T15:29:40Z</time>
      </trkpt>
      <trkpt lat="49.50115" lon="-1.59435">
        <ele>52.5</ele>
        <time>2022-01-25T15:29:44Z</time>
      </trkpt>
      <trkpt lat="49.50116" lon="-1.59442">
        <ele>52.4</ele>
        <time>2022-01-25T15:29:49Z</time>
      </trkpt>
      <trkpt lat="49.50119" lon="-1.59448">
        <ele>52.3</ele>
        <time>2022-01-25T15:29:55Z</time>
      </trkpt>
      <trkpt lat="49.50123" lon="-1.5945">
        <ele>52.1</ele>
        <time>2022-01-25T15:30:28Z</time>
      </trkpt>
      <trkpt lat="49.50127" lon="-1.59454">
        <ele>52</ele>
        <time>2022-01-25T15:30:39Z</time>
      </trkpt>
      <trkpt lat="49.50133" lon="-1.59458">
        <ele>52.1</ele>
        <time>2022-01-25T15:30:41Z</time>
      </trkpt>
      <trkpt lat="49.50137" lon="-1.59462">
        <ele>52.1</ele>
        <time>2022-01-25T15:30:43Z</time>
      </trkpt>
      <trkpt lat="49.50143" lon="-1.59466">
        <ele>52.3</ele>
        <time>2022-01-25T15:30:46Z</time>
      </trkpt>
      <trkpt lat="49.50148" lon="-1.59472">
        <ele>52.5</ele>
        <time>2022-01-25T15:30:50Z</time>
      </trkpt>
      <trkpt lat="49.50152" lon="-1.59477">
        <ele>52.6</ele>
        <time>2022-01-25T15:30:53Z</time>
      </trkpt>
      <trkpt lat="49.50155" lon="-1.59482">
        <ele>52.7</ele>
        <time>2022-01-25T15:30:56Z</time>
      </trkpt>
      <trkpt lat="49.50159" lon="-1.59487">
        <ele>52.9</ele>
        <time>2022-01-25T15:31:02Z</time>
      </trkpt>
      <trkpt lat="49.50163" lon="-1.59492">
        <ele>53</ele>
        <time>2022-01-25T15:31:05Z</time>
      </trkpt>
      <trkpt lat="49.50166" lon="-1.59497">
        <ele>53</ele>
        <time>2022-01-25T15:31:09Z</time>
      </trkpt>
      <trkpt lat="49.50171" lon="-1.59501">
        <ele>52.7</ele>
        <time>2022-01-25T15:31:13Z</time>
      </trkpt>
      <trkpt lat="49.50174" lon="-1.59506">
        <ele>52.3</ele>
        <time>2022-01-25T15:31:17Z</time>
      </trkpt>
      <trkpt lat="49.50176" lon="-1.59513">
        <ele>52.1</ele>
        <time>2022-01-25T15:31:20Z</time>
      </trkpt>
      <trkpt lat="49.50179" lon="-1.5952">
        <ele>52.3</ele>
        <time>2022-01-25T15:31:24Z</time>
      </trkpt>
      <trkpt lat="49.50182" lon="-1.59526">
        <ele>52.6</ele>
        <time>2022-01-25T15:31:28Z</time>
      </trkpt>
      <trkpt lat="49.50186" lon="-1.59531">
        <ele>52.8</ele>
        <time>2022-01-25T15:31:32Z</time>
      </trkpt>
      <trkpt lat="49.50192" lon="-1.59535">
        <ele>52.8</ele>
        <time>2022-01-25T15:31:36Z</time>
      </trkpt>
      <trkpt lat="49.50197" lon="-1.5954">
        <ele>52.9</ele>
        <time>2022-01-25T15:31:41Z</time>
      </trkpt>
      <trkpt lat="49.50202" lon="-1.59546">
        <ele>53.6</ele>
        <time>2022-01-25T15:31:45Z</time>
      </trkpt>
      <trkpt lat="49.50205" lon="-1.59551">
        <ele>54.2</ele>
        <time>2022-01-25T15:31:48Z</time>
      </trkpt>
      <trkpt lat="49.50209" lon="-1.59557">
        <ele>54.6</ele>
        <time>2022-01-25T15:31:51Z</time>
      </trkpt>
      <trkpt lat="49.50213" lon="-1.59563">
        <ele>54.5</ele>
        <time>2022-01-25T15:31:56Z</time>
      </trkpt>
      <trkpt lat="49.50216" lon="-1.59569">
        <ele>54.7</ele>
        <time>2022-01-25T15:32:00Z</time>
      </trkpt>
      <trkpt lat="49.5022" lon="-1.59573">
        <ele>54.7</ele>
        <time>2022-01-25T15:32:04Z</time>
      </trkpt>
      <trkpt lat="49.50225" lon="-1.59577">
        <ele>54.7</ele>
        <time>2022-01-25T15:32:07Z</time>
      </trkpt>
      <trkpt lat="49.50228" lon="-1.59582">
        <ele>54.4</ele>
        <time>2022-01-25T15:32:11Z</time>
      </trkpt>
      <trkpt lat="49.50231" lon="-1.59588">
        <ele>54.3</ele>
        <time>2022-01-25T15:32:16Z</time>
      </trkpt>
      <trkpt lat="49.50235" lon="-1.59595">
        <ele>54.2</ele>
        <time>2022-01-25T15:32:20Z</time>
      </trkpt>
      <trkpt lat="49.5024" lon="-1.596">
        <ele>54.4</ele>
        <time>2022-01-25T15:32:24Z</time>
      </trkpt>
      <trkpt lat="49.50244" lon="-1.59601">
        <ele>54.6</ele>
        <time>2022-01-25T15:32:28Z</time>
      </trkpt>
      <trkpt lat="49.50251" lon="-1.59601">
        <ele>55.1</ele>
        <time>2022-01-25T15:32:33Z</time>
      </trkpt>
      <trkpt lat="49.50255" lon="-1.59599">
        <ele>55.4</ele>
        <time>2022-01-25T15:32:37Z</time>
      </trkpt>
      <trkpt lat="49.50259" lon="-1.59595">
        <ele>55.6</ele>
        <time>2022-01-25T15:32:40Z</time>
      </trkpt>
      <trkpt lat="49.50263" lon="-1.5959">
        <ele>55.8</ele>
        <time>2022-01-25T15:32:43Z</time>
      </trkpt>
      <trkpt lat="49.50266" lon="-1.59584">
        <ele>55.6</ele>
        <time>2022-01-25T15:32:47Z</time>
      </trkpt>
      <trkpt lat="49.50272" lon="-1.59581">
        <ele>55.2</ele>
        <time>2022-01-25T15:32:52Z</time>
      </trkpt>
      <trkpt lat="49.50276" lon="-1.59581">
        <ele>54.9</ele>
        <time>2022-01-25T15:32:56Z</time>
      </trkpt>
      <trkpt lat="49.50283" lon="-1.59579">
        <ele>55</ele>
        <time>2022-01-25T15:32:59Z</time>
      </trkpt>
      <trkpt lat="49.50288" lon="-1.59575">
        <ele>55.4</ele>
        <time>2022-01-25T15:33:04Z</time>
      </trkpt>
      <trkpt lat="49.50292" lon="-1.59574">
        <ele>55.8</ele>
        <time>2022-01-25T15:33:07Z</time>
      </trkpt>
      <trkpt lat="49.50297" lon="-1.59576">
        <ele>56.2</ele>
        <time>2022-01-25T15:33:10Z</time>
      </trkpt>
      <trkpt lat="49.50303" lon="-1.59581">
        <ele>56.8</ele>
        <time>2022-01-25T15:33:15Z</time>
      </trkpt>
      <trkpt lat="49.50308" lon="-1.59583">
        <ele>57.1</ele>
        <time>2022-01-25T15:33:20Z</time>
      </trkpt>
      <trkpt lat="49.50314" lon="-1.59586">
        <ele>57.5</ele>
        <time>2022-01-25T15:33:25Z</time>
      </trkpt>
      <trkpt lat="49.50319" lon="-1.59587">
        <ele>57.9</ele>
        <time>2022-01-25T15:33:29Z</time>
      </trkpt>
      <trkpt lat="49.50324" lon="-1.5959">
        <ele>58.2</ele>
        <time>2022-01-25T15:33:33Z</time>
      </trkpt>
      <trkpt lat="49.50331" lon="-1.59586">
        <ele>58.7</ele>
        <time>2022-01-25T15:33:37Z</time>
      </trkpt>
      <trkpt lat="49.50326" lon="-1.59589">
        <ele>59</ele>
        <time>2022-01-25T15:34:36Z</time>
      </trkpt>
      <trkpt lat="49.50328" lon="-1.59597">
        <ele>59.2</ele>
        <time>2022-01-25T15:34:39Z</time>
      </trkpt>
      <trkpt lat="49.50331" lon="-1.59601">
        <ele>59.3</ele>
        <time>2022-01-25T15:34:42Z</time>
      </trkpt>
      <trkpt lat="49.50336" lon="-1.59597">
        <ele>59.4</ele>
        <time>2022-01-25T15:34:47Z</time>
      </trkpt>
      <trkpt lat="49.5034" lon="-1.5959">
        <ele>59.3</ele>
        <time>2022-01-25T15:34:51Z</time>
      </trkpt>
      <trkpt lat="49.50344" lon="-1.59587">
        <ele>59.1</ele>
        <time>2022-01-25T15:34:55Z</time>
      </trkpt>
      <trkpt lat="49.50348" lon="-1.59594">
        <ele>59.1</ele>
        <time>2022-01-25T15:34:59Z</time>
      </trkpt>
      <trkpt lat="49.50351" lon="-1.596">
        <ele>59.1</ele>
        <time>2022-01-25T15:35:02Z</time>
      </trkpt>
      <trkpt lat="49.50353" lon="-1.59607">
        <ele>59.1</ele>
        <time>2022-01-25T15:35:06Z</time>
      </trkpt>
      <trkpt lat="49.50355" lon="-1.59613">
        <ele>58.9</ele>
        <time>2022-01-25T15:36:24Z</time>
      </trkpt>
    </trkseg>
  </trk>
</gpx>